Darstellungsparameter: Aktuell verwendete Einstellungen:
Skalierung der Graphiken ... ?
xyx+y,   Skalierungsfaktor:      Skalierung: Modus: x, Faktor: 1
Darstellungszeitraum ... ?
Vom - - bis: - -   Zeitraum: 13.12.2015 - 12.06.2016
Min/Max/Avg-Anzeige ... ?
Zeige MMA aktuell
Zeige MMA Monat
Zeige MMA alles
Zeige --A aktuell
Zeige --A Monat
Zeige --A alles
Keine MMA-Anzeige
MMA:
Average (ber die Originaldaten)
MMA-Basis: 11.05.2019 - 13.06.2019
Quicknavigation für Darstellung... ?
Tage:      1T, 2T, 3T, 5T -1T -2T -3T -5T +1T +2T +3T +5T
Wochen: 1W, 2W, 3W -1W -2W -3W +1W +2W +3W
Monate: 1M, 3M, 6M -1M -3M -6M +1M +3M +6M
Jahre:    1J, 3J, 5J, 10J -1J -3J -5J -10J +1J +3J +5J +10J
Nutze für die Darstellung ... ?
Originaldaten oder Mittelwerte auf ...
Stundenbasis Tagesbasis Wochenbasis
Monatsbasis Jahresbasis      Datenbasis: Original-Daten
Darstellen als:
Statistik (Auto) Statistik J:M      Darstellung:
Zur Graphik,    zurück zur Übersicht aller Sensoren.
 
Tabellarische Datenbersicht: ?
 
Sensor: Nr:Datum:Temp:Abs-Feuchte:Windchill:Wind:
Aussen-T/F 1 13-12-2015 00:00:00 10.1 C 8.42 g/m*3 7.42 C 20.9 km/h
2 13-12-2015 00:05:00 10.1 C 8.42 g/m*3 7.28 C 22.5 km/h
3 13-12-2015 00:10:00 10.1 C 8.32 g/m*3 7.91 C 16.1 km/h
4 13-12-2015 00:15:00 10.1 C 8.32 g/m*3 8.1 C 14.5 km/h
5 13-12-2015 00:20:00 10 C 8.36 g/m*3 7.44 C 19.3 km/h
6 13-12-2015 00:25:00 10 C 8.36 g/m*3 7.15 C 22.5 km/h
7 13-12-2015 00:30:00 9.9 C 8.31 g/m*3 6.89 C 24.1 km/h
8 13-12-2015 00:35:00 9.9 C 8.22 g/m*3 6.89 C 24.1 km/h
9 13-12-2015 00:40:00 9.9 C 8.22 g/m*3 7.02 C 22.5 km/h
10 13-12-2015 00:45:00 9.9 C 8.22 g/m*3 7.48 C 17.7 km/h
11 13-12-2015 00:50:00 9.9 C 8.22 g/m*3 7.02 C 22.5 km/h
12 13-12-2015 00:55:00 9.9 C 8.22 g/m*3 7.02 C 22.5 km/h
13 13-12-2015 01:00:00 9.9 C 8.12 g/m*3 7.02 C 22.5 km/h
14 13-12-2015 01:05:00 9.9 C 8.12 g/m*3 7.02 C 22.5 km/h
15 13-12-2015 01:10:00 9.9 C 8.12 g/m*3 7.16 C 20.9 km/h
16 13-12-2015 01:15:00 9.9 C 8.03 g/m*3 7.48 C 17.7 km/h
17 13-12-2015 01:20:00 9.9 C 8.03 g/m*3 7.32 C 19.3 km/h
18 13-12-2015 01:25:00 9.9 C 8.03 g/m*3 6.63 C 27.4 km/h
19 13-12-2015 01:30:00 9.8 C 7.98 g/m*3 6.89 C 22.5 km/h
20 13-12-2015 01:35:00 9.8 C 7.98 g/m*3 6.5 C 27.4 km/h
21 13-12-2015 01:40:00 9.8 C 7.98 g/m*3 7.54 C 16.1 km/h
22 13-12-2015 01:45:00 9.8 C 7.98 g/m*3 7.73 C 14.5 km/h
23 13-12-2015 01:50:00 9.8 C 7.98 g/m*3 7.54 C 16.1 km/h
24 13-12-2015 01:55:00 9.7 C 7.93 g/m*3 7.23 C 17.7 km/h
25 13-12-2015 02:00:00 9.7 C 7.93 g/m*3 7.61 C 14.5 km/h
Sensor: Nr:Datum:Temp:Abs-Feuchte:Windchill:Wind:
Aussen-T/F 26 13-12-2015 02:05:00 9.7 C 7.93 g/m*3 6.77 C 22.5 km/h
27 13-12-2015 02:10:00 9.7 C 7.93 g/m*3 6.25 C 29 km/h
28 13-12-2015 02:15:00 9.7 C 7.93 g/m*3 7.23 C 17.7 km/h
29 13-12-2015 02:20:00 9.6 C 7.88 g/m*3 6.94 C 19.3 km/h
30 13-12-2015 02:25:00 9.6 C 7.88 g/m*3 6.79 C 20.9 km/h
31 13-12-2015 02:30:00 9.6 C 7.88 g/m*3 6.37 C 25.7 km/h
32 13-12-2015 02:35:00 9.5 C 7.83 g/m*3 5.88 C 30.6 km/h
33 13-12-2015 02:40:00 9.5 C 7.83 g/m*3 7.16 C 16.1 km/h
34 13-12-2015 02:45:00 9.4 C 7.78 g/m*3 6.25 C 24.1 km/h
35 13-12-2015 02:50:00 9.4 C 7.78 g/m*3 6.38 C 22.5 km/h
36 13-12-2015 02:55:00 9.4 C 7.69 g/m*3 5.98 C 27.4 km/h
37 13-12-2015 03:00:00 9.4 C 7.69 g/m*3 6.11 C 25.7 km/h
38 13-12-2015 03:05:00 9.4 C 7.69 g/m*3 7.24 C 14.5 km/h
39 13-12-2015 03:10:00 9.3 C 7.64 g/m*3 6.92 C 16.1 km/h
40 13-12-2015 03:15:00 9.3 C 7.73 g/m*3 7.58 C 11.3 km/h
41 13-12-2015 03:20:00 9.3 C 7.73 g/m*3 7.33 C 12.9 km/h
42 13-12-2015 03:25:00 9.3 C 7.73 g/m*3 7.58 C 11.3 km/h
43 13-12-2015 03:30:00 9.3 C 7.73 g/m*3 9.3 C 3.2 km/h
44 13-12-2015 03:35:00 9.3 C 7.73 g/m*3 9.3 C 3.2 km/h
45 13-12-2015 03:40:00 9.3 C 7.73 g/m*3 8.56 C 6.4 km/h
46 13-12-2015 03:45:00 9.2 C 7.77 g/m*3 8.05 C 8.1 km/h
47 13-12-2015 03:50:00 9.2 C 7.77 g/m*3 7.73 C 9.7 km/h
48 13-12-2015 03:55:00 9.2 C 7.77 g/m*3 6.99 C 14.5 km/h
49 13-12-2015 04:00:00 9.2 C 7.68 g/m*3 6.79 C 16.1 km/h
50 13-12-2015 04:05:00 9.2 C 7.68 g/m*3 6.79 C 16.1 km/h
Sensor: Nr:Datum:Temp:Abs-Feuchte:Windchill:Wind:
Aussen-T/F 51 13-12-2015 04:10:00 9.2 C 7.59 g/m*3 6.13 C 22.5 km/h
52 13-12-2015 04:15:00 9.2 C 7.59 g/m*3 7.73 C 9.7 km/h
53 13-12-2015 04:20:00 9.2 C 7.59 g/m*3 6.13 C 22.5 km/h
54 13-12-2015 04:25:00 9.1 C 7.54 g/m*3 7.09 C 12.9 km/h
55 13-12-2015 04:30:00 9.1 C 7.54 g/m*3 6.48 C 17.7 km/h
56 13-12-2015 04:35:00 9.1 C 7.54 g/m*3 7.09 C 12.9 km/h
57 13-12-2015 04:40:00 9.1 C 7.54 g/m*3 7.93 C 8.1 km/h
58 13-12-2015 04:45:00 9 C 7.49 g/m*3 6.75 C 14.5 km/h
59 13-12-2015 04:50:00 8.9 C 7.53 g/m*3 6.06 C 19.3 km/h
60 13-12-2015 04:55:00 8.9 C 7.53 g/m*3 6.42 C 16.1 km/h
61 13-12-2015 05:00:00 8.9 C 7.53 g/m*3 6.62 C 14.5 km/h
62 13-12-2015 05:05:00 8.9 C 7.53 g/m*3 7.37 C 9.7 km/h
63 13-12-2015 05:10:00 8.9 C 7.53 g/m*3 6.62 C 14.5 km/h
64 13-12-2015 05:15:00 8.9 C 7.53 g/m*3 7.09 C 11.3 km/h
65 13-12-2015 05:20:00 8.9 C 7.53 g/m*3 7.09 C 11.3 km/h
66 13-12-2015 05:25:00 8.9 C 7.53 g/m*3 7.69 C 8.1 km/h
67 13-12-2015 05:30:00 8.9 C 7.53 g/m*3 6.23 C 17.7 km/h
68 13-12-2015 05:35:00 8.9 C 7.53 g/m*3 7.09 C 11.3 km/h
69 13-12-2015 05:40:00 8.9 C 7.53 g/m*3 7.09 C 11.3 km/h
70 13-12-2015 05:45:00 8.9 C 7.53 g/m*3 6.62 C 14.5 km/h
71 13-12-2015 05:50:00 8.9 C 7.53 g/m*3 6.62 C 14.5 km/h
72 13-12-2015 05:55:00 8.9 C 7.53 g/m*3 6.85 C 12.9 km/h
73 13-12-2015 06:00:00 8.9 C 7.53 g/m*3 7.37 C 9.7 km/h
74 13-12-2015 06:05:00 9 C 7.58 g/m*3 6.97 C 12.9 km/h
75 13-12-2015 06:10:00 9 C 7.58 g/m*3 6.03 C 20.9 km/h
Sensor: Nr:Datum:Temp:Abs-Feuchte:Windchill:Wind:
Aussen-T/F 76 13-12-2015 06:15:00 9 C 7.58 g/m*3 7.49 C 9.7 km/h
77 13-12-2015 06:20:00 9 C 7.58 g/m*3 7.21 C 11.3 km/h
78 13-12-2015 06:25:00 9 C 7.58 g/m*3 5.6 C 25.7 km/h
79 13-12-2015 06:30:00 9 C 7.58 g/m*3 6.54 C 16.1 km/h
80 13-12-2015 06:35:00 9.1 C 7.63 g/m*3 6.31 C 19.3 km/h
81 13-12-2015 06:40:00 9.1 C 7.63 g/m*3 6.67 C 16.1 km/h
82 13-12-2015 06:45:00 9.1 C 7.63 g/m*3 6.87 C 14.5 km/h
83 13-12-2015 06:50:00 9.1 C 7.63 g/m*3 6.87 C 14.5 km/h
84 13-12-2015 06:55:00 9.1 C 7.63 g/m*3 6.67 C 16.1 km/h
85 13-12-2015 07:00:00 9.1 C 7.63 g/m*3 6.48 C 17.7 km/h
86 13-12-2015 07:05:00 9.1 C 7.63 g/m*3 6.15 C 20.9 km/h
87 13-12-2015 07:10:00 9.1 C 7.63 g/m*3 7.09 C 12.9 km/h
88 13-12-2015 07:15:00 9.1 C 7.63 g/m*3 6.87 C 14.5 km/h
89 13-12-2015 07:20:00 9.2 C 7.68 g/m*3 6.44 C 19.3 km/h
90 13-12-2015 07:25:00 9.1 C 7.63 g/m*3 5.59 C 27.4 km/h
91 13-12-2015 07:30:00 9.1 C 7.63 g/m*3 6.87 C 14.5 km/h
92 13-12-2015 07:35:00 9.1 C 7.63 g/m*3 6 C 22.5 km/h
93 13-12-2015 07:40:00 9.1 C 7.63 g/m*3 7.33 C 11.3 km/h
94 13-12-2015 07:45:00 9.1 C 7.63 g/m*3 6.15 C 20.9 km/h
95 13-12-2015 07:50:00 9.1 C 7.72 g/m*3 7.33 C 11.3 km/h
96 13-12-2015 07:55:00 9.1 C 7.72 g/m*3 6.67 C 16.1 km/h
97 13-12-2015 08:00:00 9 C 7.58 g/m*3 5.87 C 22.5 km/h
98 13-12-2015 08:05:00 9 C 7.67 g/m*3 5.87 C 22.5 km/h
99 13-12-2015 08:10:00 9 C 7.67 g/m*3 6.36 C 17.7 km/h
100 13-12-2015 08:15:00 9 C 7.67 g/m*3 6.36 C 17.7 km/h
Sensor: Nr:Datum:Temp:Abs-Feuchte:Windchill:Wind:
Aussen-T/F 101 13-12-2015 08:20:00 8.9 C 7.62 g/m*3 6.85 C 12.9 km/h
102 13-12-2015 08:25:00 8.9 C 7.62 g/m*3 6.23 C 17.7 km/h
103 13-12-2015 08:30:00 8.9 C 7.62 g/m*3 5.9 C 20.9 km/h
104 13-12-2015 08:35:00 8.9 C 7.62 g/m*3 6.62 C 14.5 km/h
105 13-12-2015 08:40:00 8.9 C 7.62 g/m*3 5.47 C 25.7 km/h
106 13-12-2015 08:45:00 8.9 C 7.62 g/m*3 5.9 C 20.9 km/h
107 13-12-2015 08:50:00 8.9 C 7.62 g/m*3 7.09 C 11.3 km/h
108 13-12-2015 08:55:00 8.9 C 7.62 g/m*3 6.42 C 16.1 km/h
109 13-12-2015 09:00:00 8.9 C 7.62 g/m*3 6.62 C 14.5 km/h
110 13-12-2015 09:05:00 8.9 C 7.71 g/m*3 5.9 C 20.9 km/h
111 13-12-2015 09:10:00 8.8 C 7.66 g/m*3 6.3 C 16.1 km/h
112 13-12-2015 09:15:00 8.8 C 7.66 g/m*3 6.11 C 17.7 km/h
113 13-12-2015 09:20:00 8.8 C 7.66 g/m*3 6.72 C 12.9 km/h
114 13-12-2015 09:25:00 8.8 C 7.66 g/m*3 5.93 C 19.3 km/h
115 13-12-2015 09:30:00 8.8 C 7.66 g/m*3 6.97 C 11.3 km/h
116 13-12-2015 09:35:00 8.8 C 7.66 g/m*3 6.5 C 14.5 km/h
117 13-12-2015 09:40:00 8.8 C 7.66 g/m*3 5.93 C 19.3 km/h
118 13-12-2015 09:45:00 8.8 C 7.66 g/m*3 7.25 C 9.7 km/h
119 13-12-2015 09:50:00 8.8 C 7.66 g/m*3 7.58 C 8.1 km/h
120 13-12-2015 09:55:00 8.9 C 7.71 g/m*3 6.62 C 14.5 km/h
121 13-12-2015 10:00:00 8.9 C 7.71 g/m*3 6.23 C 17.7 km/h
122 13-12-2015 10:05:00 8.9 C 7.71 g/m*3 7.09 C 11.3 km/h
123 13-12-2015 10:10:00 8.9 C 7.71 g/m*3 7.09 C 11.3 km/h
124 13-12-2015 10:15:00 8.9 C 7.71 g/m*3 7.37 C 9.7 km/h
125 13-12-2015 10:20:00 8.9 C 7.71 g/m*3 7.37 C 9.7 km/h
Sensor: Nr:Datum:Temp:Abs-Feuchte:Windchill:Wind:
Aussen-T/F 126 13-12-2015 10:25:00 9 C 7.76 g/m*3 7.21 C 11.3 km/h
127 13-12-2015 10:30:00 9 C 7.76 g/m*3 7.21 C 11.3 km/h
128 13-12-2015 10:35:00 9.1 C 7.81 g/m*3 7.93 C 8.1 km/h
129 13-12-2015 10:40:00 9 C 7.76 g/m*3 6.75 C 14.5 km/h
130 13-12-2015 10:45:00 9.1 C 7.81 g/m*3 6.48 C 17.7 km/h
131 13-12-2015 10:50:00 9.1 C 7.81 g/m*3 7.61 C 9.7 km/h
132 13-12-2015 10:55:00 9.1 C 7.81 g/m*3 7.09 C 12.9 km/h
133 13-12-2015 11:00:00 9.1 C 7.81 g/m*3 7.09 C 12.9 km/h
134 13-12-2015 11:05:00 9.1 C 7.81 g/m*3 7.33 C 11.3 km/h
135 13-12-2015 11:10:00 9.1 C 7.81 g/m*3 7.61 C 9.7 km/h
136 13-12-2015 11:15:00 9.2 C 7.86 g/m*3 7.46 C 11.3 km/h
137 13-12-2015 11:20:00 9.2 C 7.86 g/m*3 7.21 C 12.9 km/h
138 13-12-2015 11:25:00 9.2 C 7.86 g/m*3 6.61 C 17.7 km/h
139 13-12-2015 11:30:00 9.2 C 7.86 g/m*3 6.99 C 14.5 km/h
140 13-12-2015 11:35:00 9.2 C 7.86 g/m*3 6.99 C 14.5 km/h
141 13-12-2015 11:40:00 9.2 C 7.86 g/m*3 8.45 C 6.4 km/h
142 13-12-2015 11:45:00 9.2 C 7.86 g/m*3 8.05 C 8.1 km/h
143 13-12-2015 11:50:00 9.2 C 7.86 g/m*3 8.05 C 8.1 km/h
144 13-12-2015 11:55:00 9.2 C 7.86 g/m*3 6.99 C 14.5 km/h
145 13-12-2015 12:00:00 9.1 C 7.81 g/m*3 7.93 C 8.1 km/h
146 13-12-2015 12:05:00 9.1 C 7.9 g/m*3 8.33 C 6.4 km/h
147 13-12-2015 12:10:00 9.1 C 7.9 g/m*3 8.33 C 6.4 km/h
148 13-12-2015 12:15:00 9.1 C 7.9 g/m*3 7.33 C 11.3 km/h
149 13-12-2015 12:20:00 9.1 C 7.9 g/m*3 9.1 C 4.8 km/h
150 13-12-2015 12:25:00 9.1 C 7.9 g/m*3 7.93 C 8.1 km/h
Sensor: Nr:Datum:Temp:Abs-Feuchte:Windchill:Wind:
Aussen-T/F 151 13-12-2015 12:30:00 9.1 C 7.9 g/m*3 7.61 C 9.7 km/h
152 13-12-2015 12:35:00 9.1 C 7.9 g/m*3 6.67 C 16.1 km/h
153 13-12-2015 12:40:00 9.1 C 7.9 g/m*3 8.33 C 6.4 km/h
154 13-12-2015 12:45:00 9.1 C 7.9 g/m*3 8.33 C 6.4 km/h
155 13-12-2015 12:50:00 9.1 C 7.9 g/m*3 7.61 C 9.7 km/h
156 13-12-2015 12:55:00 9.1 C 7.9 g/m*3 7.93 C 8.1 km/h
157 13-12-2015 13:00:00 9.1 C 7.9 g/m*3 7.61 C 9.7 km/h
158 13-12-2015 13:05:00 9 C 7.93 g/m*3 9 C 4.8 km/h
159 13-12-2015 13:10:00 9 C 7.93 g/m*3 7.81 C 8.1 km/h
160 13-12-2015 13:15:00 8.9 C 7.88 g/m*3 8.9 C 4.8 km/h
161 13-12-2015 13:20:00 8.9 C 7.97 g/m*3 8.1 C 6.4 km/h
162 13-12-2015 13:25:00 8.9 C 7.97 g/m*3 7.69 C 8.1 km/h
163 13-12-2015 13:30:00 8.8 C 8.01 g/m*3 7.98 C 6.4 km/h
164 13-12-2015 13:35:00 8.8 C 8.01 g/m*3 7.98 C 6.4 km/h
165 13-12-2015 13:40:00 8.7 C 7.96 g/m*3 8.7 C 3.2 km/h
166 13-12-2015 13:45:00 8.7 C 7.96 g/m*3 8.7 C 3.2 km/h
167 13-12-2015 13:50:00 8.7 C 8.04 g/m*3 8.7 C 3.2 km/h
168 13-12-2015 13:55:00 8.7 C 8.04 g/m*3 8.7 C 3.2 km/h
169 13-12-2015 14:00:00 8.7 C 8.04 g/m*3 8.7 C 4.8 km/h
170 13-12-2015 14:05:00 8.6 C 7.99 g/m*3 7.75 C 6.4 km/h
171 13-12-2015 14:10:00 8.6 C 8.08 g/m*3 8.6 C 3.2 km/h
172 13-12-2015 14:15:00 8.6 C 8.08 g/m*3 8.6 C 4.8 km/h
173 13-12-2015 14:20:00 8.6 C 8.08 g/m*3 8.6 C 3.2 km/h
174 13-12-2015 14:25:00 8.6 C 8.08 g/m*3 8.6 C 3.2 km/h
175 13-12-2015 14:30:00 8.6 C 8.08 g/m*3 8.6 C 3.2 km/h
Sensor: Nr:Datum:Temp:Abs-Feuchte:Windchill:Wind:
Aussen-T/F 176 13-12-2015 14:35:00 8.5 C 8.03 g/m*3 8.5 C 3.2 km/h
177 13-12-2015 14:40:00 8.5 C 8.03 g/m*3 8.5 C 3.2 km/h
178 13-12-2015 14:45:00 8.5 C 8.11 g/m*3 8.5 C 0 km/h
179 13-12-2015 14:50:00 8.4 C 8.06 g/m*3 8.4 C 1.6 km/h
180 13-12-2015 14:55:00 8.4 C 8.06 g/m*3 8.4 C 0 km/h
181 13-12-2015 15:00:00 8.4 C 8.06 g/m*3 8.4 C 0 km/h
182 13-12-2015 15:05:00 8.4 C 8.06 g/m*3 8.4 C 1.6 km/h
183 13-12-2015 15:10:00 8.3 C 8.01 g/m*3 8.3 C 0 km/h
184 13-12-2015 15:15:00 8.3 C 8.01 g/m*3 8.3 C 1.6 km/h
185 13-12-2015 15:20:00 8.2 C 7.96 g/m*3 8.2 C 0 km/h
186 13-12-2015 15:25:00 8.1 C 7.9 g/m*3 8.1 C 0 km/h
187 13-12-2015 15:30:00 8.1 C 7.9 g/m*3 8.1 C 1.6 km/h
188 13-12-2015 15:35:00 8 C 7.85 g/m*3 8 C 1.6 km/h
189 13-12-2015 15:40:00 8 C 7.85 g/m*3 8 C 0 km/h
190 13-12-2015 15:45:00 7.9 C 7.8 g/m*3 7.9 C 0 km/h
191 13-12-2015 15:50:00 7.9 C 7.8 g/m*3 7.9 C 0 km/h
192 13-12-2015 15:55:00 7.9 C 7.8 g/m*3 7.9 C 0 km/h
193 13-12-2015 16:00:00 7.8 C 7.83 g/m*3 7.8 C 0 km/h
194 13-12-2015 16:05:00 7.8 C 7.83 g/m*3 7.8 C 0 km/h
195 13-12-2015 16:10:00 7.8 C 7.83 g/m*3 7.8 C 0 km/h
196 13-12-2015 16:15:00 7.8 C 7.83 g/m*3 7.8 C 0 km/h
197 13-12-2015 16:20:00 7.8 C 7.83 g/m*3 7.8 C 0 km/h
198 13-12-2015 16:25:00 7.8 C 7.83 g/m*3 7.8 C 0 km/h
199 13-12-2015 16:30:00 7.8 C 7.83 g/m*3 7.8 C 0 km/h
200 13-12-2015 16:35:00 7.8 C 7.83 g/m*3 7.8 C 0 km/h
Sensor: Nr:Datum:Temp:Abs-Feuchte:Windchill:Wind:
Aussen-T/F 201 13-12-2015 16:40:00 7.8 C 7.83 g/m*3 7.8 C 0 km/h
202 13-12-2015 16:45:00 7.8 C 7.83 g/m*3 7.8 C 0 km/h
203 13-12-2015 16:50:00 7.8 C 7.83 g/m*3 7.8 C 0 km/h
204 13-12-2015 16:55:00 7.7 C 7.78 g/m*3 7.7 C 0 km/h
205 13-12-2015 17:00:00 7.7 C 7.78 g/m*3 7.7 C 0 km/h
206 13-12-2015 17:05:00 7.7 C 7.78 g/m*3 7.7 C 0 km/h
207 13-12-2015 17:10:00 7.7 C 7.78 g/m*3 7.7 C 0 km/h
208 13-12-2015 17:15:00 7.7 C 7.78 g/m*3 7.7 C 0 km/h
209 13-12-2015 17:20:00 7.7 C 7.78 g/m*3 7.7 C 0 km/h
210 13-12-2015 17:25:00 7.7 C 7.78 g/m*3 7.7 C 0 km/h
211 13-12-2015 17:30:00 7.7 C 7.78 g/m*3 7.7 C 0 km/h
212 13-12-2015 17:35:00 7.7 C 7.78 g/m*3 7.7 C 0 km/h
213 13-12-2015 17:40:00 7.7 C 7.78 g/m*3 7.7 C 0 km/h
214 13-12-2015 17:45:00 7.7 C 7.78 g/m*3 7.7 C 0 km/h
215 13-12-2015 17:50:00 7.7 C 7.78 g/m*3 7.7 C 0 km/h
216 13-12-2015 17:55:00 7.7 C 7.78 g/m*3 7.7 C 0 km/h
217 13-12-2015 18:00:00 7.7 C 7.78 g/m*3 7.7 C 0 km/h
218 13-12-2015 18:05:00 7.7 C 7.78 g/m*3 7.7 C 0 km/h
219 13-12-2015 18:10:00 7.7 C 7.78 g/m*3 7.7 C 0 km/h
220 13-12-2015 18:15:00 7.7 C 7.78 g/m*3 7.7 C 0 km/h
221 13-12-2015 18:20:00 7.7 C 7.78 g/m*3 7.7 C 0 km/h
222 13-12-2015 18:25:00 7.7 C 7.78 g/m*3 7.7 C 0 km/h
223 13-12-2015 18:30:00 7.7 C 7.78 g/m*3 7.7 C 0 km/h
224 13-12-2015 18:35:00 7.7 C 7.78 g/m*3 7.7 C 0 km/h
225 13-12-2015 18:40:00 7.7 C 7.78 g/m*3 7.7 C 0 km/h
Sensor: Nr:Datum:Temp:Abs-Feuchte:Windchill:Wind:
Aussen-T/F 226 13-12-2015 18:45:00 7.7 C 7.78 g/m*3 7.7 C 0 km/h
227 13-12-2015 18:50:00 7.7 C 7.78 g/m*3 7.7 C 0 km/h
228 13-12-2015 18:55:00 7.7 C 7.78 g/m*3 7.7 C 0 km/h
229 13-12-2015 19:00:00 7.7 C 7.78 g/m*3 7.7 C 0 km/h
230 13-12-2015 19:05:00 7.7 C 7.78 g/m*3 7.7 C 0 km/h
231 13-12-2015 19:10:00 7.7 C 7.78 g/m*3 7.7 C 0 km/h
232 13-12-2015 19:15:00 7.7 C 7.78 g/m*3 7.7 C 0 km/h
233 13-12-2015 19:20:00 7.7 C 7.78 g/m*3 7.7 C 0 km/h
234 13-12-2015 19:25:00 7.7 C 7.78 g/m*3 7.7 C 0 km/h
235 13-12-2015 19:30:00 7.7 C 7.87 g/m*3 7.7 C 0 km/h
236 13-12-2015 19:35:00 7.7 C 7.87 g/m*3 7.7 C 0 km/h
237 13-12-2015 19:40:00 7.7 C 7.87 g/m*3 7.7 C 0 km/h
238 13-12-2015 19:45:00 7.7 C 7.87 g/m*3 7.7 C 0 km/h
239 13-12-2015 19:50:00 7.7 C 7.78 g/m*3 7.7 C 0 km/h
240 13-12-2015 19:55:00 7.7 C 7.78 g/m*3 7.7 C 0 km/h
241 13-12-2015 20:00:00 7.7 C 7.78 g/m*3 7.7 C 0 km/h
242 13-12-2015 20:05:00 7.6 C 7.73 g/m*3 7.6 C 0 km/h
243 13-12-2015 20:10:00 7.6 C 7.73 g/m*3 7.6 C 0 km/h
244 13-12-2015 20:15:00 7.7 C 7.78 g/m*3 7.7 C 0 km/h
245 13-12-2015 20:20:00 7.7 C 7.87 g/m*3 7.7 C 0 km/h
246 13-12-2015 20:25:00 7.7 C 7.87 g/m*3 7.7 C 0 km/h
247 13-12-2015 20:30:00 7.7 C 7.87 g/m*3 7.7 C 0 km/h
248 13-12-2015 20:35:00 7.7 C 7.87 g/m*3 7.7 C 0 km/h
249 13-12-2015 20:40:00 7.7 C 7.87 g/m*3 7.7 C 0 km/h
250 13-12-2015 20:45:00 7.7 C 7.87 g/m*3 7.7 C 0 km/h
Sensor: Nr:Datum:Temp:Abs-Feuchte:Windchill:Wind:
Aussen-T/F 251 13-12-2015 20:50:00 7.7 C 7.78 g/m*3 7.7 C 0 km/h
252 13-12-2015 20:55:00 7.7 C 7.78 g/m*3 7.7 C 0 km/h
253 13-12-2015 21:00:00 7.7 C 7.87 g/m*3 7.7 C 0 km/h
254 13-12-2015 21:05:00 7.7 C 7.87 g/m*3 7.7 C 0 km/h
255 13-12-2015 21:10:00 7.7 C 7.87 g/m*3 7.7 C 0 km/h
256 13-12-2015 21:15:00 7.7 C 7.87 g/m*3 7.7 C 0 km/h
257 13-12-2015 21:20:00 7.7 C 7.87 g/m*3 7.7 C 0 km/h
258 13-12-2015 21:25:00 7.7 C 7.87 g/m*3 7.7 C 0 km/h
259 13-12-2015 21:30:00 7.7 C 7.87 g/m*3 7.7 C 0 km/h
260 13-12-2015 21:35:00 7.7 C 7.87 g/m*3 7.7 C 0 km/h
261 13-12-2015 21:40:00 7.7 C 7.87 g/m*3 7.7 C 0 km/h
262 13-12-2015 21:45:00 7.7 C 7.87 g/m*3 7.7 C 0 km/h
263 13-12-2015 21:50:00 7.7 C 7.87 g/m*3 7.7 C 0 km/h
264 13-12-2015 21:55:00 7.7 C 7.87 g/m*3 7.7 C 0 km/h
265 13-12-2015 22:00:00 7.8 C 7.92 g/m*3 7.8 C 0 km/h
266 13-12-2015 22:05:00 7.7 C 7.87 g/m*3 7.7 C 0 km/h
267 13-12-2015 22:10:00 7.7 C 7.87 g/m*3 7.7 C 0 km/h
268 13-12-2015 22:15:00 7.7 C 7.87 g/m*3 7.7 C 0 km/h
269 13-12-2015 22:20:00 7.7 C 7.87 g/m*3 7.7 C 0 km/h
270 13-12-2015 22:25:00 7.7 C 7.87 g/m*3 7.7 C 0 km/h
271 13-12-2015 22:30:00 7.7 C 7.87 g/m*3 7.7 C 0 km/h
272 13-12-2015 22:35:00 7.7 C 7.87 g/m*3 7.7 C 0 km/h
273 13-12-2015 22:40:00 7.7 C 7.87 g/m*3 7.7 C 0 km/h
274 13-12-2015 22:45:00 7.7 C 7.87 g/m*3 7.7 C 0 km/h
275 13-12-2015 22:50:00 7.8 C 7.92 g/m*3 7.8 C 0 km/h
Sensor: Nr:Datum:Temp:Abs-Feuchte:Windchill:Wind:
Aussen-T/F 276 13-12-2015 22:55:00 7.8 C 7.92 g/m*3 7.8 C 0 km/h
277 13-12-2015 23:00:00 7.7 C 7.87 g/m*3 7.7 C 0 km/h
278 13-12-2015 23:05:00 7.7 C 7.87 g/m*3 7.7 C 0 km/h
279 13-12-2015 23:10:00 7.8 C 7.92 g/m*3 7.8 C 0 km/h
280 13-12-2015 23:15:00 7.8 C 7.92 g/m*3 7.8 C 0 km/h
281 13-12-2015 23:20:00 7.8 C 7.92 g/m*3 7.8 C 0 km/h
282 13-12-2015 23:25:00 7.8 C 7.92 g/m*3 7.8 C 0 km/h
283 13-12-2015 23:30:00 7.8 C 7.92 g/m*3 7.8 C 0 km/h
284 13-12-2015 23:35:00 7.8 C 7.92 g/m*3 7.8 C 0 km/h
285 13-12-2015 23:40:00 7.8 C 7.92 g/m*3 7.8 C 0 km/h
286 13-12-2015 23:45:00 7.8 C 7.92 g/m*3 7.8 C 0 km/h
287 13-12-2015 23:50:00 7.8 C 7.92 g/m*3 7.8 C 0 km/h
288 13-12-2015 23:55:00 7.8 C 7.92 g/m*3 7.8 C 0 km/h
289 14-12-2015 00:00:00 7.8 C 7.92 g/m*3 7.8 C 0 km/h
290 14-12-2015 00:05:00 7.7 C 7.87 g/m*3 7.7 C 0 km/h
291 14-12-2015 00:10:00 7.7 C 7.87 g/m*3 7.7 C 0 km/h
292 14-12-2015 00:15:00 7.7 C 7.87 g/m*3 7.7 C 0 km/h
293 14-12-2015 00:20:00 7.7 C 7.87 g/m*3 7.7 C 0 km/h
294 14-12-2015 00:25:00 7.6 C 7.81 g/m*3 7.6 C 0 km/h
295 14-12-2015 00:30:00 7.6 C 7.81 g/m*3 7.6 C 0 km/h
296 14-12-2015 00:35:00 7.6 C 7.81 g/m*3 7.6 C 0 km/h
297 14-12-2015 00:40:00 7.5 C 7.76 g/m*3 7.5 C 0 km/h
298 14-12-2015 00:45:00 7.5 C 7.76 g/m*3 7.5 C 0 km/h
299 14-12-2015 00:50:00 7.5 C 7.76 g/m*3 7.5 C 0 km/h
300 14-12-2015 00:55:00 7.5 C 7.76 g/m*3 7.5 C 0 km/h
Sensor: Nr:Datum:Temp:Abs-Feuchte:Windchill:Wind:
Aussen-T/F 301 14-12-2015 01:00:00 7.4 C 7.71 g/m*3 7.4 C 0 km/h
302 14-12-2015 01:05:00 7.4 C 7.71 g/m*3 7.4 C 0 km/h
303 14-12-2015 01:10:00 7.4 C 7.71 g/m*3 7.4 C 0 km/h
304 14-12-2015 01:15:00 7.4 C 7.71 g/m*3 7.4 C 0 km/h
305 14-12-2015 01:20:00 7.4 C 7.71 g/m*3 7.4 C 0 km/h
306 14-12-2015 01:25:00 7.4 C 7.71 g/m*3 7.4 C 0 km/h
307 14-12-2015 01:30:00 7.4 C 7.71 g/m*3 7.4 C 0 km/h
308 14-12-2015 01:35:00 7.3 C 7.66 g/m*3 7.3 C 0 km/h
309 14-12-2015 01:40:00 7.3 C 7.66 g/m*3 7.3 C 0 km/h
310 14-12-2015 01:45:00 7.3 C 7.66 g/m*3 7.3 C 0 km/h
311 14-12-2015 01:50:00 7.3 C 7.66 g/m*3 7.3 C 0 km/h
312 14-12-2015 01:55:00 7.2 C 7.61 g/m*3 7.2 C 0 km/h
313 14-12-2015 02:00:00 7.2 C 7.61 g/m*3 7.2 C 0 km/h
314 14-12-2015 02:05:00 7.2 C 7.61 g/m*3 7.2 C 0 km/h
315 14-12-2015 02:10:00 7.2 C 7.61 g/m*3 7.2 C 0 km/h
316 14-12-2015 02:15:00 7.2 C 7.61 g/m*3 7.2 C 0 km/h
317 14-12-2015 02:20:00 7.2 C 7.61 g/m*3 7.2 C 0 km/h
318 14-12-2015 02:25:00 7.2 C 7.61 g/m*3 7.2 C 0 km/h
319 14-12-2015 02:30:00 7.2 C 7.61 g/m*3 7.2 C 0 km/h
320 14-12-2015 02:35:00 7.2 C 7.61 g/m*3 7.2 C 0 km/h
321 14-12-2015 02:40:00 7.2 C 7.61 g/m*3 7.2 C 0 km/h
322 14-12-2015 02:45:00 7.2 C 7.61 g/m*3 7.2 C 0 km/h
323 14-12-2015 02:50:00 7.2 C 7.61 g/m*3 7.2 C 0 km/h
324 14-12-2015 02:55:00 7.1 C 7.57 g/m*3 7.1 C 0 km/h
325 14-12-2015 03:00:00 7.1 C 7.57 g/m*3 7.1 C 0 km/h
Sensor: Nr:Datum:Temp:Abs-Feuchte:Windchill:Wind:
Aussen-T/F 326 14-12-2015 03:05:00 7.1 C 7.57 g/m*3 7.1 C 0 km/h
327 14-12-2015 03:10:00 7.1 C 7.57 g/m*3 7.1 C 0 km/h
328 14-12-2015 03:15:00 7.1 C 7.57 g/m*3 7.1 C 0 km/h
329 14-12-2015 03:20:00 7.1 C 7.57 g/m*3 7.1 C 0 km/h
330 14-12-2015 03:25:00 7.1 C 7.57 g/m*3 7.1 C 0 km/h
331 14-12-2015 03:30:00 7.1 C 7.57 g/m*3 7.1 C 0 km/h
332 14-12-2015 03:35:00 7.1 C 7.57 g/m*3 7.1 C 0 km/h
333 14-12-2015 03:40:00 7 C 7.52 g/m*3 7 C 0 km/h
334 14-12-2015 03:45:00 7 C 7.52 g/m*3 7 C 0 km/h
335 14-12-2015 03:50:00 7 C 7.52 g/m*3 7 C 0 km/h
336 14-12-2015 03:55:00 7 C 7.52 g/m*3 7 C 0 km/h
337 14-12-2015 04:00:00 6.9 C 7.47 g/m*3 6.9 C 0 km/h
338 14-12-2015 04:05:00 6.9 C 7.47 g/m*3 6.9 C 0 km/h
339 14-12-2015 04:10:00 6.9 C 7.47 g/m*3 6.9 C 0 km/h
340 14-12-2015 04:15:00 6.9 C 7.47 g/m*3 6.9 C 0 km/h
341 14-12-2015 04:20:00 6.9 C 7.47 g/m*3 6.9 C 0 km/h
342 14-12-2015 04:25:00 6.9 C 7.47 g/m*3 6.9 C 0 km/h
343 14-12-2015 04:30:00 6.9 C 7.47 g/m*3 6.9 C 0 km/h
344 14-12-2015 04:35:00 6.9 C 7.47 g/m*3 6.9 C 0 km/h
345 14-12-2015 04:40:00 6.9 C 7.47 g/m*3 6.9 C 0 km/h
346 14-12-2015 04:45:00 6.9 C 7.47 g/m*3 6.9 C 0 km/h
347 14-12-2015 04:50:00 6.9 C 7.47 g/m*3 6.9 C 0 km/h
348 14-12-2015 04:55:00 6.9 C 7.47 g/m*3 6.9 C 0 km/h
349 14-12-2015 05:00:00 6.9 C 7.47 g/m*3 6.9 C 0 km/h
350 14-12-2015 05:05:00 6.9 C 7.47 g/m*3 6.9 C 0 km/h
Sensor: Nr:Datum:Temp:Abs-Feuchte:Windchill:Wind:
Aussen-T/F 351 14-12-2015 05:10:00 6.9 C 7.47 g/m*3 6.9 C 0 km/h
352 14-12-2015 05:15:00 6.8 C 7.42 g/m*3 6.8 C 0 km/h
353 14-12-2015 05:20:00 6.8 C 7.42 g/m*3 6.8 C 0 km/h
354 14-12-2015 05:25:00 6.8 C 7.42 g/m*3 6.8 C 0 km/h
355 14-12-2015 05:30:00 6.7 C 7.37 g/m*3 6.7 C 0 km/h
356 14-12-2015 05:35:00 6.4 C 7.23 g/m*3 6.4 C 0 km/h
357 14-12-2015 05:40:00 6.2 C 7.13 g/m*3 6.2 C 0 km/h
358 14-12-2015 05:45:00 5.9 C 6.99 g/m*3 5.9 C 0 km/h
359 14-12-2015 05:50:00 5.9 C 6.99 g/m*3 5.9 C 1.6 km/h
360 14-12-2015 05:55:00 5.8 C 6.95 g/m*3 5.8 C 1.6 km/h
361 14-12-2015 06:00:00 5.8 C 6.95 g/m*3 5.8 C 1.6 km/h
362 14-12-2015 06:05:00 5.7 C 6.9 g/m*3 5.7 C 0 km/h
363 14-12-2015 06:10:00 5.6 C 6.86 g/m*3 5.6 C 0 km/h
364 14-12-2015 06:15:00 5.5 C 6.81 g/m*3 5.5 C 0 km/h
365 14-12-2015 06:20:00 5.3 C 6.72 g/m*3 5.3 C 0 km/h
366 14-12-2015 06:25:00 5.3 C 6.72 g/m*3 5.3 C 0 km/h
367 14-12-2015 06:30:00 5.2 C 6.68 g/m*3 5.2 C 1.6 km/h
368 14-12-2015 06:35:00 5.2 C 6.68 g/m*3 5.2 C 0 km/h
369 14-12-2015 06:40:00 5.2 C 6.68 g/m*3 5.2 C 0 km/h
370 14-12-2015 06:45:00 5.2 C 6.68 g/m*3 5.2 C 0 km/h
371 14-12-2015 06:50:00 5.3 C 6.72 g/m*3 5.3 C 0 km/h
372 14-12-2015 06:55:00 5.3 C 6.72 g/m*3 5.3 C 0 km/h
373 14-12-2015 07:00:00 5.4 C 6.77 g/m*3 5.4 C 0 km/h
374 14-12-2015 07:05:00 5.5 C 6.81 g/m*3 5.5 C 0 km/h
375 14-12-2015 07:10:00 5.6 C 6.86 g/m*3 5.6 C 0 km/h
Sensor: Nr:Datum:Temp:Abs-Feuchte:Windchill:Wind:
Aussen-T/F 376 14-12-2015 07:15:00 5.7 C 6.9 g/m*3 5.7 C 0 km/h
377 14-12-2015 07:20:00 5.8 C 6.95 g/m*3 5.8 C 0 km/h
378 14-12-2015 07:25:00 5.8 C 6.95 g/m*3 5.8 C 0 km/h
379 14-12-2015 07:30:00 5.8 C 6.95 g/m*3 5.8 C 0 km/h
380 14-12-2015 07:35:00 5.8 C 6.95 g/m*3 5.8 C 0 km/h
381 14-12-2015 07:40:00 5.8 C 6.95 g/m*3 5.8 C 0 km/h
382 14-12-2015 07:45:00 5.8 C 6.95 g/m*3 5.8 C 0 km/h
383 14-12-2015 07:50:00 5.8 C 6.95 g/m*3 5.8 C 0 km/h
384 14-12-2015 07:55:00 5.8 C 6.95 g/m*3 5.8 C 0 km/h
385 14-12-2015 08:00:00 5.8 C 6.95 g/m*3 5.8 C 0 km/h
386 14-12-2015 08:05:00 5.7 C 6.9 g/m*3 5.7 C 0 km/h
387 14-12-2015 08:10:00 5.7 C 6.9 g/m*3 5.7 C 0 km/h
388 14-12-2015 08:15:00 5.6 C 6.86 g/m*3 5.6 C 0 km/h
389 14-12-2015 08:20:00 5.7 C 6.9 g/m*3 5.7 C 0 km/h
390 14-12-2015 08:25:00 5.6 C 6.86 g/m*3 5.6 C 0 km/h
391 14-12-2015 08:30:00 5.7 C 6.9 g/m*3 5.7 C 0 km/h
392 14-12-2015 08:35:00 5.7 C 6.9 g/m*3 5.7 C 0 km/h
393 14-12-2015 08:40:00 5.7 C 6.9 g/m*3 5.7 C 0 km/h
394 14-12-2015 08:45:00 5.7 C 6.9 g/m*3 5.7 C 0 km/h
395 14-12-2015 08:50:00 5.8 C 6.95 g/m*3 5.8 C 1.6 km/h
396 14-12-2015 08:55:00 5.9 C 7.07 g/m*3 5.9 C 0 km/h
397 14-12-2015 09:00:00 5.9 C 7.07 g/m*3 5.9 C 3.2 km/h
398 14-12-2015 09:05:00 5.9 C 7.07 g/m*3 5.9 C 3.2 km/h
399 14-12-2015 09:10:00 5.8 C 6.95 g/m*3 5.8 C 0 km/h
400 14-12-2015 09:15:00 5.8 C 6.95 g/m*3 5.8 C 0 km/h
Sensor: Nr:Datum:Temp:Abs-Feuchte:Windchill:Wind:
Aussen-T/F 401 14-12-2015 09:20:00 5.7 C 6.9 g/m*3 5.7 C 0 km/h
402 14-12-2015 09:25:00 5.5 C 6.81 g/m*3 5.5 C 0 km/h
403 14-12-2015 09:30:00 5.4 C 6.77 g/m*3 5.4 C 0 km/h
404 14-12-2015 09:35:00 5.4 C 6.77 g/m*3 5.4 C 0 km/h
405 14-12-2015 09:40:00 5.4 C 6.77 g/m*3 5.4 C 0 km/h
406 14-12-2015 09:45:00 5.5 C 6.81 g/m*3 5.5 C 0 km/h
407 14-12-2015 09:50:00 5.6 C 6.86 g/m*3 5.6 C 0 km/h
408 14-12-2015 09:55:00 5.7 C 6.97 g/m*3 5.7 C 3.2 km/h
409 14-12-2015 10:00:00 5.8 C 6.95 g/m*3 5.8 C 0 km/h
410 14-12-2015 10:05:00 5.9 C 6.99 g/m*3 5.9 C 0 km/h
411 14-12-2015 10:10:00 5.9 C 6.99 g/m*3 5.9 C 0 km/h
412 14-12-2015 10:15:00 5.8 C 6.95 g/m*3 5.8 C 3.2 km/h
413 14-12-2015 10:20:00 5.8 C 6.95 g/m*3 5.8 C 0 km/h
414 14-12-2015 10:25:00 5.7 C 6.9 g/m*3 5.7 C 0 km/h
415 14-12-2015 10:30:00 5.6 C 6.86 g/m*3 5.6 C 3.2 km/h
416 14-12-2015 10:35:00 5.6 C 6.86 g/m*3 5.6 C 1.6 km/h
417 14-12-2015 10:40:00 5.6 C 6.86 g/m*3 5.6 C 1.6 km/h
418 14-12-2015 10:45:00 5.6 C 6.86 g/m*3 5.6 C 0 km/h
419 14-12-2015 10:50:00 5.6 C 6.86 g/m*3 5.6 C 3.2 km/h
420 14-12-2015 10:55:00 5.6 C 6.86 g/m*3 5.6 C 1.6 km/h
421 14-12-2015 11:00:00 5.6 C 6.86 g/m*3 5.6 C 0 km/h
422 14-12-2015 11:05:00 5.6 C 6.86 g/m*3 5.6 C 0 km/h
423 14-12-2015 11:10:00 5.6 C 6.86 g/m*3 5.6 C 0 km/h
424 14-12-2015 11:15:00 5.6 C 6.86 g/m*3 5.6 C 0 km/h
425 14-12-2015 11:20:00 5.5 C 6.81 g/m*3 5.5 C 0 km/h
Sensor: Nr:Datum:Temp:Abs-Feuchte:Windchill:Wind:
Aussen-T/F 426 14-12-2015 11:25:00 5.6 C 6.86 g/m*3 5.6 C 0 km/h
427 14-12-2015 11:30:00 5.6 C 6.86 g/m*3 5.6 C 0 km/h
428 14-12-2015 11:35:00 5.7 C 6.97 g/m*3 5.7 C 1.6 km/h
429 14-12-2015 11:40:00 5.8 C 6.95 g/m*3 5.8 C 0 km/h
430 14-12-2015 11:45:00 5.9 C 7.07 g/m*3 5.9 C 0 km/h
431 14-12-2015 11:50:00 5.9 C 6.99 g/m*3 5.9 C 0 km/h
432 14-12-2015 11:55:00 5.9 C 7.07 g/m*3 5.9 C 0 km/h
433 14-12-2015 12:00:00 6 C 7.11 g/m*3 6 C 0 km/h
434 14-12-2015 12:05:00 6 C 7.11 g/m*3 6 C 1.6 km/h
435 14-12-2015 12:10:00 6 C 7.11 g/m*3 6 C 0 km/h
436 14-12-2015 12:15:00 6.1 C 7.16 g/m*3 6.1 C 0 km/h
437 14-12-2015 12:20:00 6.1 C 7.16 g/m*3 6.1 C 0 km/h
438 14-12-2015 12:25:00 6.1 C 7.16 g/m*3 6.1 C 0 km/h
439 14-12-2015 12:30:00 6.2 C 7.21 g/m*3 6.2 C 0 km/h
440 14-12-2015 12:35:00 6.2 C 7.21 g/m*3 6.2 C 0 km/h
441 14-12-2015 12:40:00 6.2 C 7.21 g/m*3 6.2 C 3.2 km/h
442 14-12-2015 12:45:00 6.3 C 7.25 g/m*3 6.3 C 4.8 km/h
443 14-12-2015 12:50:00 6.3 C 7.18 g/m*3 6.3 C 4.8 km/h
444 14-12-2015 12:55:00 6.3 C 7.25 g/m*3 6.3 C 3.2 km/h
445 14-12-2015 13:00:00 6.3 C 7.25 g/m*3 6.3 C 3.2 km/h
446 14-12-2015 13:05:00 6.5 C 7.35 g/m*3 6.5 C 0 km/h
447 14-12-2015 13:10:00 6.7 C 7.45 g/m*3 6.7 C 3.2 km/h
448 14-12-2015 13:15:00 6.7 C 7.45 g/m*3 6.7 C 4.8 km/h
449 14-12-2015 13:20:00 6.9 C 7.54 g/m*3 6.9 C 3.2 km/h
450 14-12-2015 13:25:00 7.2 C 7.69 g/m*3 7.2 C 3.2 km/h
Sensor: Nr:Datum:Temp:Abs-Feuchte:Windchill:Wind:
Aussen-T/F 451 14-12-2015 13:30:00 7.4 C 7.79 g/m*3 7.4 C 3.2 km/h
452 14-12-2015 13:35:00 7.6 C 7.9 g/m*3 7.6 C 1.6 km/h
453 14-12-2015 13:40:00 7.7 C 7.95 g/m*3 7.7 C 0 km/h
454 14-12-2015 13:45:00 7.7 C 7.95 g/m*3 7.7 C 0 km/h
455 14-12-2015 13:50:00 7.7 C 7.95 g/m*3 7.7 C 0 km/h
456 14-12-2015 13:55:00 7.7 C 7.95 g/m*3 7.7 C 0 km/h
457 14-12-2015 14:00:00 7.8 C 8 g/m*3 7.8 C 1.6 km/h
458 14-12-2015 14:05:00 7.8 C 8 g/m*3 7.8 C 1.6 km/h
459 14-12-2015 14:10:00 7.8 C 8 g/m*3 7.8 C 1.6 km/h
460 14-12-2015 14:15:00 7.9 C 8.05 g/m*3 7.9 C 3.2 km/h
461 14-12-2015 14:20:00 8 C 8.1 g/m*3 8 C 0 km/h
462 14-12-2015 14:25:00 8.1 C 8.15 g/m*3 8.1 C 0 km/h
463 14-12-2015 14:30:00 8.1 C 8.15 g/m*3 8.1 C 0 km/h
464 14-12-2015 14:35:00 8.1 C 8.15 g/m*3 8.1 C 0 km/h
465 14-12-2015 14:40:00 8.2 C 8.21 g/m*3 8.2 C 1.6 km/h
466 14-12-2015 14:45:00 8.1 C 8.15 g/m*3 8.1 C 4.8 km/h
467 14-12-2015 14:50:00 8.1 C 8.15 g/m*3 8.1 C 0 km/h
468 14-12-2015 14:55:00 8 C 8.1 g/m*3 8 C 0 km/h
469 14-12-2015 15:00:00 7.9 C 8.05 g/m*3 7.9 C 0 km/h
470 14-12-2015 15:05:00 8 C 8.1 g/m*3 8 C 1.6 km/h
471 14-12-2015 15:10:00 8 C 8.1 g/m*3 8 C 3.2 km/h
472 14-12-2015 15:15:00 8 C 8.02 g/m*3 8 C 0 km/h
473 14-12-2015 15:20:00 7.9 C 7.97 g/m*3 6.52 C 8.1 km/h
474 14-12-2015 15:25:00 7.8 C 7.92 g/m*3 6.4 C 8.1 km/h
475 14-12-2015 15:30:00 7.8 C 7.92 g/m*3 6.4 C 8.1 km/h
Sensor: Nr:Datum:Temp:Abs-Feuchte:Windchill:Wind:
Aussen-T/F 476 14-12-2015 15:35:00 7.8 C 7.83 g/m*3 6.83 C 6.4 km/h
477 14-12-2015 15:40:00 7.8 C 7.75 g/m*3 7.8 C 4.8 km/h
478 14-12-2015 15:45:00 7.8 C 7.75 g/m*3 7.8 C 1.6 km/h
479 14-12-2015 15:50:00 7.8 C 7.75 g/m*3 7.8 C 4.8 km/h
480 14-12-2015 15:55:00 7.8 C 7.67 g/m*3 7.8 C 3.2 km/h
481 14-12-2015 16:00:00 7.8 C 7.67 g/m*3 7.8 C 3.2 km/h
482 14-12-2015 16:05:00 7.7 C 7.62 g/m*3 7.7 C 0 km/h
483 14-12-2015 16:10:00 7.6 C 7.57 g/m*3 7.6 C 1.6 km/h
484 14-12-2015 16:15:00 7.5 C 7.52 g/m*3 7.5 C 3.2 km/h
485 14-12-2015 16:20:00 7.5 C 7.44 g/m*3 7.5 C 4.8 km/h
486 14-12-2015 16:25:00 7.5 C 7.44 g/m*3 7.5 C 1.6 km/h
487 14-12-2015 16:30:00 7.4 C 7.4 g/m*3 7.4 C 3.2 km/h
488 14-12-2015 16:35:00 7.4 C 7.32 g/m*3 7.4 C 4.8 km/h
489 14-12-2015 16:40:00 7.3 C 7.27 g/m*3 7.3 C 1.6 km/h
490 14-12-2015 16:45:00 7.2 C 7.22 g/m*3 7.2 C 4.8 km/h
491 14-12-2015 16:50:00 7.1 C 7.18 g/m*3 7.1 C 3.2 km/h
492 14-12-2015 16:55:00 7 C 7.13 g/m*3 7 C 4.8 km/h
493 14-12-2015 17:00:00 6.9 C 7.08 g/m*3 5.79 C 6.4 km/h
494 14-12-2015 17:05:00 6.9 C 7.08 g/m*3 6.9 C 3.2 km/h
495 14-12-2015 17:10:00 6.8 C 7.04 g/m*3 6.8 C 1.6 km/h
496 14-12-2015 17:15:00 6.6 C 6.95 g/m*3 6.6 C 1.6 km/h
497 14-12-2015 17:20:00 6.4 C 6.85 g/m*3 6.4 C 1.6 km/h
498 14-12-2015 17:25:00 6.3 C 6.81 g/m*3 6.3 C 0 km/h
499 14-12-2015 17:30:00 6.1 C 6.72 g/m*3 6.1 C 3.2 km/h
500 14-12-2015 17:35:00 5.9 C 6.63 g/m*3 5.9 C 1.6 km/h
Sensor: Nr:Datum:Temp:Abs-Feuchte:Windchill:Wind:
Aussen-T/F 501 14-12-2015 17:40:00 5.8 C 6.66 g/m*3 5.8 C 1.6 km/h
502 14-12-2015 17:45:00 5.7 C 6.62 g/m*3 5.7 C 1.6 km/h
503 14-12-2015 17:50:00 5.5 C 6.53 g/m*3 5.5 C 1.6 km/h
504 14-12-2015 17:55:00 5.4 C 6.56 g/m*3 5.4 C 3.2 km/h
505 14-12-2015 18:00:00 5.3 C 6.52 g/m*3 5.3 C 3.2 km/h
506 14-12-2015 18:05:00 5.2 C 6.47 g/m*3 5.2 C 4.8 km/h
507 14-12-2015 18:10:00 5.1 C 6.5 g/m*3 5.1 C 4.8 km/h
508 14-12-2015 18:15:00 5.1 C 6.5 g/m*3 5.1 C 3.2 km/h
509 14-12-2015 18:20:00 5.1 C 6.5 g/m*3 5.1 C 4.8 km/h
510 14-12-2015 18:25:00 5.1 C 6.5 g/m*3 5.1 C 3.2 km/h
511 14-12-2015 18:30:00 5.1 C 6.5 g/m*3 5.1 C 1.6 km/h
512 14-12-2015 18:35:00 5.1 C 6.5 g/m*3 5.1 C 3.2 km/h
513 14-12-2015 18:40:00 5 C 6.46 g/m*3 5 C 3.2 km/h
514 14-12-2015 18:45:00 5.1 C 6.5 g/m*3 5.1 C 4.8 km/h
515 14-12-2015 18:50:00 5.1 C 6.57 g/m*3 5.1 C 3.2 km/h
516 14-12-2015 18:55:00 5.1 C 6.57 g/m*3 5.1 C 3.2 km/h
517 14-12-2015 19:00:00 5.1 C 6.57 g/m*3 5.1 C 3.2 km/h
518 14-12-2015 19:05:00 5.2 C 6.61 g/m*3 5.2 C 3.2 km/h
519 14-12-2015 19:10:00 5.2 C 6.61 g/m*3 5.2 C 1.6 km/h
520 14-12-2015 19:15:00 5.2 C 6.61 g/m*3 5.2 C 1.6 km/h
521 14-12-2015 19:20:00 5.1 C 6.57 g/m*3 5.1 C 1.6 km/h
522 14-12-2015 19:25:00 5.1 C 6.57 g/m*3 5.1 C 0 km/h
523 14-12-2015 19:30:00 5.1 C 6.57 g/m*3 5.1 C 3.2 km/h
524 14-12-2015 19:35:00 5.1 C 6.57 g/m*3 5.1 C 3.2 km/h
525 14-12-2015 19:40:00 5.1 C 6.57 g/m*3 5.1 C 3.2 km/h
Sensor: Nr:Datum:Temp:Abs-Feuchte:Windchill:Wind:
Aussen-T/F 526 14-12-2015 19:45:00 5.1 C 6.57 g/m*3 5.1 C 0 km/h
527 14-12-2015 19:50:00 5 C 6.52 g/m*3 5 C 3.2 km/h
528 14-12-2015 19:55:00 4.9 C 6.48 g/m*3 4.9 C 3.2 km/h
529 14-12-2015 20:00:00 4.8 C 6.44 g/m*3 4.8 C 3.2 km/h
530 14-12-2015 20:05:00 4.8 C 6.44 g/m*3 4.8 C 3.2 km/h
531 14-12-2015 20:10:00 4.8 C 6.44 g/m*3 4.8 C 3.2 km/h
532 14-12-2015 20:15:00 4.7 C 6.39 g/m*3 4.7 C 4.8 km/h
533 14-12-2015 20:20:00 4.7 C 6.39 g/m*3 4.7 C 3.2 km/h
534 14-12-2015 20:25:00 4.6 C 6.35 g/m*3 4.6 C 3.2 km/h
535 14-12-2015 20:30:00 4.6 C 6.35 g/m*3 4.6 C 0 km/h
536 14-12-2015 20:35:00 4.4 C 6.27 g/m*3 4.4 C 1.6 km/h
537 14-12-2015 20:40:00 4.3 C 6.23 g/m*3 4.3 C 0 km/h
538 14-12-2015 20:45:00 4.3 C 6.23 g/m*3 4.3 C 3.2 km/h
539 14-12-2015 20:50:00 4.3 C 6.23 g/m*3 4.3 C 3.2 km/h
540 14-12-2015 20:55:00 4.3 C 6.23 g/m*3 4.3 C 0 km/h
541 14-12-2015 21:00:00 4.2 C 6.19 g/m*3 4.2 C 0 km/h
542 14-12-2015 21:05:00 4 C 6.1 g/m*3 4 C 0 km/h
543 14-12-2015 21:10:00 3.9 C 6.06 g/m*3 3.9 C 0 km/h
544 14-12-2015 21:15:00 3.9 C 6.06 g/m*3 3.9 C 0 km/h
545 14-12-2015 21:20:00 3.9 C 6.06 g/m*3 3.9 C 0 km/h
546 14-12-2015 21:25:00 3.8 C 6.02 g/m*3 3.8 C 0 km/h
547 14-12-2015 21:30:00 3.7 C 5.98 g/m*3 3.7 C 0 km/h
548 14-12-2015 21:35:00 3.6 C 5.94 g/m*3 3.6 C 0 km/h
549 14-12-2015 21:40:00 3.4 C 5.86 g/m*3 3.4 C 0 km/h
550 14-12-2015 21:45:00 3.4 C 5.86 g/m*3 3.4 C 0 km/h
Sensor: Nr:Datum:Temp:Abs-Feuchte:Windchill:Wind:
Aussen-T/F 551 14-12-2015 21:50:00 3.3 C 5.82 g/m*3 3.3 C 0 km/h
552 14-12-2015 21:55:00 3.3 C 5.82 g/m*3 3.3 C 0 km/h
553 14-12-2015 22:00:00 3.3 C 5.82 g/m*3 3.3 C 0 km/h
554 14-12-2015 22:05:00 3.2 C 5.79 g/m*3 3.2 C 0 km/h
555 14-12-2015 22:10:00 3.1 C 5.75 g/m*3 3.1 C 0 km/h
556 14-12-2015 22:15:00 3.1 C 5.75 g/m*3 3.1 C 0 km/h
557 14-12-2015 22:20:00 3.2 C 5.85 g/m*3 3.2 C 0 km/h
558 14-12-2015 22:25:00 3.2 C 5.85 g/m*3 3.2 C 0 km/h
559 14-12-2015 22:30:00 3.1 C 5.81 g/m*3 3.1 C 0 km/h
560 14-12-2015 22:35:00 2.9 C 5.67 g/m*3 2.9 C 0 km/h
561 14-12-2015 22:40:00 2.8 C 5.63 g/m*3 2.8 C 0 km/h
562 14-12-2015 22:45:00 2.8 C 5.63 g/m*3 2.8 C 0 km/h
563 14-12-2015 22:50:00 2.8 C 5.69 g/m*3 2.8 C 0 km/h
564 14-12-2015 22:55:00 2.8 C 5.69 g/m*3 2.8 C 0 km/h
565 14-12-2015 23:00:00 2.8 C 5.63 g/m*3 2.8 C 0 km/h
566 14-12-2015 23:05:00 2.9 C 5.73 g/m*3 2.9 C 0 km/h
567 14-12-2015 23:10:00 3 C 5.77 g/m*3 3 C 0 km/h
568 14-12-2015 23:15:00 2.9 C 5.73 g/m*3 2.9 C 0 km/h
569 14-12-2015 23:20:00 2.9 C 5.73 g/m*3 2.9 C 0 km/h
570 14-12-2015 23:25:00 2.9 C 5.73 g/m*3 2.9 C 0 km/h
571 14-12-2015 23:30:00 2.9 C 5.73 g/m*3 2.9 C 0 km/h
572 14-12-2015 23:35:00 2.9 C 5.73 g/m*3 2.9 C 0 km/h
573 14-12-2015 23:40:00 3 C 5.77 g/m*3 3 C 0 km/h
574 14-12-2015 23:45:00 3.1 C 5.81 g/m*3 3.1 C 0 km/h
575 14-12-2015 23:50:00 3 C 5.77 g/m*3 3 C 0 km/h
Sensor: Nr:Datum:Temp:Abs-Feuchte:Windchill:Wind:
Aussen-T/F 576 14-12-2015 23:55:00 2.9 C 5.73 g/m*3 2.9 C 0 km/h
577 15-12-2015 00:00:00 2.8 C 5.69 g/m*3 2.8 C 0 km/h
578 15-12-2015 00:05:00 2.7 C 5.65 g/m*3 2.7 C 0 km/h
579 15-12-2015 00:10:00 2.7 C 5.65 g/m*3 2.7 C 0 km/h
580 15-12-2015 00:15:00 2.7 C 5.65 g/m*3 2.7 C 0 km/h
581 15-12-2015 00:20:00 2.7 C 5.65 g/m*3 2.7 C 0 km/h
582 15-12-2015 00:25:00 2.7 C 5.65 g/m*3 2.7 C 1.6 km/h
583 15-12-2015 00:30:00 2.7 C 5.65 g/m*3 2.7 C 0 km/h
584 15-12-2015 00:35:00 2.8 C 5.69 g/m*3 2.8 C 0 km/h
585 15-12-2015 00:40:00 2.7 C 5.65 g/m*3 2.7 C 0 km/h
586 15-12-2015 00:45:00 2.7 C 5.65 g/m*3 2.7 C 0 km/h
587 15-12-2015 00:50:00 2.6 C 5.61 g/m*3 2.6 C 0 km/h
588 15-12-2015 00:55:00 2.7 C 5.65 g/m*3 2.7 C 0 km/h
589 15-12-2015 01:00:00 2.7 C 5.65 g/m*3 2.7 C 0 km/h
590 15-12-2015 01:05:00 2.7 C 5.65 g/m*3 2.7 C 0 km/h
591 15-12-2015 01:10:00 2.6 C 5.61 g/m*3 2.6 C 0 km/h
592 15-12-2015 01:15:00 2.7 C 5.65 g/m*3 2.7 C 0 km/h
593 15-12-2015 01:20:00 2.8 C 5.69 g/m*3 2.8 C 0 km/h
594 15-12-2015 01:25:00 2.8 C 5.69 g/m*3 2.8 C 0 km/h
595 15-12-2015 01:30:00 2.8 C 5.69 g/m*3 2.8 C 0 km/h
596 15-12-2015 01:35:00 2.9 C 5.73 g/m*3 2.9 C 0 km/h
597 15-12-2015 01:40:00 2.9 C 5.73 g/m*3 2.9 C 0 km/h
598 15-12-2015 01:45:00 2.8 C 5.69 g/m*3 2.8 C 0 km/h
599 15-12-2015 01:50:00 2.8 C 5.69 g/m*3 2.8 C 0 km/h
600 15-12-2015 01:55:00 2.8 C 5.69 g/m*3 2.8 C 0 km/h
Sensor: Nr:Datum:Temp:Abs-Feuchte:Windchill:Wind:
Aussen-T/F 601 15-12-2015 02:00:00 2.8 C 5.69 g/m*3 2.8 C 0 km/h
602 15-12-2015 02:05:00 2.9 C 5.73 g/m*3 2.9 C 0 km/h
603 15-12-2015 02:10:00 2.9 C 5.73 g/m*3 2.9 C 0 km/h
604 15-12-2015 02:15:00 2.9 C 5.73 g/m*3 2.9 C 0 km/h
605 15-12-2015 02:20:00 2.9 C 5.73 g/m*3 2.9 C 0 km/h
606 15-12-2015 02:25:00 2.9 C 5.73 g/m*3 2.9 C 0 km/h
607 15-12-2015 02:30:00 3 C 5.77 g/m*3 3 C 0 km/h
608 15-12-2015 02:35:00 3.1 C 5.81 g/m*3 3.1 C 1.6 km/h
609 15-12-2015 02:40:00 3.1 C 5.81 g/m*3 3.1 C 0 km/h
610 15-12-2015 02:45:00 3.1 C 5.81 g/m*3 3.1 C 0 km/h
611 15-12-2015 02:50:00 3.1 C 5.81 g/m*3 3.1 C 1.6 km/h
612 15-12-2015 02:55:00 3.2 C 5.85 g/m*3 3.2 C 0 km/h
613 15-12-2015 03:00:00 3.2 C 5.85 g/m*3 3.2 C 0 km/h
614 15-12-2015 03:05:00 3.2 C 5.85 g/m*3 3.2 C 0 km/h
615 15-12-2015 03:10:00 3.2 C 5.85 g/m*3 3.2 C 0 km/h
616 15-12-2015 03:15:00 3.2 C 5.85 g/m*3 3.2 C 0 km/h
617 15-12-2015 03:20:00 3.2 C 5.85 g/m*3 3.2 C 0 km/h
618 15-12-2015 03:25:00 3.2 C 5.85 g/m*3 3.2 C 0 km/h
619 15-12-2015 03:30:00 3.2 C 5.85 g/m*3 3.2 C 0 km/h
620 15-12-2015 03:35:00 3.2 C 5.85 g/m*3 3.2 C 0 km/h
621 15-12-2015 03:40:00 3.2 C 5.85 g/m*3 3.2 C 0 km/h
622 15-12-2015 03:45:00 3.2 C 5.85 g/m*3 3.2 C 0 km/h
623 15-12-2015 03:50:00 3.2 C 5.85 g/m*3 3.2 C 0 km/h
624 15-12-2015 03:55:00 3.2 C 5.85 g/m*3 3.2 C 0 km/h
625 15-12-2015 04:00:00 3.3 C 5.88 g/m*3 3.3 C 0 km/h
Sensor: Nr:Datum:Temp:Abs-Feuchte:Windchill:Wind:
Aussen-T/F 626 15-12-2015 04:05:00 3.4 C 5.99 g/m*3 3.4 C 0 km/h
627 15-12-2015 04:10:00 3.4 C 5.99 g/m*3 3.4 C 0 km/h
628 15-12-2015 04:15:00 3.4 C 5.99 g/m*3 3.4 C 0 km/h
629 15-12-2015 04:20:00 3.4 C 5.99 g/m*3 3.4 C 0 km/h
630 15-12-2015 04:25:00 3.4 C 5.99 g/m*3 3.4 C 0 km/h
631 15-12-2015 04:30:00 3.4 C 5.92 g/m*3 3.4 C 0 km/h
632 15-12-2015 04:35:00 3.3 C 5.88 g/m*3 3.3 C 0 km/h
633 15-12-2015 04:40:00 3.4 C 5.92 g/m*3 3.4 C 3.2 km/h
634 15-12-2015 04:45:00 3.4 C 5.99 g/m*3 3.4 C 3.2 km/h
635 15-12-2015 04:50:00 3.5 C 6.03 g/m*3 3.5 C 1.6 km/h
636 15-12-2015 04:55:00 3.5 C 6.03 g/m*3 3.5 C 0 km/h
637 15-12-2015 05:00:00 3.4 C 5.92 g/m*3 3.4 C 0 km/h
638 15-12-2015 05:05:00 3.3 C 5.88 g/m*3 3.3 C 0 km/h
639 15-12-2015 05:10:00 3.2 C 5.85 g/m*3 3.2 C 0 km/h
640 15-12-2015 05:15:00 3.1 C 5.81 g/m*3 3.1 C 0 km/h
641 15-12-2015 05:20:00 3.1 C 5.81 g/m*3 3.1 C 1.6 km/h
642 15-12-2015 05:25:00 3.2 C 5.85 g/m*3 3.2 C 0 km/h
643 15-12-2015 05:30:00 3.3 C 5.88 g/m*3 3.3 C 1.6 km/h
644 15-12-2015 05:35:00 3.3 C 5.88 g/m*3 3.3 C 0 km/h
645 15-12-2015 05:40:00 3.3 C 5.88 g/m*3 3.3 C 0 km/h
646 15-12-2015 05:45:00 3.3 C 5.88 g/m*3 3.3 C 0 km/h
647 15-12-2015 05:50:00 3.3 C 5.88 g/m*3 3.3 C 0 km/h
648 15-12-2015 05:55:00 3.2 C 5.85 g/m*3 3.2 C 0 km/h
649 15-12-2015 06:00:00 3.1 C 5.81 g/m*3 3.1 C 0 km/h
650 15-12-2015 06:05:00 3.2 C 5.85 g/m*3 3.2 C 0 km/h
Sensor: Nr:Datum:Temp:Abs-Feuchte:Windchill:Wind:
Aussen-T/F 651 15-12-2015 06:10:00 3.2 C 5.85 g/m*3 3.2 C 0 km/h
652 15-12-2015 06:15:00 3.3 C 5.88 g/m*3 3.3 C 0 km/h
653 15-12-2015 06:20:00 3.3 C 5.88 g/m*3 3.3 C 0 km/h
654 15-12-2015 06:25:00 3.2 C 5.85 g/m*3 3.2 C 0 km/h
655 15-12-2015 06:30:00 3.2 C 5.85 g/m*3 3.2 C 0 km/h
656 15-12-2015 06:35:00 3.2 C 5.85 g/m*3 3.2 C 0 km/h
657 15-12-2015 06:40:00 3.2 C 5.85 g/m*3 3.2 C 0 km/h
658 15-12-2015 06:45:00 3.1 C 5.81 g/m*3 3.1 C 0 km/h
659 15-12-2015 06:50:00 3.1 C 5.81 g/m*3 3.1 C 0 km/h
660 15-12-2015 06:55:00 3 C 5.77 g/m*3 3 C 0 km/h
661 15-12-2015 07:00:00 2.9 C 5.73 g/m*3 2.9 C 0 km/h
662 15-12-2015 07:05:00 3.1 C 5.81 g/m*3 3.1 C 0 km/h
663 15-12-2015 07:10:00 3.2 C 5.91 g/m*3 3.2 C 0 km/h
664 15-12-2015 07:15:00 3.2 C 5.85 g/m*3 3.2 C 0 km/h
665 15-12-2015 07:20:00 3.3 C 5.88 g/m*3 3.3 C 0 km/h
666 15-12-2015 07:25:00 3.3 C 5.88 g/m*3 3.3 C 0 km/h
667 15-12-2015 07:30:00 3.3 C 5.88 g/m*3 3.3 C 0 km/h
668 15-12-2015 07:35:00 3.2 C 5.85 g/m*3 3.2 C 0 km/h
669 15-12-2015 07:40:00 3.2 C 5.85 g/m*3 3.2 C 0 km/h
670 15-12-2015 07:45:00 3.2 C 5.85 g/m*3 3.2 C 0 km/h
671 15-12-2015 07:50:00 3.2 C 5.91 g/m*3 3.2 C 0 km/h
672 15-12-2015 07:55:00 3.1 C 5.87 g/m*3 3.1 C 0 km/h
673 15-12-2015 08:00:00 3.1 C 5.87 g/m*3 3.1 C 0 km/h
674 15-12-2015 08:05:00 3.2 C 5.91 g/m*3 3.2 C 0 km/h
675 15-12-2015 08:10:00 3.3 C 5.88 g/m*3 3.3 C 0 km/h
Sensor: Nr:Datum:Temp:Abs-Feuchte:Windchill:Wind:
Aussen-T/F 676 15-12-2015 08:15:00 3.4 C 5.99 g/m*3 3.4 C 0 km/h
677 15-12-2015 08:20:00 3.6 C 6.07 g/m*3 3.6 C 0 km/h
678 15-12-2015 08:25:00 3.7 C 6.11 g/m*3 3.7 C 0 km/h
679 15-12-2015 08:30:00 3.8 C 6.15 g/m*3 3.8 C 0 km/h
680 15-12-2015 08:35:00 3.9 C 6.19 g/m*3 3.9 C 0 km/h
681 15-12-2015 08:40:00 4 C 6.23 g/m*3 4 C 1.6 km/h
682 15-12-2015 08:45:00 4.2 C 6.31 g/m*3 4.2 C 0 km/h
683 15-12-2015 08:50:00 4.3 C 6.36 g/m*3 4.3 C 0 km/h
684 15-12-2015 08:55:00 4.4 C 6.4 g/m*3 4.4 C 0 km/h
685 15-12-2015 09:00:00 4.4 C 6.4 g/m*3 4.4 C 0 km/h
686 15-12-2015 09:05:00 4.5 C 6.44 g/m*3 4.5 C 0 km/h
687 15-12-2015 09:10:00 4.6 C 6.48 g/m*3 4.6 C 0 km/h
688 15-12-2015 09:15:00 4.6 C 6.48 g/m*3 4.6 C 0 km/h
689 15-12-2015 09:20:00 4.6 C 6.48 g/m*3 4.6 C 0 km/h
690 15-12-2015 09:25:00 4.6 C 6.48 g/m*3 4.6 C 0 km/h
691 15-12-2015 09:30:00 4.7 C 6.53 g/m*3 4.7 C 1.6 km/h
692 15-12-2015 09:35:00 4.8 C 6.57 g/m*3 4.8 C 0 km/h
693 15-12-2015 09:40:00 4.8 C 6.57 g/m*3 4.8 C 0 km/h
694 15-12-2015 09:45:00 5 C 6.66 g/m*3 5 C 0 km/h
695 15-12-2015 09:50:00 5.2 C 6.75 g/m*3 5.2 C 0 km/h
696 15-12-2015 09:55:00 5.4 C 6.84 g/m*3 5.4 C 0 km/h
697 15-12-2015 10:00:00 5.6 C 6.93 g/m*3 5.6 C 0 km/h
698 15-12-2015 10:05:00 5.8 C 7.02 g/m*3 5.8 C 0 km/h
699 15-12-2015 10:10:00 5.8 C 7.02 g/m*3 5.8 C 0 km/h
700 15-12-2015 10:15:00 5.9 C 7.07 g/m*3 5.9 C 0 km/h
Sensor: Nr:Datum:Temp:Abs-Feuchte:Windchill:Wind:
Aussen-T/F 701 15-12-2015 10:20:00 6.1 C 7.16 g/m*3 6.1 C 0 km/h
702 15-12-2015 10:25:00 6.2 C 7.21 g/m*3 6.2 C 0 km/h
703 15-12-2015 10:30:00 6.3 C 7.25 g/m*3 6.3 C 0 km/h
704 15-12-2015 10:35:00 6.4 C 7.3 g/m*3 6.4 C 0 km/h
705 15-12-2015 10:40:00 6.4 C 7.3 g/m*3 6.4 C 0 km/h
706 15-12-2015 10:45:00 6.4 C 7.3 g/m*3 6.4 C 0 km/h
707 15-12-2015 10:50:00 6.4 C 7.3 g/m*3 6.4 C 0 km/h
708 15-12-2015 10:55:00 6.6 C 7.4 g/m*3 6.6 C 0 km/h
709 15-12-2015 11:00:00 6.6 C 7.4 g/m*3 6.6 C 0 km/h
710 15-12-2015 11:05:00 6.7 C 7.45 g/m*3 6.7 C 0 km/h
711 15-12-2015 11:10:00 6.7 C 7.45 g/m*3 6.7 C 0 km/h
712 15-12-2015 11:15:00 6.8 C 7.5 g/m*3 6.8 C 1.6 km/h
713 15-12-2015 11:20:00 6.9 C 7.54 g/m*3 6.9 C 1.6 km/h
714 15-12-2015 11:25:00 6.9 C 7.54 g/m*3 6.9 C 3.2 km/h
715 15-12-2015 11:30:00 6.9 C 7.54 g/m*3 6.9 C 1.6 km/h
716 15-12-2015 11:35:00 6.9 C 7.54 g/m*3 6.9 C 0 km/h
717 15-12-2015 11:40:00 6.9 C 7.54 g/m*3 6.9 C 0 km/h
718 15-12-2015 11:45:00 7 C 7.59 g/m*3 7 C 3.2 km/h
719 15-12-2015 11:50:00 7.1 C 7.64 g/m*3 7.1 C 3.2 km/h
720 15-12-2015 11:55:00 7.2 C 7.69 g/m*3 7.2 C 1.6 km/h
721 15-12-2015 12:00:00 7.3 C 7.74 g/m*3 7.3 C 4.8 km/h
722 15-12-2015 12:05:00 7.3 C 7.74 g/m*3 7.3 C 4.8 km/h
723 15-12-2015 12:10:00 7.4 C 7.79 g/m*3 7.4 C 4.8 km/h
724 15-12-2015 12:15:00 7.5 C 7.84 g/m*3 5.7 C 9.7 km/h
725 15-12-2015 12:20:00 7.5 C 7.84 g/m*3 5.41 C 11.3 km/h
Sensor: Nr:Datum:Temp:Abs-Feuchte:Windchill:Wind:
Aussen-T/F 726 15-12-2015 12:25:00 7.5 C 7.84 g/m*3 5.7 C 9.7 km/h
727 15-12-2015 12:30:00 7.5 C 7.84 g/m*3 5.7 C 9.7 km/h
728 15-12-2015 12:35:00 7.6 C 7.9 g/m*3 6.16 C 8.1 km/h
729 15-12-2015 12:40:00 7.6 C 7.9 g/m*3 6.6 C 6.4 km/h
730 15-12-2015 12:45:00 7.7 C 7.87 g/m*3 6.28 C 8.1 km/h
731 15-12-2015 12:50:00 7.8 C 7.92 g/m*3 6.4 C 8.1 km/h
732 15-12-2015 12:55:00 7.9 C 7.97 g/m*3 5.89 C 11.3 km/h
733 15-12-2015 13:00:00 8 C 7.94 g/m*3 7.06 C 6.4 km/h
734 15-12-2015 13:05:00 8.1 C 7.99 g/m*3 6.42 C 9.7 km/h
735 15-12-2015 13:10:00 8.2 C 8.04 g/m*3 6.87 C 8.1 km/h
736 15-12-2015 13:15:00 8.4 C 8.06 g/m*3 6.78 C 9.7 km/h
737 15-12-2015 13:20:00 8.6 C 8.08 g/m*3 7.34 C 8.1 km/h
738 15-12-2015 13:25:00 8.7 C 8.04 g/m*3 7.87 C 6.4 km/h
739 15-12-2015 13:30:00 8.8 C 8.01 g/m*3 7.25 C 9.7 km/h
740 15-12-2015 13:35:00 8.8 C 7.92 g/m*3 7.25 C 9.7 km/h
741 15-12-2015 13:40:00 8.8 C 7.92 g/m*3 7.98 C 6.4 km/h
742 15-12-2015 13:45:00 8.8 C 7.92 g/m*3 8.8 C 3.2 km/h
743 15-12-2015 13:50:00 8.7 C 7.87 g/m*3 8.7 C 0 km/h
744 15-12-2015 13:55:00 8.6 C 7.91 g/m*3 8.6 C 3.2 km/h
745 15-12-2015 14:00:00 8.6 C 7.82 g/m*3 8.6 C 1.6 km/h
746 15-12-2015 14:05:00 8.5 C 7.85 g/m*3 8.5 C 0 km/h
747 15-12-2015 14:10:00 8.4 C 7.8 g/m*3 8.4 C 1.6 km/h
748 15-12-2015 14:15:00 8.3 C 7.75 g/m*3 8.3 C 0 km/h
749 15-12-2015 14:20:00 8.3 C 7.84 g/m*3 8.3 C 0 km/h
750 15-12-2015 14:25:00 8.2 C 7.79 g/m*3 8.2 C 0 km/h
Sensor: Nr:Datum:Temp:Abs-Feuchte:Windchill:Wind:
Aussen-T/F 751 15-12-2015 14:30:00 8.2 C 7.79 g/m*3 8.2 C 0 km/h
752 15-12-2015 14:35:00 8.2 C 7.79 g/m*3 6.87 C 8.1 km/h
753 15-12-2015 14:40:00 8.2 C 7.79 g/m*3 8.2 C 4.8 km/h
754 15-12-2015 14:45:00 8.3 C 7.84 g/m*3 8.3 C 1.6 km/h
755 15-12-2015 14:50:00 8.3 C 7.84 g/m*3 8.3 C 3.2 km/h
756 15-12-2015 14:55:00 8.4 C 7.89 g/m*3 6.78 C 9.7 km/h
757 15-12-2015 15:00:00 8.6 C 7.91 g/m*3 8.6 C 3.2 km/h
758 15-12-2015 15:05:00 8.8 C 7.92 g/m*3 7.98 C 6.4 km/h
759 15-12-2015 15:10:00 8.9 C 7.97 g/m*3 8.9 C 3.2 km/h
760 15-12-2015 15:15:00 8.9 C 7.97 g/m*3 8.9 C 3.2 km/h
761 15-12-2015 15:20:00 8.9 C 7.97 g/m*3 8.9 C 0 km/h
762 15-12-2015 15:25:00 8.9 C 7.97 g/m*3 8.9 C 1.6 km/h
763 15-12-2015 15:30:00 8.9 C 7.97 g/m*3 8.9 C 3.2 km/h
764 15-12-2015 15:35:00 8.9 C 7.97 g/m*3 8.9 C 3.2 km/h
765 15-12-2015 15:40:00 8.9 C 7.97 g/m*3 8.9 C 0 km/h
766 15-12-2015 15:45:00 8.8 C 7.92 g/m*3 8.8 C 1.6 km/h
767 15-12-2015 15:50:00 8.6 C 7.82 g/m*3 8.6 C 1.6 km/h
768 15-12-2015 15:55:00 8.4 C 7.8 g/m*3 8.4 C 3.2 km/h
769 15-12-2015 16:00:00 8.2 C 7.7 g/m*3 8.2 C 0 km/h
770 15-12-2015 16:05:00 8.1 C 7.66 g/m*3 8.1 C 3.2 km/h
771 15-12-2015 16:10:00 8 C 7.69 g/m*3 8 C 1.6 km/h
772 15-12-2015 16:15:00 7.9 C 7.64 g/m*3 7.9 C 3.2 km/h
773 15-12-2015 16:20:00 7.8 C 7.59 g/m*3 7.8 C 3.2 km/h
774 15-12-2015 16:25:00 7.8 C 7.67 g/m*3 7.8 C 1.6 km/h
775 15-12-2015 16:30:00 7.8 C 7.67 g/m*3 7.8 C 3.2 km/h
Sensor: Nr:Datum:Temp:Abs-Feuchte:Windchill:Wind:
Aussen-T/F 776 15-12-2015 16:35:00 7.8 C 7.67 g/m*3 7.8 C 3.2 km/h
777 15-12-2015 16:40:00 7.8 C 7.75 g/m*3 7.8 C 0 km/h
778 15-12-2015 16:45:00 7.8 C 7.75 g/m*3 7.8 C 1.6 km/h
779 15-12-2015 16:50:00 7.9 C 7.8 g/m*3 7.9 C 3.2 km/h
780 15-12-2015 16:55:00 7.9 C 7.8 g/m*3 7.9 C 1.6 km/h
781 15-12-2015 17:00:00 7.8 C 7.75 g/m*3 7.8 C 0 km/h
782 15-12-2015 17:05:00 7.8 C 7.75 g/m*3 7.8 C 0 km/h
783 15-12-2015 17:10:00 7.8 C 7.75 g/m*3 7.8 C 0 km/h
784 15-12-2015 17:15:00 7.8 C 7.75 g/m*3 7.8 C 1.6 km/h
785 15-12-2015 17:20:00 7.8 C 7.75 g/m*3 7.8 C 1.6 km/h
786 15-12-2015 17:25:00 7.8 C 7.75 g/m*3 7.8 C 0 km/h
787 15-12-2015 17:30:00 7.8 C 7.75 g/m*3 7.8 C 0 km/h
788 15-12-2015 17:35:00 7.8 C 7.75 g/m*3 7.8 C 1.6 km/h
789 15-12-2015 17:40:00 7.8 C 7.75 g/m*3 7.8 C 1.6 km/h
790 15-12-2015 17:45:00 7.7 C 7.7 g/m*3 7.7 C 0 km/h
791 15-12-2015 17:50:00 7.6 C 7.65 g/m*3 7.6 C 3.2 km/h
792 15-12-2015 17:55:00 7.6 C 7.65 g/m*3 7.6 C 3.2 km/h
793 15-12-2015 18:00:00 7.6 C 7.65 g/m*3 7.6 C 1.6 km/h
794 15-12-2015 18:05:00 7.5 C 7.6 g/m*3 7.5 C 3.2 km/h
795 15-12-2015 18:10:00 7.4 C 7.55 g/m*3 7.4 C 1.6 km/h
796 15-12-2015 18:15:00 7.4 C 7.55 g/m*3 7.4 C 0 km/h
797 15-12-2015 18:20:00 7.4 C 7.55 g/m*3 7.4 C 0 km/h
798 15-12-2015 18:25:00 7.4 C 7.55 g/m*3 7.4 C 0 km/h
799 15-12-2015 18:30:00 7.5 C 7.68 g/m*3 7.5 C 0 km/h
800 15-12-2015 18:35:00 7.5 C 7.68 g/m*3 7.5 C 0 km/h
Sensor: Nr:Datum:Temp:Abs-Feuchte:Windchill:Wind:
Aussen-T/F 801 15-12-2015 18:40:00 7.6 C 7.73 g/m*3 7.6 C 0 km/h
802 15-12-2015 18:45:00 7.5 C 7.68 g/m*3 7.5 C 0 km/h
803 15-12-2015 18:50:00 7.5 C 7.68 g/m*3 7.5 C 0 km/h
804 15-12-2015 18:55:00 7.3 C 7.51 g/m*3 7.3 C 0 km/h
805 15-12-2015 19:00:00 7.2 C 7.46 g/m*3 7.2 C 0 km/h
806 15-12-2015 19:05:00 7.1 C 7.41 g/m*3 7.1 C 0 km/h
807 15-12-2015 19:10:00 6.9 C 7.31 g/m*3 6.9 C 0 km/h
808 15-12-2015 19:15:00 6.9 C 7.39 g/m*3 6.9 C 0 km/h
809 15-12-2015 19:20:00 6.9 C 7.39 g/m*3 6.9 C 0 km/h
810 15-12-2015 19:25:00 6.8 C 7.34 g/m*3 6.8 C 0 km/h
811 15-12-2015 19:30:00 6.8 C 7.34 g/m*3 6.8 C 0 km/h
812 15-12-2015 19:35:00 6.8 C 7.34 g/m*3 6.8 C 1.6 km/h
813 15-12-2015 19:40:00 6.9 C 7.39 g/m*3 6.9 C 0 km/h
814 15-12-2015 19:45:00 6.9 C 7.39 g/m*3 6.9 C 1.6 km/h
815 15-12-2015 19:50:00 6.9 C 7.39 g/m*3 6.9 C 0 km/h
816 15-12-2015 19:55:00 6.9 C 7.39 g/m*3 6.9 C 0 km/h
817 15-12-2015 20:00:00 6.9 C 7.39 g/m*3 6.9 C 0 km/h
818 15-12-2015 20:05:00 7 C 7.52 g/m*3 7 C 0 km/h
819 15-12-2015 20:10:00 7 C 7.52 g/m*3 7 C 0 km/h
820 15-12-2015 20:15:00 7 C 7.52 g/m*3 7 C 0 km/h
821 15-12-2015 20:20:00 6.9 C 7.39 g/m*3 6.9 C 0 km/h
822 15-12-2015 20:25:00 6.9 C 7.39 g/m*3 6.9 C 0 km/h
823 15-12-2015 20:30:00 6.8 C 7.34 g/m*3 6.8 C 0 km/h
824 15-12-2015 20:35:00 6.8 C 7.34 g/m*3 6.8 C 0 km/h
825 15-12-2015 20:40:00 6.7 C 7.29 g/m*3 6.7 C 0 km/h
Sensor: Nr:Datum:Temp:Abs-Feuchte:Windchill:Wind:
Aussen-T/F 826 15-12-2015 20:45:00 6.8 C 7.42 g/m*3 6.8 C 0 km/h
827 15-12-2015 20:50:00 6.8 C 7.42 g/m*3 6.8 C 0 km/h
828 15-12-2015 20:55:00 6.8 C 7.42 g/m*3 6.8 C 0 km/h
829 15-12-2015 21:00:00 6.8 C 7.42 g/m*3 6.8 C 0 km/h
830 15-12-2015 21:05:00 6.8 C 7.42 g/m*3 6.8 C 0 km/h
831 15-12-2015 21:10:00 6.7 C 7.37 g/m*3 6.7 C 0 km/h
832 15-12-2015 21:15:00 6.6 C 7.32 g/m*3 6.6 C 0 km/h
833 15-12-2015 21:20:00 6.6 C 7.25 g/m*3 6.6 C 0 km/h
834 15-12-2015 21:25:00 6.5 C 7.2 g/m*3 6.5 C 0 km/h
835 15-12-2015 21:30:00 6.5 C 7.27 g/m*3 6.5 C 0 km/h
836 15-12-2015 21:35:00 6.6 C 7.32 g/m*3 6.6 C 0 km/h
837 15-12-2015 21:40:00 6.6 C 7.32 g/m*3 6.6 C 0 km/h
838 15-12-2015 21:45:00 6.6 C 7.32 g/m*3 6.6 C 0 km/h
839 15-12-2015 21:50:00 6.6 C 7.32 g/m*3 6.6 C 0 km/h
840 15-12-2015 21:55:00 6.6 C 7.32 g/m*3 6.6 C 0 km/h
841 15-12-2015 22:00:00 6.6 C 7.32 g/m*3 6.6 C 0 km/h
842 15-12-2015 22:05:00 6.7 C 7.37 g/m*3 6.7 C 0 km/h
843 15-12-2015 22:10:00 6.7 C 7.37 g/m*3 6.7 C 0 km/h
844 15-12-2015 22:15:00 6.7 C 7.37 g/m*3 6.7 C 0 km/h
845 15-12-2015 22:20:00 6.7 C 7.37 g/m*3 6.7 C 0 km/h
846 15-12-2015 22:25:00 6.7 C 7.37 g/m*3 6.7 C 0 km/h
847 15-12-2015 22:30:00 6.7 C 7.37 g/m*3 6.7 C 0 km/h
848 15-12-2015 22:35:00 6.7 C 7.37 g/m*3 6.7 C 0 km/h
849 15-12-2015 22:40:00 6.7 C 7.37 g/m*3 6.7 C 0 km/h
850 15-12-2015 22:45:00 6.7 C 7.37 g/m*3 6.7 C 0 km/h
Sensor: Nr:Datum:Temp:Abs-Feuchte:Windchill:Wind:
Aussen-T/F 851 15-12-2015 22:50:00 6.7 C 7.37 g/m*3 6.7 C 0 km/h
852 15-12-2015 22:55:00 6.7 C 7.37 g/m*3 6.7 C 0 km/h
853 15-12-2015 23:00:00 6.7 C 7.37 g/m*3 6.7 C 0 km/h
854 15-12-2015 23:05:00 6.7 C 7.37 g/m*3 6.7 C 0 km/h
855 15-12-2015 23:10:00 6.7 C 7.37 g/m*3 6.7 C 0 km/h
856 15-12-2015 23:15:00 6.7 C 7.37 g/m*3 6.7 C 0 km/h
857 15-12-2015 23:20:00 6.7 C 7.37 g/m*3 6.7 C 0 km/h
858 15-12-2015 23:25:00 6.7 C 7.37 g/m*3 6.7 C 0 km/h
859 15-12-2015 23:30:00 6.6 C 7.32 g/m*3 6.6 C 0 km/h
860 15-12-2015 23:35:00 6.7 C 7.37 g/m*3 6.7 C 0 km/h
861 15-12-2015 23:40:00 6.7 C 7.37 g/m*3 6.7 C 0 km/h
862 15-12-2015 23:45:00 6.7 C 7.37 g/m*3 6.7 C 0 km/h
863 15-12-2015 23:50:00 6.7 C 7.37 g/m*3 6.7 C 0 km/h
864 15-12-2015 23:55:00 6.7 C 7.37 g/m*3 6.7 C 0 km/h
865 16-12-2015 00:00:00 6.7 C 7.37 g/m*3 6.7 C 0 km/h
866 16-12-2015 00:05:00 6.7 C 7.37 g/m*3 6.7 C 0 km/h
867 16-12-2015 00:10:00 6.7 C 7.37 g/m*3 6.7 C 0 km/h
868 16-12-2015 00:15:00 6.6 C 7.32 g/m*3 6.6 C 0 km/h
869 16-12-2015 00:20:00 6.6 C 7.32 g/m*3 6.6 C 0 km/h
870 16-12-2015 00:25:00 6.6 C 7.32 g/m*3 6.6 C 0 km/h
871 16-12-2015 00:30:00 6.6 C 7.32 g/m*3 6.6 C 0 km/h
872 16-12-2015 00:35:00 6.6 C 7.32 g/m*3 6.6 C 0 km/h
873 16-12-2015 00:40:00 6.6 C 7.32 g/m*3 6.6 C 0 km/h
874 16-12-2015 00:45:00 6.5 C 7.27 g/m*3 6.5 C 0 km/h
875 16-12-2015 00:50:00 6.5 C 7.27 g/m*3 6.5 C 0 km/h
Sensor: Nr:Datum:Temp:Abs-Feuchte:Windchill:Wind:
Aussen-T/F 876 16-12-2015 00:55:00 6.5 C 7.27 g/m*3 6.5 C 0 km/h
877 16-12-2015 01:00:00 6.6 C 7.32 g/m*3 6.6 C 0 km/h
878 16-12-2015 01:05:00 6.6 C 7.32 g/m*3 6.6 C 0 km/h
879 16-12-2015 01:10:00 6.6 C 7.32 g/m*3 6.6 C 0 km/h
880 16-12-2015 01:15:00 6.6 C 7.32 g/m*3 6.6 C 0 km/h
881 16-12-2015 01:20:00 6.6 C 7.32 g/m*3 6.6 C 0 km/h
882 16-12-2015 01:25:00 6.5 C 7.27 g/m*3 6.5 C 0 km/h
883 16-12-2015 01:30:00 6.5 C 7.27 g/m*3 6.5 C 0 km/h
884 16-12-2015 01:35:00 6.5 C 7.27 g/m*3 6.5 C 0 km/h
885 16-12-2015 01:40:00 6.5 C 7.27 g/m*3 6.5 C 0 km/h
886 16-12-2015 01:45:00 6.5 C 7.27 g/m*3 6.5 C 0 km/h
887 16-12-2015 01:50:00 6.5 C 7.27 g/m*3 6.5 C 0 km/h
888 16-12-2015 01:55:00 6.5 C 7.27 g/m*3 6.5 C 0 km/h
889 16-12-2015 02:00:00 6.6 C 7.32 g/m*3 6.6 C 0 km/h
890 16-12-2015 02:05:00 6.6 C 7.32 g/m*3 6.6 C 0 km/h
891 16-12-2015 02:10:00 6.6 C 7.32 g/m*3 6.6 C 0 km/h
892 16-12-2015 02:15:00 6.6 C 7.32 g/m*3 6.6 C 0 km/h
893 16-12-2015 02:20:00 6.6 C 7.32 g/m*3 6.6 C 0 km/h
894 16-12-2015 02:25:00 6.6 C 7.32 g/m*3 6.6 C 0 km/h
895 16-12-2015 02:30:00 6.6 C 7.32 g/m*3 6.6 C 0 km/h
896 16-12-2015 02:35:00 6.6 C 7.32 g/m*3 6.6 C 0 km/h
897 16-12-2015 02:40:00 6.6 C 7.32 g/m*3 6.6 C 0 km/h
898 16-12-2015 02:45:00 6.6 C 7.32 g/m*3 6.6 C 0 km/h
899 16-12-2015 02:50:00 6.6 C 7.32 g/m*3 6.6 C 0 km/h
900 16-12-2015 02:55:00 6.6 C 7.32 g/m*3 6.6 C 0 km/h
Sensor: Nr:Datum:Temp:Abs-Feuchte:Windchill:Wind:
Aussen-T/F 901 16-12-2015 03:00:00 6.6 C 7.32 g/m*3 6.6 C 0 km/h
902 16-12-2015 03:05:00 6.6 C 7.32 g/m*3 6.6 C 0 km/h
903 16-12-2015 03:10:00 6.6 C 7.32 g/m*3 6.6 C 0 km/h
904 16-12-2015 03:15:00 6.6 C 7.32 g/m*3 6.6 C 0 km/h
905 16-12-2015 03:20:00 6.6 C 7.32 g/m*3 6.6 C 0 km/h
906 16-12-2015 03:25:00 6.7 C 7.37 g/m*3 6.7 C 0 km/h
907 16-12-2015 03:30:00 6.7 C 7.37 g/m*3 6.7 C 0 km/h
908 16-12-2015 03:35:00 6.6 C 7.32 g/m*3 6.6 C 0 km/h
909 16-12-2015 03:40:00 6.6 C 7.32 g/m*3 6.6 C 0 km/h
910 16-12-2015 03:45:00 6.6 C 7.32 g/m*3 6.6 C 0 km/h
911 16-12-2015 03:50:00 6.6 C 7.32 g/m*3 6.6 C 0 km/h
912 16-12-2015 03:55:00 6.6 C 7.32 g/m*3 6.6 C 0 km/h
913 16-12-2015 04:00:00 6.6 C 7.32 g/m*3 6.6 C 0 km/h
914 16-12-2015 04:05:00 6.7 C 7.37 g/m*3 6.7 C 0 km/h
915 16-12-2015 04:10:00 6.7 C 7.37 g/m*3 6.7 C 0 km/h
916 16-12-2015 04:15:00 6.8 C 7.42 g/m*3 6.8 C 1.6 km/h
917 16-12-2015 04:20:00 6.8 C 7.42 g/m*3 6.8 C 3.2 km/h
918 16-12-2015 04:25:00 6.8 C 7.42 g/m*3 6.8 C 0 km/h
919 16-12-2015 04:30:00 6.9 C 7.54 g/m*3 6.9 C 0 km/h
920 16-12-2015 04:35:00 7 C 7.59 g/m*3 7 C 0 km/h
921 16-12-2015 04:40:00 7 C 7.59 g/m*3 7 C 0 km/h
922 16-12-2015 04:45:00 7.1 C 7.64 g/m*3 7.1 C 0 km/h
923 16-12-2015 04:50:00 7.1 C 7.64 g/m*3 7.1 C 0 km/h
924 16-12-2015 04:55:00 7.2 C 7.69 g/m*3 7.2 C 0 km/h
925 16-12-2015 05:00:00 7.2 C 7.69 g/m*3 7.2 C 0 km/h
Sensor: Nr:Datum:Temp:Abs-Feuchte:Windchill:Wind:
Aussen-T/F 926 16-12-2015 05:05:00 7.3 C 7.74 g/m*3 7.3 C 0 km/h
927 16-12-2015 05:10:00 7.3 C 7.74 g/m*3 7.3 C 0 km/h
928 16-12-2015 05:15:00 7.3 C 7.74 g/m*3 7.3 C 0 km/h
929 16-12-2015 05:20:00 7.3 C 7.74 g/m*3 7.3 C 0 km/h
930 16-12-2015 05:25:00 7.4 C 7.79 g/m*3 7.4 C 0 km/h
931 16-12-2015 05:30:00 7.5 C 7.84 g/m*3 7.5 C 0 km/h
932 16-12-2015 05:35:00 7.5 C 7.84 g/m*3 7.5 C 0 km/h
933 16-12-2015 05:40:00 7.5 C 7.84 g/m*3 7.5 C 0 km/h
934 16-12-2015 05:45:00 7.5 C 7.84 g/m*3 7.5 C 0 km/h
935 16-12-2015 05:50:00 7.4 C 7.79 g/m*3 7.4 C 0 km/h
936 16-12-2015 05:55:00 7.4 C 7.79 g/m*3 7.4 C 0 km/h
937 16-12-2015 06:00:00 7.6 C 7.9 g/m*3 7.6 C 0 km/h
938 16-12-2015 06:05:00 7.6 C 7.9 g/m*3 7.6 C 0 km/h
939 16-12-2015 06:10:00 7.7 C 7.95 g/m*3 7.7 C 0 km/h
940 16-12-2015 06:15:00 7.7 C 7.95 g/m*3 7.7 C 0 km/h
941 16-12-2015 06:20:00 7.8 C 8 g/m*3 7.8 C 0 km/h
942 16-12-2015 06:25:00 7.8 C 8 g/m*3 7.8 C 0 km/h
943 16-12-2015 06:30:00 7.8 C 8 g/m*3 7.8 C 0 km/h
944 16-12-2015 06:35:00 7.8 C 8 g/m*3 7.8 C 0 km/h
945 16-12-2015 06:40:00 7.8 C 8 g/m*3 7.8 C 1.6 km/h
946 16-12-2015 06:45:00 7.8 C 8 g/m*3 7.8 C 1.6 km/h
947 16-12-2015 06:50:00 7.8 C 8 g/m*3 7.8 C 0 km/h
948 16-12-2015 06:55:00 7.9 C 8.05 g/m*3 7.9 C 0 km/h
949 16-12-2015 07:00:00 7.9 C 8.05 g/m*3 7.9 C 0 km/h
950 16-12-2015 07:05:00 7.9 C 8.05 g/m*3 7.9 C 0 km/h
Sensor: Nr:Datum:Temp:Abs-Feuchte:Windchill:Wind:
Aussen-T/F 951 16-12-2015 07:10:00 7.9 C 8.05 g/m*3 7.9 C 0 km/h
952 16-12-2015 07:15:00 7.9 C 8.05 g/m*3 7.9 C 0 km/h
953 16-12-2015 07:20:00 8 C 8.1 g/m*3 8 C 0 km/h
954 16-12-2015 07:25:00 8 C 8.1 g/m*3 8 C 0 km/h
955 16-12-2015 07:30:00 8 C 8.1 g/m*3 8 C 0 km/h
956 16-12-2015 07:35:00 8 C 8.1 g/m*3 8 C 0 km/h
957 16-12-2015 07:40:00 8.1 C 8.15 g/m*3 8.1 C 0 km/h
958 16-12-2015 07:45:00 8.1 C 8.15 g/m*3 8.1 C 0 km/h
959 16-12-2015 07:50:00 8.1 C 8.15 g/m*3 8.1 C 0 km/h
960 16-12-2015 07:55:00 8.1 C 8.15 g/m*3 8.1 C 0 km/h
961 16-12-2015 08:00:00 8.1 C 8.15 g/m*3 8.1 C 0 km/h
962 16-12-2015 08:05:00 8.1 C 8.15 g/m*3 8.1 C 0 km/h
963 16-12-2015 08:10:00 8.2 C 8.21 g/m*3 8.2 C 0 km/h
964 16-12-2015 08:15:00 8.2 C 8.21 g/m*3 8.2 C 0 km/h
965 16-12-2015 08:20:00 8.3 C 8.26 g/m*3 8.3 C 1.6 km/h
966 16-12-2015 08:25:00 8.3 C 8.26 g/m*3 8.3 C 0 km/h
967 16-12-2015 08:30:00 8.4 C 8.31 g/m*3 8.4 C 1.6 km/h
968 16-12-2015 08:35:00 8.5 C 8.37 g/m*3 8.5 C 0 km/h
969 16-12-2015 08:40:00 8.6 C 8.42 g/m*3 8.6 C 1.6 km/h
970 16-12-2015 08:45:00 8.7 C 8.48 g/m*3 8.7 C 4.8 km/h
971 16-12-2015 08:50:00 8.8 C 8.53 g/m*3 8.8 C 1.6 km/h
972 16-12-2015 08:55:00 8.8 C 8.53 g/m*3 8.8 C 1.6 km/h
973 16-12-2015 09:00:00 8.9 C 8.58 g/m*3 8.9 C 4.8 km/h
974 16-12-2015 09:05:00 9 C 8.64 g/m*3 9 C 1.6 km/h
975 16-12-2015 09:10:00 9.1 C 8.7 g/m*3 9.1 C 0 km/h
Sensor: Nr:Datum:Temp:Abs-Feuchte:Windchill:Wind:
Aussen-T/F 976 16-12-2015 09:15:00 9.1 C 8.7 g/m*3 9.1 C 0 km/h
977 16-12-2015 09:20:00 9.2 C 8.75 g/m*3 9.2 C 1.6 km/h
978 16-12-2015 09:25:00 9.2 C 8.75 g/m*3 9.2 C 0 km/h
979 16-12-2015 09:30:00 9.3 C 8.81 g/m*3 9.3 C 0 km/h
980 16-12-2015 09:35:00 9.3 C 8.81 g/m*3 9.3 C 1.6 km/h
981 16-12-2015 09:40:00 9.3 C 8.81 g/m*3 9.3 C 1.6 km/h
982 16-12-2015 09:45:00 9.4 C 8.86 g/m*3 9.4 C 1.6 km/h
983 16-12-2015 09:50:00 9.4 C 8.86 g/m*3 9.4 C 1.6 km/h
984 16-12-2015 09:55:00 9.5 C 8.92 g/m*3 9.5 C 0 km/h
985 16-12-2015 10:00:00 9.6 C 8.98 g/m*3 9.6 C 0 km/h
986 16-12-2015 10:05:00 9.7 C 9.03 g/m*3 9.7 C 0 km/h
987 16-12-2015 10:10:00 9.7 C 9.03 g/m*3 9.7 C 0 km/h
988 16-12-2015 10:15:00 9.7 C 9.03 g/m*3 9.7 C 0 km/h
989 16-12-2015 10:20:00 9.7 C 9.03 g/m*3 9.7 C 0 km/h
990 16-12-2015 10:25:00 9.7 C 9.03 g/m*3 9.7 C 0 km/h
991 16-12-2015 10:30:00 9.8 C 9.09 g/m*3 9.8 C 1.6 km/h
992 16-12-2015 10:35:00 9.8 C 9.09 g/m*3 9.8 C 0 km/h
993 16-12-2015 10:40:00 9.8 C 9.09 g/m*3 9.8 C 0 km/h
994 16-12-2015 10:45:00 9.8 C 9.09 g/m*3 9.8 C 0 km/h
995 16-12-2015 10:50:00 9.9 C 9.15 g/m*3 9.9 C 0 km/h
996 16-12-2015 10:55:00 10.1 C 9.27 g/m*3 10.1 C 3.2 km/h
997 16-12-2015 11:00:00 10.2 C 9.33 g/m*3 10.2 C 1.6 km/h
998 16-12-2015 11:05:00 10.2 C 9.33 g/m*3 10.2 C 1.6 km/h
999 16-12-2015 11:10:00 10.2 C 9.33 g/m*3 10.2 C 1.6 km/h
1000 16-12-2015 11:15:00 10.3 C 9.39 g/m*3 10.3 C 0 km/h
Sensor: Nr:Datum:Temp:Abs-Feuchte:Windchill:Wind:
Aussen-T/F 1001 16-12-2015 11:20:00 10.3 C 9.39 g/m*3 10.3 C 0 km/h
1002 16-12-2015 11:25:00 10.3 C 9.39 g/m*3 10.3 C 0 km/h
1003 16-12-2015 11:30:00 10.3 C 9.39 g/m*3 10.3 C 1.6 km/h
1004 16-12-2015 11:35:00 10.3 C 9.39 g/m*3 10.3 C 1.6 km/h
1005 16-12-2015 11:40:00 10.2 C 9.33 g/m*3 10.2 C 1.6 km/h
1006 16-12-2015 11:45:00 10.2 C 9.33 g/m*3 10.2 C 0 km/h
1007 16-12-2015 11:50:00 10.1 C 9.27 g/m*3 10.1 C 0 km/h
1008 16-12-2015 11:55:00 10.1 C 9.27 g/m*3 10.1 C 0 km/h
1009 16-12-2015 12:00:00 10.2 C 9.33 g/m*3 10.2 C 0 km/h
1010 16-12-2015 12:05:00 10.3 C 9.39 g/m*3 10.3 C 0 km/h
1011 16-12-2015 12:10:00 10.4 C 9.44 g/m*3 10.4 C 0 km/h
1012 16-12-2015 12:15:00 10.4 C 9.44 g/m*3 10.4 C 0 km/h
1013 16-12-2015 12:20:00 10.4 C 9.44 g/m*3 10.4 C 0 km/h
1014 16-12-2015 12:25:00 10.5 C 9.5 g/m*3 10.5 C 0 km/h
1015 16-12-2015 12:30:00 10.6 C 9.57 g/m*3 10.6 C 0 km/h
1016 16-12-2015 12:35:00 10.7 C 9.63 g/m*3 10.7 C 0 km/h
1017 16-12-2015 12:40:00 10.9 C 9.75 g/m*3 10.9 C 0 km/h
1018 16-12-2015 12:45:00 11.1 C 9.87 g/m*3 11.1 C 0 km/h
1019 16-12-2015 12:50:00 11.2 C 9.93 g/m*3 11.2 C 0 km/h
1020 16-12-2015 12:55:00 11.2 C 9.93 g/m*3 11.2 C 0 km/h
1021 16-12-2015 13:00:00 11.3 C 10 g/m*3 11.3 C 0 km/h
1022 16-12-2015 13:05:00 11.3 C 10 g/m*3 11.3 C 0 km/h
1023 16-12-2015 13:10:00 11.3 C 10 g/m*3 11.3 C 0 km/h
1024 16-12-2015 13:15:00 11.4 C 10.06 g/m*3 11.4 C 0 km/h
1025 16-12-2015 13:20:00 11.4 C 10.06 g/m*3 11.4 C 1.6 km/h
Sensor: Nr:Datum:Temp:Abs-Feuchte:Windchill:Wind:
Aussen-T/F 1026 16-12-2015 13:25:00 11.4 C 10.06 g/m*3 11.4 C 0 km/h
1027 16-12-2015 13:30:00 11.4 C 10.06 g/m*3 11.4 C 4.8 km/h
1028 16-12-2015 13:35:00 11.4 C 10.06 g/m*3 11.4 C 1.6 km/h
1029 16-12-2015 13:40:00 11.4 C 10.06 g/m*3 11.4 C 3.2 km/h
1030 16-12-2015 13:45:00 11.4 C 10.06 g/m*3 11.4 C 1.6 km/h
1031 16-12-2015 13:50:00 11.4 C 10.06 g/m*3 11.4 C 1.6 km/h
1032 16-12-2015 13:55:00 11.4 C 10.06 g/m*3 11.4 C 1.6 km/h
1033 16-12-2015 14:00:00 11.3 C 10 g/m*3 11.3 C 1.6 km/h
1034 16-12-2015 14:05:00 11.3 C 10 g/m*3 11.3 C 3.2 km/h
1035 16-12-2015 14:10:00 11.3 C 10 g/m*3 11.3 C 1.6 km/h
1036 16-12-2015 14:15:00 11.3 C 10 g/m*3 11.3 C 3.2 km/h
1037 16-12-2015 14:20:00 11.3 C 10 g/m*3 11.3 C 0 km/h
1038 16-12-2015 14:25:00 11.3 C 10 g/m*3 11.3 C 3.2 km/h
1039 16-12-2015 14:30:00 11.3 C 10 g/m*3 11.3 C 3.2 km/h
1040 16-12-2015 14:35:00 11.3 C 10 g/m*3 11.3 C 3.2 km/h
1041 16-12-2015 14:40:00 11.3 C 10 g/m*3 11.3 C 3.2 km/h
1042 16-12-2015 14:45:00 11.3 C 10 g/m*3 11.3 C 6.4 km/h
1043 16-12-2015 14:50:00 11.3 C 10 g/m*3 11.3 C 12.9 km/h
1044 16-12-2015 14:55:00 11.3 C 10 g/m*3 11.3 C 12.9 km/h
1045 16-12-2015 15:00:00 11.3 C 10 g/m*3 11.3 C 4.8 km/h
1046 16-12-2015 15:05:00 11.3 C 10 g/m*3 11.3 C 6.4 km/h
1047 16-12-2015 15:10:00 11.3 C 10 g/m*3 11.3 C 9.7 km/h
1048 16-12-2015 15:15:00 11.3 C 10 g/m*3 11.3 C 4.8 km/h
1049 16-12-2015 15:20:00 11.3 C 10 g/m*3 11.3 C 4.8 km/h
1050 16-12-2015 15:25:00 11.3 C 10 g/m*3 11.3 C 4.8 km/h
Sensor: Nr:Datum:Temp:Abs-Feuchte:Windchill:Wind:
Aussen-T/F 1051 16-12-2015 15:30:00 11.3 C 10 g/m*3 11.3 C 4.8 km/h
1052 16-12-2015 15:35:00 11.3 C 10 g/m*3 11.3 C 8.1 km/h
1053 16-12-2015 15:40:00 11.3 C 10 g/m*3 11.3 C 3.2 km/h
1054 16-12-2015 15:45:00 11.3 C 10 g/m*3 11.3 C 4.8 km/h
1055 16-12-2015 15:50:00 11.3 C 10 g/m*3 11.3 C 3.2 km/h
1056 16-12-2015 15:55:00 11.3 C 10 g/m*3 11.3 C 11.3 km/h
1057 16-12-2015 16:00:00 11.3 C 10 g/m*3 11.3 C 8.1 km/h
1058 16-12-2015 16:05:00 11.3 C 10 g/m*3 11.3 C 6.4 km/h
1059 16-12-2015 16:10:00 11.3 C 10 g/m*3 11.3 C 6.4 km/h
1060 16-12-2015 16:15:00 11.3 C 10 g/m*3 11.3 C 3.2 km/h
1061 16-12-2015 16:20:00 11.3 C 10 g/m*3 11.3 C 6.4 km/h
1062 16-12-2015 16:25:00 11.3 C 10 g/m*3 11.3 C 6.4 km/h
1063 16-12-2015 16:30:00 11.3 C 10 g/m*3 11.3 C 3.2 km/h
1064 16-12-2015 16:35:00 11.3 C 10 g/m*3 11.3 C 4.8 km/h
1065 16-12-2015 16:40:00 11.3 C 10 g/m*3 11.3 C 4.8 km/h
1066 16-12-2015 16:45:00 11.3 C 10 g/m*3 11.3 C 4.8 km/h
1067 16-12-2015 16:50:00 11.3 C 10 g/m*3 11.3 C 4.8 km/h
1068 16-12-2015 16:55:00 11.3 C 10 g/m*3 11.3 C 1.6 km/h
1069 16-12-2015 17:00:00 11.3 C 9.89 g/m*3 11.3 C 3.2 km/h
1070 16-12-2015 17:05:00 11.2 C 9.83 g/m*3 11.2 C 3.2 km/h
1071 16-12-2015 17:10:00 11.2 C 9.83 g/m*3 11.2 C 3.2 km/h
1072 16-12-2015 17:15:00 11.3 C 9.89 g/m*3 11.3 C 3.2 km/h
1073 16-12-2015 17:20:00 11.3 C 9.89 g/m*3 11.3 C 3.2 km/h
1074 16-12-2015 17:25:00 11.3 C 9.89 g/m*3 11.3 C 6.4 km/h
1075 16-12-2015 17:30:00 11.3 C 9.89 g/m*3 11.3 C 3.2 km/h
Sensor: Nr:Datum:Temp:Abs-Feuchte:Windchill:Wind:
Aussen-T/F 1076 16-12-2015 17:35:00 11.2 C 9.83 g/m*3 11.2 C 9.7 km/h
1077 16-12-2015 17:40:00 11.3 C 9.89 g/m*3 11.3 C 6.4 km/h
1078 16-12-2015 17:45:00 11.3 C 9.89 g/m*3 11.3 C 11.3 km/h
1079 16-12-2015 17:50:00 11.3 C 9.89 g/m*3 11.3 C 6.4 km/h
1080 16-12-2015 17:55:00 11.3 C 9.89 g/m*3 11.3 C 8.1 km/h
1081 16-12-2015 18:00:00 11.4 C 9.96 g/m*3 11.4 C 8.1 km/h
1082 16-12-2015 18:05:00 11.3 C 9.89 g/m*3 11.3 C 1.6 km/h
1083 16-12-2015 18:10:00 11.3 C 9.89 g/m*3 11.3 C 1.6 km/h
1084 16-12-2015 18:15:00 11.3 C 9.89 g/m*3 11.3 C 1.6 km/h
1085 16-12-2015 18:20:00 11.3 C 9.89 g/m*3 11.3 C 8.1 km/h
1086 16-12-2015 18:25:00 11.3 C 9.89 g/m*3 11.3 C 1.6 km/h
1087 16-12-2015 18:30:00 11.3 C 9.89 g/m*3 11.3 C 3.2 km/h
1088 16-12-2015 18:35:00 11.3 C 9.89 g/m*3 11.3 C 3.2 km/h
1089 16-12-2015 18:40:00 11.3 C 9.89 g/m*3 11.3 C 1.6 km/h
1090 16-12-2015 18:45:00 11.3 C 9.89 g/m*3 11.3 C 3.2 km/h
1091 16-12-2015 18:50:00 11.3 C 9.89 g/m*3 11.3 C 6.4 km/h
1092 16-12-2015 18:55:00 11.3 C 9.89 g/m*3 11.3 C 1.6 km/h
1093 16-12-2015 19:00:00 11.3 C 9.89 g/m*3 11.3 C 1.6 km/h
1094 16-12-2015 19:05:00 11.3 C 9.89 g/m*3 11.3 C 1.6 km/h
1095 16-12-2015 19:10:00 11.3 C 9.89 g/m*3 11.3 C 1.6 km/h
1096 16-12-2015 19:15:00 11.4 C 9.96 g/m*3 11.4 C 4.8 km/h
1097 16-12-2015 19:20:00 11.4 C 9.96 g/m*3 11.4 C 6.4 km/h
1098 16-12-2015 19:25:00 11.4 C 9.96 g/m*3 11.4 C 1.6 km/h
1099 16-12-2015 19:30:00 11.4 C 9.96 g/m*3 11.4 C 1.6 km/h
1100 16-12-2015 19:35:00 11.4 C 9.96 g/m*3 11.4 C 4.8 km/h
Sensor: Nr:Datum:Temp:Abs-Feuchte:Windchill:Wind:
Aussen-T/F 1101 16-12-2015 19:40:00 11.4 C 9.96 g/m*3 11.4 C 9.7 km/h
1102 16-12-2015 19:45:00 11.4 C 9.96 g/m*3 11.4 C 4.8 km/h
1103 16-12-2015 19:50:00 11.3 C 9.89 g/m*3 11.3 C 8.1 km/h
1104 16-12-2015 19:55:00 11.3 C 9.89 g/m*3 11.3 C 3.2 km/h
1105 16-12-2015 20:00:00 11.2 C 9.83 g/m*3 11.2 C 9.7 km/h
1106 16-12-2015 20:05:00 11.2 C 9.83 g/m*3 11.2 C 3.2 km/h
1107 16-12-2015 20:10:00 11.2 C 9.83 g/m*3 11.2 C 3.2 km/h
1108 16-12-2015 20:15:00 11.2 C 9.83 g/m*3 11.2 C 3.2 km/h
1109 16-12-2015 20:20:00 11.4 C 9.96 g/m*3 11.4 C 14.5 km/h
1110 16-12-2015 20:25:00 11.6 C 10.19 g/m*3 11.6 C 14.5 km/h
1111 16-12-2015 20:30:00 11.7 C 10.15 g/m*3 11.7 C 9.7 km/h
1112 16-12-2015 20:35:00 11.7 C 10.15 g/m*3 11.7 C 6.4 km/h
1113 16-12-2015 20:40:00 11.8 C 10.21 g/m*3 11.8 C 4.8 km/h
1114 16-12-2015 20:45:00 11.8 C 10.21 g/m*3 11.8 C 1.6 km/h
1115 16-12-2015 20:50:00 11.8 C 10.21 g/m*3 11.8 C 8.1 km/h
1116 16-12-2015 20:55:00 11.8 C 10.21 g/m*3 11.8 C 4.8 km/h
1117 16-12-2015 21:00:00 11.8 C 10.21 g/m*3 11.8 C 8.1 km/h
1118 16-12-2015 21:05:00 11.9 C 10.27 g/m*3 11.9 C 6.4 km/h
1119 16-12-2015 21:10:00 11.9 C 10.27 g/m*3 11.9 C 4.8 km/h
1120 16-12-2015 21:15:00 12 C 10.34 g/m*3 12 C 6.4 km/h
1121 16-12-2015 21:20:00 12 C 10.34 g/m*3 12 C 9.7 km/h
1122 16-12-2015 21:25:00 12.1 C 10.4 g/m*3 12.1 C 11.3 km/h
1123 16-12-2015 21:30:00 12.1 C 10.4 g/m*3 12.1 C 6.4 km/h
1124 16-12-2015 21:35:00 12.1 C 10.4 g/m*3 12.1 C 4.8 km/h
1125 16-12-2015 21:40:00 12.1 C 10.4 g/m*3 12.1 C 6.4 km/h
Sensor: Nr:Datum:Temp:Abs-Feuchte:Windchill:Wind:
Aussen-T/F 1126 16-12-2015 21:45:00 12 C 10.23 g/m*3 12 C 4.8 km/h
1127 16-12-2015 21:50:00 12 C 10.23 g/m*3 12 C 3.2 km/h
1128 16-12-2015 21:55:00 12 C 10.23 g/m*3 12 C 1.6 km/h
1129 16-12-2015 22:00:00 12 C 10.23 g/m*3 12 C 3.2 km/h
1130 16-12-2015 22:05:00 12 C 10.23 g/m*3 12 C 3.2 km/h
1131 16-12-2015 22:10:00 12 C 10.34 g/m*3 12 C 4.8 km/h
1132 16-12-2015 22:15:00 12.1 C 10.29 g/m*3 12.1 C 4.8 km/h
1133 16-12-2015 22:20:00 12 C 10.23 g/m*3 12 C 6.4 km/h
1134 16-12-2015 22:25:00 12.1 C 10.29 g/m*3 12.1 C 3.2 km/h
1135 16-12-2015 22:30:00 12 C 10.34 g/m*3 12 C 4.8 km/h
1136 16-12-2015 22:35:00 12.1 C 10.4 g/m*3 12.1 C 6.4 km/h
1137 16-12-2015 22:40:00 12.1 C 10.4 g/m*3 12.1 C 4.8 km/h
1138 16-12-2015 22:45:00 12.1 C 10.4 g/m*3 12.1 C 4.8 km/h
1139 16-12-2015 22:50:00 12.2 C 10.47 g/m*3 12.2 C 8.1 km/h
1140 16-12-2015 22:55:00 12.2 C 10.36 g/m*3 12.2 C 11.3 km/h
1141 16-12-2015 23:00:00 12.3 C 10.42 g/m*3 12.3 C 6.4 km/h
1142 16-12-2015 23:05:00 12.3 C 10.42 g/m*3 12.3 C 9.7 km/h
1143 16-12-2015 23:10:00 12.3 C 10.42 g/m*3 12.3 C 6.4 km/h
1144 16-12-2015 23:15:00 12.3 C 10.42 g/m*3 12.3 C 6.4 km/h
1145 16-12-2015 23:20:00 12.4 C 10.49 g/m*3 12.4 C 9.7 km/h
1146 16-12-2015 23:25:00 12.4 C 10.49 g/m*3 12.4 C 9.7 km/h
1147 16-12-2015 23:30:00 12.4 C 10.49 g/m*3 12.4 C 6.4 km/h
1148 16-12-2015 23:35:00 12.4 C 10.49 g/m*3 12.4 C 8.1 km/h
1149 16-12-2015 23:40:00 12.4 C 10.49 g/m*3 12.4 C 3.2 km/h
1150 16-12-2015 23:45:00 12.4 C 10.49 g/m*3 12.4 C 4.8 km/h
Sensor: Nr:Datum:Temp:Abs-Feuchte:Windchill:Wind:
Aussen-T/F 1151 16-12-2015 23:50:00 12.4 C 10.49 g/m*3 12.4 C 1.6 km/h
1152 16-12-2015 23:55:00 12.3 C 10.42 g/m*3 12.3 C 6.4 km/h
1153 17-12-2015 00:00:00 12.3 C 10.42 g/m*3 12.3 C 4.8 km/h
1154 17-12-2015 00:05:00 12.3 C 10.42 g/m*3 12.3 C 6.4 km/h
1155 17-12-2015 00:10:00 12.3 C 10.42 g/m*3 12.3 C 1.6 km/h
1156 17-12-2015 00:15:00 12.3 C 10.42 g/m*3 12.3 C 3.2 km/h
1157 17-12-2015 00:20:00 12.3 C 10.42 g/m*3 12.3 C 6.4 km/h
1158 17-12-2015 00:25:00 12.3 C 10.42 g/m*3 12.3 C 1.6 km/h
1159 17-12-2015 00:30:00 12.2 C 10.36 g/m*3 12.2 C 1.6 km/h
1160 17-12-2015 00:35:00 12.2 C 10.36 g/m*3 12.2 C 1.6 km/h
1161 17-12-2015 00:40:00 12.2 C 10.36 g/m*3 12.2 C 3.2 km/h
1162 17-12-2015 00:45:00 12.2 C 10.36 g/m*3 12.2 C 4.8 km/h
1163 17-12-2015 00:50:00 12.2 C 10.36 g/m*3 12.2 C 3.2 km/h
1164 17-12-2015 00:55:00 12.2 C 10.36 g/m*3 12.2 C 16.1 km/h
1165 17-12-2015 01:00:00 12.3 C 10.42 g/m*3 12.3 C 16.1 km/h
1166 17-12-2015 01:05:00 12.3 C 10.42 g/m*3 12.3 C 1.6 km/h
1167 17-12-2015 01:10:00 12.3 C 10.42 g/m*3 12.3 C 9.7 km/h
1168 17-12-2015 01:15:00 12.3 C 10.42 g/m*3 12.3 C 4.8 km/h
1169 17-12-2015 01:20:00 12.4 C 10.49 g/m*3 12.4 C 8.1 km/h
1170 17-12-2015 01:25:00 12.4 C 10.38 g/m*3 12.4 C 4.8 km/h
1171 17-12-2015 01:30:00 12.4 C 10.38 g/m*3 12.4 C 8.1 km/h
1172 17-12-2015 01:35:00 12.5 C 10.44 g/m*3 12.5 C 4.8 km/h
1173 17-12-2015 01:40:00 12.5 C 10.44 g/m*3 12.5 C 4.8 km/h
1174 17-12-2015 01:45:00 12.5 C 10.44 g/m*3 12.5 C 8.1 km/h
1175 17-12-2015 01:50:00 12.6 C 10.4 g/m*3 12.6 C 6.4 km/h
Sensor: Nr:Datum:Temp:Abs-Feuchte:Windchill:Wind:
Aussen-T/F 1176 17-12-2015 01:55:00 12.6 C 10.4 g/m*3 12.6 C 3.2 km/h
1177 17-12-2015 02:00:00 12.6 C 10.4 g/m*3 12.6 C 6.4 km/h
1178 17-12-2015 02:05:00 12.7 C 10.46 g/m*3 12.7 C 6.4 km/h
1179 17-12-2015 02:10:00 12.7 C 10.46 g/m*3 12.7 C 1.6 km/h
1180 17-12-2015 02:15:00 12.7 C 10.35 g/m*3 12.7 C 4.8 km/h
1181 17-12-2015 02:20:00 12.6 C 10.29 g/m*3 12.6 C 3.2 km/h
1182 17-12-2015 02:25:00 12.6 C 10.29 g/m*3 12.6 C 4.8 km/h
1183 17-12-2015 02:30:00 12.6 C 10.4 g/m*3 12.6 C 1.6 km/h
1184 17-12-2015 02:35:00 12.6 C 10.29 g/m*3 12.6 C 0 km/h
1185 17-12-2015 02:40:00 12.4 C 10.27 g/m*3 12.4 C 1.6 km/h
1186 17-12-2015 02:45:00 12.4 C 10.27 g/m*3 12.4 C 0 km/h
1187 17-12-2015 02:50:00 12.3 C 10.21 g/m*3 12.3 C 1.6 km/h
1188 17-12-2015 02:55:00 12.3 C 10.21 g/m*3 12.3 C 0 km/h
1189 17-12-2015 03:00:00 12.2 C 10.14 g/m*3 12.2 C 1.6 km/h
1190 17-12-2015 03:05:00 12.2 C 10.25 g/m*3 12.2 C 0 km/h
1191 17-12-2015 03:10:00 12.2 C 10.25 g/m*3 12.2 C 0 km/h
1192 17-12-2015 03:15:00 12.2 C 10.25 g/m*3 12.2 C 1.6 km/h
1193 17-12-2015 03:20:00 12.1 C 10.19 g/m*3 12.1 C 0 km/h
1194 17-12-2015 03:25:00 12.1 C 10.19 g/m*3 12.1 C 3.2 km/h
1195 17-12-2015 03:30:00 12.1 C 10.19 g/m*3 12.1 C 1.6 km/h
1196 17-12-2015 03:35:00 12.1 C 10.19 g/m*3 12.1 C 3.2 km/h
1197 17-12-2015 03:40:00 12.1 C 10.19 g/m*3 12.1 C 3.2 km/h
1198 17-12-2015 03:45:00 12.1 C 10.19 g/m*3 12.1 C 0 km/h
1199 17-12-2015 03:50:00 12.1 C 10.19 g/m*3 12.1 C 0 km/h
1200 17-12-2015 03:55:00 12.1 C 10.19 g/m*3 12.1 C 1.6 km/h
Sensor: Nr:Datum:Temp:Abs-Feuchte:Windchill:Wind:
Aussen-T/F 1201 17-12-2015 04:00:00 12 C 10.12 g/m*3 12 C 1.6 km/h
1202 17-12-2015 04:05:00 12 C 10.12 g/m*3 12 C 8.1 km/h
1203 17-12-2015 04:10:00 12 C 10.12 g/m*3 12 C 1.6 km/h
1204 17-12-2015 04:15:00 11.9 C 10.06 g/m*3 11.9 C 3.2 km/h
1205 17-12-2015 04:20:00 12 C 10.12 g/m*3 12 C 4.8 km/h
1206 17-12-2015 04:25:00 12.1 C 10.19 g/m*3 12.1 C 4.8 km/h
1207 17-12-2015 04:30:00 12.1 C 10.19 g/m*3 12.1 C 1.6 km/h
1208 17-12-2015 04:35:00 12.1 C 10.19 g/m*3 12.1 C 1.6 km/h
1209 17-12-2015 04:40:00 12.1 C 10.19 g/m*3 12.1 C 3.2 km/h
1210 17-12-2015 04:45:00 12.2 C 10.25 g/m*3 12.2 C 6.4 km/h
1211 17-12-2015 04:50:00 12.2 C 10.25 g/m*3 12.2 C 6.4 km/h
1212 17-12-2015 04:55:00 12.2 C 10.14 g/m*3 12.2 C 1.6 km/h
1213 17-12-2015 05:00:00 12.2 C 10.14 g/m*3 12.2 C 0 km/h
1214 17-12-2015 05:05:00 12.2 C 10.14 g/m*3 12.2 C 3.2 km/h
1215 17-12-2015 05:10:00 12.2 C 10.14 g/m*3 12.2 C 3.2 km/h
1216 17-12-2015 05:15:00 12.2 C 10.14 g/m*3 12.2 C 1.6 km/h
1217 17-12-2015 05:20:00 12.3 C 10.21 g/m*3 12.3 C 0 km/h
1218 17-12-2015 05:25:00 12.2 C 10.14 g/m*3 12.2 C 0 km/h
1219 17-12-2015 05:30:00 12.2 C 10.14 g/m*3 12.2 C 6.4 km/h
1220 17-12-2015 05:35:00 12.3 C 10.21 g/m*3 12.3 C 6.4 km/h
1221 17-12-2015 05:40:00 12.3 C 10.21 g/m*3 12.3 C 4.8 km/h
1222 17-12-2015 05:45:00 12.3 C 10.21 g/m*3 12.3 C 4.8 km/h
1223 17-12-2015 05:50:00 12.2 C 10.04 g/m*3 12.2 C 3.2 km/h
1224 17-12-2015 05:55:00 12.1 C 9.97 g/m*3 12.1 C 4.8 km/h
1225 17-12-2015 06:00:00 11.9 C 9.85 g/m*3 11.9 C 4.8 km/h
Sensor: Nr:Datum:Temp:Abs-Feuchte:Windchill:Wind:
Aussen-T/F 1226 17-12-2015 06:05:00 11.7 C 9.73 g/m*3 11.7 C 3.2 km/h
1227 17-12-2015 06:10:00 11.6 C 9.77 g/m*3 11.6 C 3.2 km/h
1228 17-12-2015 06:15:00 11.4 C 9.65 g/m*3 11.4 C 6.4 km/h
1229 17-12-2015 06:20:00 11.3 C 9.59 g/m*3 11.3 C 6.4 km/h
1230 17-12-2015 06:25:00 11.3 C 9.59 g/m*3 11.3 C 4.8 km/h
1231 17-12-2015 06:30:00 11.3 C 9.69 g/m*3 11.3 C 4.8 km/h
1232 17-12-2015 06:35:00 11.2 C 9.63 g/m*3 11.2 C 6.4 km/h
1233 17-12-2015 06:40:00 11.3 C 9.69 g/m*3 11.3 C 4.8 km/h
1234 17-12-2015 06:45:00 11.3 C 9.69 g/m*3 11.3 C 8.1 km/h
1235 17-12-2015 06:50:00 11.4 C 9.75 g/m*3 11.4 C 6.4 km/h
1236 17-12-2015 06:55:00 11.6 C 9.87 g/m*3 11.6 C 8.1 km/h
1237 17-12-2015 07:00:00 11.7 C 9.94 g/m*3 11.7 C 9.7 km/h
1238 17-12-2015 07:05:00 11.9 C 10.06 g/m*3 11.9 C 9.7 km/h
1239 17-12-2015 07:10:00 11.9 C 9.96 g/m*3 11.9 C 12.9 km/h
1240 17-12-2015 07:15:00 12.1 C 10.08 g/m*3 12.1 C 9.7 km/h
1241 17-12-2015 07:20:00 12.2 C 10.14 g/m*3 12.2 C 9.7 km/h
1242 17-12-2015 07:25:00 12.3 C 10.21 g/m*3 12.3 C 8.1 km/h
1243 17-12-2015 07:30:00 12.3 C 10.1 g/m*3 12.3 C 11.3 km/h
1244 17-12-2015 07:35:00 12.4 C 10.16 g/m*3 12.4 C 12.9 km/h
1245 17-12-2015 07:40:00 12.4 C 10.16 g/m*3 12.4 C 8.1 km/h
1246 17-12-2015 07:45:00 12.4 C 10.16 g/m*3 12.4 C 12.9 km/h
1247 17-12-2015 07:50:00 12.4 C 10.16 g/m*3 12.4 C 8.1 km/h
1248 17-12-2015 07:55:00 12.4 C 10.16 g/m*3 12.4 C 8.1 km/h
1249 17-12-2015 08:00:00 12.5 C 10.22 g/m*3 12.5 C 8.1 km/h
1250 17-12-2015 08:05:00 12.5 C 10.22 g/m*3 12.5 C 12.9 km/h
Sensor: Nr:Datum:Temp:Abs-Feuchte:Windchill:Wind:
Aussen-T/F 1251 17-12-2015 08:10:00 12.6 C 10.29 g/m*3 12.6 C 11.3 km/h
1252 17-12-2015 08:15:00 12.6 C 10.29 g/m*3 12.6 C 6.4 km/h
1253 17-12-2015 08:20:00 12.6 C 10.29 g/m*3 12.6 C 8.1 km/h
1254 17-12-2015 08:25:00 12.6 C 10.29 g/m*3 12.6 C 3.2 km/h
1255 17-12-2015 08:30:00 12.6 C 10.29 g/m*3 12.6 C 8.1 km/h
1256 17-12-2015 08:35:00 12.6 C 10.29 g/m*3 12.6 C 6.4 km/h
1257 17-12-2015 08:40:00 12.6 C 10.29 g/m*3 12.6 C 4.8 km/h
1258 17-12-2015 08:45:00 12.6 C 10.29 g/m*3 12.6 C 4.8 km/h
1259 17-12-2015 08:50:00 12.6 C 10.4 g/m*3 12.6 C 1.6 km/h
1260 17-12-2015 08:55:00 12.5 C 10.22 g/m*3 12.5 C 3.2 km/h
1261 17-12-2015 09:00:00 12.5 C 10.33 g/m*3 12.5 C 9.7 km/h
1262 17-12-2015 09:05:00 12.6 C 10.4 g/m*3 12.6 C 4.8 km/h
1263 17-12-2015 09:10:00 12.6 C 10.4 g/m*3 12.6 C 3.2 km/h
1264 17-12-2015 09:15:00 12.6 C 10.4 g/m*3 12.6 C 1.6 km/h
1265 17-12-2015 09:20:00 12.6 C 10.4 g/m*3 12.6 C 3.2 km/h
1266 17-12-2015 09:25:00 12.7 C 10.46 g/m*3 12.7 C 3.2 km/h
1267 17-12-2015 09:30:00 12.7 C 10.46 g/m*3 12.7 C 0 km/h
1268 17-12-2015 09:35:00 12.8 C 10.53 g/m*3 12.8 C 0 km/h
1269 17-12-2015 09:40:00 12.8 C 10.53 g/m*3 12.8 C 3.2 km/h
1270 17-12-2015 09:45:00 12.8 C 10.53 g/m*3 12.8 C 9.7 km/h
1271 17-12-2015 09:50:00 12.9 C 10.59 g/m*3 12.9 C 3.2 km/h
1272 17-12-2015 09:55:00 12.9 C 10.59 g/m*3 12.9 C 1.6 km/h
1273 17-12-2015 10:00:00 12.9 C 10.59 g/m*3 12.9 C 1.6 km/h
1274 17-12-2015 10:05:00 12.9 C 10.71 g/m*3 12.9 C 6.4 km/h
1275 17-12-2015 10:10:00 12.9 C 10.71 g/m*3 12.9 C 9.7 km/h
Sensor: Nr:Datum:Temp:Abs-Feuchte:Windchill:Wind:
Aussen-T/F 1276 17-12-2015 10:15:00 12.9 C 10.71 g/m*3 12.9 C 3.2 km/h
1277 17-12-2015 10:20:00 13 C 10.77 g/m*3 13 C 8.1 km/h
1278 17-12-2015 10:25:00 13.1 C 10.84 g/m*3 13.1 C 9.7 km/h
1279 17-12-2015 10:30:00 13.1 C 10.84 g/m*3 13.1 C 6.4 km/h
1280 17-12-2015 10:35:00 13.2 C 10.91 g/m*3 13.2 C 4.8 km/h
1281 17-12-2015 10:40:00 13.2 C 10.79 g/m*3 13.2 C 9.7 km/h
1282 17-12-2015 10:45:00 13.2 C 10.79 g/m*3 13.2 C 4.8 km/h
1283 17-12-2015 10:50:00 13.3 C 10.86 g/m*3 13.3 C 11.3 km/h
1284 17-12-2015 10:55:00 13.4 C 10.93 g/m*3 13.4 C 8.1 km/h
1285 17-12-2015 11:00:00 13.4 C 10.93 g/m*3 13.4 C 3.2 km/h
1286 17-12-2015 11:05:00 13.5 C 10.99 g/m*3 13.5 C 0 km/h
1287 17-12-2015 11:10:00 13.6 C 11.06 g/m*3 13.6 C 0 km/h
1288 17-12-2015 11:15:00 13.6 C 11.06 g/m*3 13.6 C 0 km/h
1289 17-12-2015 11:20:00 13.6 C 11.18 g/m*3 13.6 C 1.6 km/h
1290 17-12-2015 11:25:00 13.5 C 10.99 g/m*3 13.5 C 4.8 km/h
1291 17-12-2015 11:30:00 13.5 C 11.11 g/m*3 13.5 C 8.1 km/h
1292 17-12-2015 11:35:00 13.5 C 10.99 g/m*3 13.5 C 4.8 km/h
1293 17-12-2015 11:40:00 13.6 C 11.06 g/m*3 13.6 C 6.4 km/h
1294 17-12-2015 11:45:00 13.6 C 11.06 g/m*3 13.6 C 4.8 km/h
1295 17-12-2015 11:50:00 13.7 C 11.01 g/m*3 13.7 C 4.8 km/h
1296 17-12-2015 11:55:00 13.7 C 11.13 g/m*3 13.7 C 4.8 km/h
1297 17-12-2015 12:00:00 13.8 C 11.08 g/m*3 13.8 C 8.1 km/h
1298 17-12-2015 12:05:00 13.8 C 11.08 g/m*3 13.8 C 6.4 km/h
1299 17-12-2015 12:10:00 13.8 C 11.08 g/m*3 13.8 C 12.9 km/h
1300 17-12-2015 12:15:00 13.9 C 11.15 g/m*3 13.9 C 6.4 km/h
Sensor: Nr:Datum:Temp:Abs-Feuchte:Windchill:Wind:
Aussen-T/F 1301 17-12-2015 12:20:00 14 C 11.1 g/m*3 14 C 8.1 km/h
1302 17-12-2015 12:25:00 14.1 C 11.17 g/m*3 14.1 C 4.8 km/h
1303 17-12-2015 12:30:00 14.1 C 11.17 g/m*3 14.1 C 9.7 km/h
1304 17-12-2015 12:35:00 14.2 C 11.23 g/m*3 14.2 C 8.1 km/h
1305 17-12-2015 12:40:00 14.2 C 11.23 g/m*3 14.2 C 4.8 km/h
1306 17-12-2015 12:45:00 14.3 C 11.3 g/m*3 14.3 C 8.1 km/h
1307 17-12-2015 12:50:00 14.3 C 11.3 g/m*3 14.3 C 6.4 km/h
1308 17-12-2015 12:55:00 14.2 C 11.23 g/m*3 14.2 C 8.1 km/h
1309 17-12-2015 13:00:00 14.2 C 11.23 g/m*3 14.2 C 16.1 km/h
1310 17-12-2015 13:05:00 14.2 C 11.36 g/m*3 14.2 C 16.1 km/h
1311 17-12-2015 13:10:00 14.1 C 11.29 g/m*3 14.1 C 11.3 km/h
1312 17-12-2015 13:15:00 14.1 C 11.17 g/m*3 14.1 C 9.7 km/h
1313 17-12-2015 13:20:00 14.2 C 11.36 g/m*3 14.2 C 4.8 km/h
1314 17-12-2015 13:25:00 14.2 C 11.23 g/m*3 14.2 C 6.4 km/h
1315 17-12-2015 13:30:00 14.2 C 11.23 g/m*3 14.2 C 8.1 km/h
1316 17-12-2015 13:35:00 14.2 C 11.23 g/m*3 14.2 C 8.1 km/h
1317 17-12-2015 13:40:00 14.2 C 11.23 g/m*3 14.2 C 4.8 km/h
1318 17-12-2015 13:45:00 14.2 C 11.23 g/m*3 14.2 C 6.4 km/h
1319 17-12-2015 13:50:00 14.2 C 11.23 g/m*3 14.2 C 4.8 km/h
1320 17-12-2015 13:55:00 14.2 C 11.23 g/m*3 14.2 C 8.1 km/h
1321 17-12-2015 14:00:00 14.2 C 11.23 g/m*3 14.2 C 8.1 km/h
1322 17-12-2015 14:05:00 14.2 C 11.23 g/m*3 14.2 C 4.8 km/h
1323 17-12-2015 14:10:00 14.3 C 11.3 g/m*3 14.3 C 4.8 km/h
1324 17-12-2015 14:15:00 14.3 C 11.18 g/m*3 14.3 C 9.7 km/h
1325 17-12-2015 14:20:00 14.3 C 11.18 g/m*3 14.3 C 8.1 km/h
Sensor: Nr:Datum:Temp:Abs-Feuchte:Windchill:Wind:
Aussen-T/F 1326 17-12-2015 14:25:00 14.3 C 11.18 g/m*3 14.3 C 6.4 km/h
1327 17-12-2015 14:30:00 14.3 C 11.18 g/m*3 14.3 C 8.1 km/h
1328 17-12-2015 14:35:00 14.4 C 11.25 g/m*3 14.4 C 9.7 km/h
1329 17-12-2015 14:40:00 14.4 C 11.13 g/m*3 14.4 C 8.1 km/h
1330 17-12-2015 14:45:00 14.4 C 11.13 g/m*3 14.4 C 14.5 km/h
1331 17-12-2015 14:50:00 14.4 C 11.13 g/m*3 14.4 C 3.2 km/h
1332 17-12-2015 14:55:00 14.4 C 11.13 g/m*3 14.4 C 3.2 km/h
1333 17-12-2015 15:00:00 14.4 C 11.13 g/m*3 14.4 C 3.2 km/h
1334 17-12-2015 15:05:00 14.3 C 11.06 g/m*3 14.3 C 8.1 km/h
1335 17-12-2015 15:10:00 14.3 C 11.06 g/m*3 14.3 C 1.6 km/h
1336 17-12-2015 15:15:00 14.2 C 10.99 g/m*3 14.2 C 1.6 km/h
1337 17-12-2015 15:20:00 14.2 C 10.99 g/m*3 14.2 C 6.4 km/h
1338 17-12-2015 15:25:00 14.1 C 10.92 g/m*3 14.1 C 3.2 km/h
1339 17-12-2015 15:30:00 14.1 C 10.92 g/m*3 14.1 C 1.6 km/h
1340 17-12-2015 15:35:00 13.9 C 10.91 g/m*3 13.9 C 1.6 km/h
1341 17-12-2015 15:40:00 13.8 C 10.84 g/m*3 13.8 C 1.6 km/h
1342 17-12-2015 15:45:00 13.6 C 10.71 g/m*3 13.6 C 1.6 km/h
1343 17-12-2015 15:50:00 13.4 C 10.58 g/m*3 13.4 C 0 km/h
1344 17-12-2015 15:55:00 13.3 C 10.63 g/m*3 13.3 C 3.2 km/h
1345 17-12-2015 16:00:00 13.2 C 10.56 g/m*3 13.2 C 1.6 km/h
1346 17-12-2015 16:05:00 13.1 C 10.5 g/m*3 13.1 C 3.2 km/h
1347 17-12-2015 16:10:00 12.9 C 10.48 g/m*3 12.9 C 1.6 km/h
1348 17-12-2015 16:15:00 12.8 C 10.3 g/m*3 12.8 C 1.6 km/h
1349 17-12-2015 16:20:00 12.6 C 10.29 g/m*3 12.6 C 4.8 km/h
1350 17-12-2015 16:25:00 12.4 C 10.16 g/m*3 12.4 C 4.8 km/h
Sensor: Nr:Datum:Temp:Abs-Feuchte:Windchill:Wind:
Aussen-T/F 1351 17-12-2015 16:30:00 12.3 C 10.1 g/m*3 12.3 C 4.8 km/h
1352 17-12-2015 16:35:00 12.2 C 10.04 g/m*3 12.2 C 3.2 km/h
1353 17-12-2015 16:40:00 12.1 C 10.08 g/m*3 12.1 C 4.8 km/h
1354 17-12-2015 16:45:00 12 C 10.02 g/m*3 12 C 3.2 km/h
1355 17-12-2015 16:50:00 11.9 C 9.96 g/m*3 11.9 C 4.8 km/h
1356 17-12-2015 16:55:00 11.9 C 10.06 g/m*3 11.9 C 4.8 km/h
1357 17-12-2015 17:00:00 11.9 C 10.06 g/m*3 11.9 C 1.6 km/h
1358 17-12-2015 17:05:00 11.9 C 10.06 g/m*3 11.9 C 3.2 km/h
1359 17-12-2015 17:10:00 11.9 C 10.06 g/m*3 11.9 C 3.2 km/h
1360 17-12-2015 17:15:00 11.8 C 10 g/m*3 11.8 C 3.2 km/h
1361 17-12-2015 17:20:00 11.8 C 10 g/m*3 11.8 C 4.8 km/h
1362 17-12-2015 17:25:00 11.8 C 10 g/m*3 11.8 C 3.2 km/h
1363 17-12-2015 17:30:00 11.8 C 10 g/m*3 11.8 C 3.2 km/h
1364 17-12-2015 17:35:00 11.7 C 9.94 g/m*3 11.7 C 3.2 km/h
1365 17-12-2015 17:40:00 11.7 C 9.94 g/m*3 11.7 C 0 km/h
1366 17-12-2015 17:45:00 11.7 C 9.94 g/m*3 11.7 C 0 km/h
1367 17-12-2015 17:50:00 11.6 C 9.87 g/m*3 11.6 C 3.2 km/h
1368 17-12-2015 17:55:00 11.5 C 9.92 g/m*3 11.5 C 3.2 km/h
1369 17-12-2015 18:00:00 11.4 C 9.75 g/m*3 11.4 C 1.6 km/h
1370 17-12-2015 18:05:00 11.4 C 9.75 g/m*3 11.4 C 1.6 km/h
1371 17-12-2015 18:10:00 11.4 C 9.85 g/m*3 11.4 C 1.6 km/h
1372 17-12-2015 18:15:00 11.4 C 9.85 g/m*3 11.4 C 3.2 km/h
1373 17-12-2015 18:20:00 11.4 C 9.85 g/m*3 11.4 C 0 km/h
1374 17-12-2015 18:25:00 11.5 C 9.92 g/m*3 11.5 C 1.6 km/h
1375 17-12-2015 18:30:00 11.5 C 9.92 g/m*3 11.5 C 0 km/h
Sensor: Nr:Datum:Temp:Abs-Feuchte:Windchill:Wind:
Aussen-T/F 1376 17-12-2015 18:35:00 11.5 C 9.92 g/m*3 11.5 C 0 km/h
1377 17-12-2015 18:40:00 11.5 C 9.92 g/m*3 11.5 C 0 km/h
1378 17-12-2015 18:45:00 11.4 C 9.85 g/m*3 11.4 C 0 km/h
1379 17-12-2015 18:50:00 11.4 C 9.85 g/m*3 11.4 C 3.2 km/h
1380 17-12-2015 18:55:00 11.4 C 9.85 g/m*3 11.4 C 1.6 km/h
1381 17-12-2015 19:00:00 11.5 C 9.92 g/m*3 11.5 C 1.6 km/h
1382 17-12-2015 19:05:00 11.5 C 9.92 g/m*3 11.5 C 0 km/h
1383 17-12-2015 19:10:00 11.4 C 9.85 g/m*3 11.4 C 0 km/h
1384 17-12-2015 19:15:00 11.4 C 9.85 g/m*3 11.4 C 0 km/h
1385 17-12-2015 19:20:00 11.4 C 9.85 g/m*3 11.4 C 0 km/h
1386 17-12-2015 19:25:00 11.3 C 9.79 g/m*3 11.3 C 0 km/h
1387 17-12-2015 19:30:00 11.2 C 9.73 g/m*3 11.2 C 0 km/h
1388 17-12-2015 19:35:00 11.1 C 9.67 g/m*3 11.1 C 0 km/h
1389 17-12-2015 19:40:00 11.1 C 9.67 g/m*3 11.1 C 0 km/h
1390 17-12-2015 19:45:00 11.2 C 9.73 g/m*3 11.2 C 0 km/h
1391 17-12-2015 19:50:00 11.2 C 9.83 g/m*3 11.2 C 0 km/h
1392 17-12-2015 19:55:00 11.2 C 9.83 g/m*3 11.2 C 0 km/h
1393 17-12-2015 20:00:00 11.2 C 9.83 g/m*3 11.2 C 0 km/h
1394 17-12-2015 20:05:00 11.2 C 9.83 g/m*3 11.2 C 0 km/h
1395 17-12-2015 20:10:00 11.2 C 9.83 g/m*3 11.2 C 0 km/h
1396 17-12-2015 20:55:00 11.2 C 9.83 g/m*3 11.2 C 0 km/h
1397 17-12-2015 21:00:00 10.4 C 9.35 g/m*3 10.4 C 0 km/h
1398 17-12-2015 21:05:00 10.3 C 9.29 g/m*3 10.3 C 0 km/h
1399 17-12-2015 21:10:00 10.3 C 9.29 g/m*3 10.3 C 0 km/h
1400 17-12-2015 21:15:00 10.4 C 9.35 g/m*3 10.4 C 0 km/h
Sensor: Nr:Datum:Temp:Abs-Feuchte:Windchill:Wind:
Aussen-T/F 1401 17-12-2015 23:25:00 10.4 C 9.35 g/m*3 10.4 C 0 km/h
1402 17-12-2015 23:30:00 10.4 C 9.35 g/m*3 10.4 C 0 km/h
1403 17-12-2015 23:35:00 10.4 C 9.35 g/m*3 10.4 C 0 km/h
1404 17-12-2015 23:40:00 10.5 C 9.41 g/m*3 10.5 C 0 km/h
1405 17-12-2015 23:45:00 10.5 C 9.41 g/m*3 10.5 C 0 km/h
1406 17-12-2015 23:50:00 10.5 C 9.41 g/m*3 10.5 C 0 km/h
1407 17-12-2015 23:55:00 10.4 C 9.35 g/m*3 10.4 C 0 km/h
1408 18-12-2015 00:00:00 10.4 C 9.35 g/m*3 10.4 C 0 km/h
1409 18-12-2015 00:05:00 10.4 C 9.35 g/m*3 10.4 C 1.6 km/h
1410 18-12-2015 00:10:00 10.3 C 9.29 g/m*3 10.3 C 0 km/h
1411 18-12-2015 00:15:00 10.3 C 9.29 g/m*3 10.3 C 0 km/h
1412 18-12-2015 00:20:00 10.2 C 9.23 g/m*3 10.2 C 0 km/h
1413 18-12-2015 00:25:00 10.1 C 9.17 g/m*3 10.1 C 0 km/h
1414 18-12-2015 00:30:00 10.1 C 9.17 g/m*3 10.1 C 0 km/h
1415 18-12-2015 00:35:00 10.1 C 9.17 g/m*3 10.1 C 0 km/h
1416 18-12-2015 00:40:00 10.1 C 9.17 g/m*3 10.1 C 0 km/h
1417 18-12-2015 00:45:00 10.1 C 9.17 g/m*3 10.1 C 0 km/h
1418 18-12-2015 00:50:00 10.2 C 9.23 g/m*3 10.2 C 0 km/h
1419 18-12-2015 00:55:00 10.2 C 9.23 g/m*3 10.2 C 1.6 km/h
1420 18-12-2015 01:00:00 10.2 C 9.23 g/m*3 10.2 C 1.6 km/h
1421 18-12-2015 01:05:00 10.2 C 9.23 g/m*3 10.2 C 0 km/h
1422 18-12-2015 01:10:00 10.2 C 9.23 g/m*3 10.2 C 1.6 km/h
1423 18-12-2015 01:15:00 10.3 C 9.29 g/m*3 10.3 C 1.6 km/h
1424 18-12-2015 01:20:00 10.2 C 9.23 g/m*3 10.2 C 0 km/h
1425 18-12-2015 01:25:00 10.2 C 9.23 g/m*3 10.2 C 0 km/h
Sensor: Nr:Datum:Temp:Abs-Feuchte:Windchill:Wind:
Aussen-T/F 1426 18-12-2015 01:30:00 10.2 C 9.23 g/m*3 10.2 C 0 km/h
1427 18-12-2015 01:35:00 10.3 C 9.39 g/m*3 10.3 C 0 km/h
1428 18-12-2015 01:40:00 10.3 C 9.39 g/m*3 10.3 C 1.6 km/h
1429 18-12-2015 01:45:00 10.3 C 9.29 g/m*3 10.3 C 0 km/h
1430 18-12-2015 01:50:00 10.4 C 9.35 g/m*3 10.4 C 1.6 km/h
1431 18-12-2015 01:55:00 10.5 C 9.41 g/m*3 10.5 C 1.6 km/h
1432 18-12-2015 02:00:00 10.5 C 9.41 g/m*3 10.5 C 3.2 km/h
1433 18-12-2015 02:05:00 10.5 C 9.41 g/m*3 10.5 C 3.2 km/h
1434 18-12-2015 02:10:00 10.5 C 9.5 g/m*3 10.5 C 4.8 km/h
1435 18-12-2015 02:15:00 10.5 C 9.5 g/m*3 10.5 C 4.8 km/h
1436 18-12-2015 02:20:00 10.4 C 9.35 g/m*3 10.4 C 0 km/h
1437 18-12-2015 02:25:00 10.4 C 9.35 g/m*3 10.4 C 1.6 km/h
1438 18-12-2015 02:30:00 10.4 C 9.35 g/m*3 10.4 C 3.2 km/h
1439 18-12-2015 02:35:00 10.3 C 9.29 g/m*3 10.3 C 1.6 km/h
1440 18-12-2015 02:40:00 10.2 C 9.23 g/m*3 10.2 C 1.6 km/h
1441 18-12-2015 02:45:00 10.2 C 9.23 g/m*3 10.2 C 0 km/h
1442 18-12-2015 02:50:00 10.2 C 9.33 g/m*3 10.2 C 1.6 km/h
1443 18-12-2015 02:55:00 10.3 C 9.39 g/m*3 10.3 C 3.2 km/h
1444 18-12-2015 03:00:00 10.2 C 9.33 g/m*3 10.2 C 1.6 km/h
1445 18-12-2015 03:05:00 10.2 C 9.33 g/m*3 10.2 C 1.6 km/h
1446 18-12-2015 03:10:00 10.2 C 9.23 g/m*3 10.2 C 1.6 km/h
1447 18-12-2015 03:15:00 10.2 C 9.33 g/m*3 10.2 C 0 km/h
1448 18-12-2015 03:20:00 10.2 C 9.33 g/m*3 10.2 C 0 km/h
1449 18-12-2015 03:25:00 10.1 C 9.17 g/m*3 10.1 C 1.6 km/h
1450 18-12-2015 03:30:00 9.9 C 9.06 g/m*3 9.9 C 0 km/h
Sensor: Nr:Datum:Temp:Abs-Feuchte:Windchill:Wind:
Aussen-T/F 1451 18-12-2015 03:35:00 9.9 C 9.06 g/m*3 9.9 C 1.6 km/h
1452 18-12-2015 03:40:00 10 C 9.11 g/m*3 10 C 0 km/h
1453 18-12-2015 03:45:00 10.1 C 9.17 g/m*3 10.1 C 4.8 km/h
1454 18-12-2015 03:50:00 10.2 C 9.33 g/m*3 10.2 C 0 km/h
1455 18-12-2015 03:55:00 10.1 C 9.17 g/m*3 10.1 C 0 km/h
1456 18-12-2015 04:00:00 10.1 C 9.17 g/m*3 10.1 C 0 km/h
1457 18-12-2015 04:05:00 10.1 C 9.17 g/m*3 10.1 C 1.6 km/h
1458 18-12-2015 04:10:00 10.1 C 9.17 g/m*3 10.1 C 3.2 km/h
1459 18-12-2015 04:15:00 10.2 C 9.23 g/m*3 10.2 C 4.8 km/h
1460 18-12-2015 04:20:00 10.2 C 9.33 g/m*3 9.6 C 6.4 km/h
1461 18-12-2015 04:25:00 10.3 C 9.39 g/m*3 8.78 C 11.3 km/h
1462 18-12-2015 04:30:00 10.3 C 9.39 g/m*3 9.72 C 6.4 km/h
1463 18-12-2015 04:35:00 10.4 C 9.35 g/m*3 9.46 C 8.1 km/h
1464 18-12-2015 04:40:00 10.4 C 9.35 g/m*3 9.46 C 8.1 km/h
1465 18-12-2015 04:45:00 10.5 C 9.41 g/m*3 9.95 C 6.4 km/h
1466 18-12-2015 04:50:00 10.4 C 9.35 g/m*3 10.4 C 4.8 km/h
1467 18-12-2015 04:55:00 10.4 C 9.35 g/m*3 10.4 C 3.2 km/h
1468 18-12-2015 05:00:00 10.4 C 9.35 g/m*3 10.4 C 4.8 km/h
1469 18-12-2015 05:05:00 10.5 C 9.31 g/m*3 10.5 C 3.2 km/h
1470 18-12-2015 05:10:00 10.6 C 9.37 g/m*3 9.69 C 8.1 km/h
1471 18-12-2015 05:15:00 10.7 C 9.43 g/m*3 9.81 C 8.1 km/h
1472 18-12-2015 05:20:00 10.7 C 9.33 g/m*3 9.52 C 9.7 km/h
1473 18-12-2015 05:25:00 10.8 C 9.39 g/m*3 10.29 C 6.4 km/h
1474 18-12-2015 05:30:00 10.9 C 9.35 g/m*3 10.9 C 3.2 km/h
1475 18-12-2015 05:35:00 11 C 9.41 g/m*3 11 C 1.6 km/h
Sensor: Nr:Datum:Temp:Abs-Feuchte:Windchill:Wind:
Aussen-T/F 1476 18-12-2015 05:40:00 11.1 C 9.47 g/m*3 11.1 C 4.8 km/h
1477 18-12-2015 05:45:00 11.1 C 9.47 g/m*3 11.1 C 1.6 km/h
1478 18-12-2015 05:50:00 11.1 C 9.47 g/m*3 11.1 C 3.2 km/h
1479 18-12-2015 05:55:00 11 C 9.41 g/m*3 11 C 3.2 km/h
1480 18-12-2015 06:00:00 10.9 C 9.35 g/m*3 10.41 C 6.4 km/h
1481 18-12-2015 06:05:00 10.9 C 9.35 g/m*3 10.41 C 6.4 km/h
1482 18-12-2015 06:10:00 10.9 C 9.35 g/m*3 10.9 C 4.8 km/h
1483 18-12-2015 06:15:00 10.9 C 9.35 g/m*3 10.9 C 1.6 km/h
1484 18-12-2015 06:20:00 10.9 C 9.35 g/m*3 10.9 C 3.2 km/h
1485 18-12-2015 06:25:00 10.8 C 9.39 g/m*3 10.8 C 4.8 km/h
1486 18-12-2015 06:30:00 10.8 C 9.39 g/m*3 10.8 C 3.2 km/h
1487 18-12-2015 06:35:00 10.8 C 9.39 g/m*3 10.8 C 3.2 km/h
1488 18-12-2015 06:40:00 10.8 C 9.39 g/m*3 10.8 C 3.2 km/h
1489 18-12-2015 06:45:00 10.8 C 9.39 g/m*3 10.8 C 0 km/h
1490 18-12-2015 06:50:00 10.8 C 9.39 g/m*3 10.8 C 0 km/h
1491 18-12-2015 06:55:00 10.8 C 9.39 g/m*3 10.8 C 3.2 km/h
1492 18-12-2015 07:00:00 10.7 C 9.33 g/m*3 10.7 C 1.6 km/h
1493 18-12-2015 07:05:00 10.7 C 9.43 g/m*3 10.7 C 0 km/h
1494 18-12-2015 07:10:00 10.7 C 9.43 g/m*3 10.7 C 0 km/h
1495 18-12-2015 07:15:00 10.7 C 9.43 g/m*3 10.7 C 1.6 km/h
1496 18-12-2015 07:20:00 10.6 C 9.37 g/m*3 10.6 C 3.2 km/h
1497 18-12-2015 07:25:00 10.6 C 9.37 g/m*3 10.6 C 1.6 km/h
1498 18-12-2015 07:30:00 10.6 C 9.37 g/m*3 10.6 C 1.6 km/h
1499 18-12-2015 07:35:00 10.6 C 9.37 g/m*3 10.6 C 1.6 km/h
1500 18-12-2015 07:40:00 10.5 C 9.31 g/m*3 10.5 C 1.6 km/h
Sensor: Nr:Datum:Temp:Abs-Feuchte:Windchill:Wind:
Aussen-T/F 1501 18-12-2015 07:45:00 10.4 C 9.25 g/m*3 10.4 C 3.2 km/h
1502 18-12-2015 07:50:00 10.5 C 9.31 g/m*3 10.5 C 3.2 km/h
1503 18-12-2015 07:55:00 10.6 C 9.37 g/m*3 10.6 C 4.8 km/h
1504 18-12-2015 08:00:00 10.6 C 9.37 g/m*3 10.6 C 4.8 km/h
1505 18-12-2015 08:05:00 10.6 C 9.37 g/m*3 10.06 C 6.4 km/h
1506 18-12-2015 08:10:00 10.7 C 9.43 g/m*3 9.52 C 9.7 km/h
1507 18-12-2015 08:15:00 10.7 C 9.43 g/m*3 10.18 C 6.4 km/h
1508 18-12-2015 08:20:00 10.7 C 9.43 g/m*3 10.7 C 4.8 km/h
1509 18-12-2015 08:25:00 10.7 C 9.43 g/m*3 10.7 C 3.2 km/h
1510 18-12-2015 08:30:00 10.7 C 9.43 g/m*3 9.81 C 8.1 km/h
1511 18-12-2015 08:35:00 10.7 C 9.43 g/m*3 10.7 C 1.6 km/h
1512 18-12-2015 08:40:00 10.7 C 9.43 g/m*3 10.7 C 3.2 km/h
1513 18-12-2015 08:45:00 10.6 C 9.37 g/m*3 10.6 C 1.6 km/h
1514 18-12-2015 08:50:00 10.6 C 9.37 g/m*3 10.6 C 4.8 km/h
1515 18-12-2015 08:55:00 10.6 C 9.37 g/m*3 10.6 C 3.2 km/h
1516 18-12-2015 09:00:00 10.6 C 9.37 g/m*3 10.6 C 4.8 km/h
1517 18-12-2015 09:05:00 10.7 C 9.43 g/m*3 9.52 C 9.7 km/h
1518 18-12-2015 09:10:00 10.7 C 9.43 g/m*3 10.7 C 3.2 km/h
1519 18-12-2015 09:15:00 10.8 C 9.49 g/m*3 10.8 C 4.8 km/h
1520 18-12-2015 09:20:00 10.8 C 9.49 g/m*3 10.8 C 4.8 km/h
1521 18-12-2015 09:25:00 10.8 C 9.49 g/m*3 10.8 C 4.8 km/h
1522 18-12-2015 09:30:00 10.8 C 9.49 g/m*3 10.29 C 6.4 km/h
1523 18-12-2015 09:35:00 10.9 C 9.55 g/m*3 10.9 C 4.8 km/h
1524 18-12-2015 09:40:00 10.9 C 9.55 g/m*3 10.9 C 4.8 km/h
1525 18-12-2015 09:45:00 11 C 9.61 g/m*3 10.52 C 6.4 km/h
Sensor: Nr:Datum:Temp:Abs-Feuchte:Windchill:Wind:
Aussen-T/F 1526 18-12-2015 09:50:00 11 C 9.61 g/m*3 10.52 C 6.4 km/h
1527 18-12-2015 09:55:00 11.1 C 9.67 g/m*3 11.1 C 8.1 km/h
1528 18-12-2015 10:00:00 11.1 C 9.57 g/m*3 11.1 C 3.2 km/h
1529 18-12-2015 10:05:00 11.2 C 9.73 g/m*3 11.2 C 3.2 km/h
1530 18-12-2015 10:10:00 11.2 C 9.63 g/m*3 11.2 C 8.1 km/h
1531 18-12-2015 10:15:00 11.3 C 9.69 g/m*3 11.3 C 3.2 km/h
1532 18-12-2015 10:20:00 11.3 C 9.69 g/m*3 11.3 C 8.1 km/h
1533 18-12-2015 10:25:00 11.3 C 9.69 g/m*3 11.3 C 4.8 km/h
1534 18-12-2015 10:30:00 11.4 C 9.75 g/m*3 11.4 C 3.2 km/h
1535 18-12-2015 10:35:00 11.4 C 9.75 g/m*3 11.4 C 0 km/h
1536 18-12-2015 10:40:00 11.3 C 9.69 g/m*3 11.3 C 4.8 km/h
1537 18-12-2015 10:45:00 11.3 C 9.69 g/m*3 11.3 C 3.2 km/h
1538 18-12-2015 10:50:00 11.3 C 9.69 g/m*3 11.3 C 1.6 km/h
1539 18-12-2015 10:55:00 11.3 C 9.59 g/m*3 11.3 C 6.4 km/h
1540 18-12-2015 11:00:00 11.2 C 9.53 g/m*3 11.2 C 6.4 km/h
1541 18-12-2015 11:05:00 11.2 C 9.53 g/m*3 11.2 C 6.4 km/h
1542 18-12-2015 11:10:00 11.2 C 9.63 g/m*3 11.2 C 9.7 km/h
1543 18-12-2015 11:15:00 11.2 C 9.63 g/m*3 11.2 C 3.2 km/h
1544 18-12-2015 11:20:00 11.2 C 9.63 g/m*3 11.2 C 3.2 km/h
1545 18-12-2015 11:25:00 11.2 C 9.53 g/m*3 11.2 C 4.8 km/h
1546 18-12-2015 11:30:00 11.2 C 9.63 g/m*3 11.2 C 4.8 km/h
1547 18-12-2015 11:35:00 11.3 C 9.69 g/m*3 11.3 C 9.7 km/h
1548 18-12-2015 11:40:00 11.4 C 9.75 g/m*3 11.4 C 4.8 km/h
1549 18-12-2015 11:45:00 11.6 C 9.77 g/m*3 11.6 C 12.9 km/h
1550 18-12-2015 11:50:00 11.8 C 9.89 g/m*3 11.8 C 8.1 km/h
Sensor: Nr:Datum:Temp:Abs-Feuchte:Windchill:Wind:
Aussen-T/F 1551 18-12-2015 11:55:00 11.8 C 9.79 g/m*3 11.8 C 11.3 km/h
1552 18-12-2015 12:00:00 11.9 C 9.85 g/m*3 11.9 C 6.4 km/h
1553 18-12-2015 12:05:00 12 C 9.8 g/m*3 12 C 9.7 km/h
1554 18-12-2015 12:10:00 12.2 C 9.93 g/m*3 12.2 C 8.1 km/h
1555 18-12-2015 12:15:00 12.2 C 9.82 g/m*3 12.2 C 9.7 km/h
1556 18-12-2015 12:20:00 12.2 C 9.93 g/m*3 12.2 C 4.8 km/h
1557 18-12-2015 12:25:00 12.3 C 9.88 g/m*3 12.3 C 4.8 km/h
1558 18-12-2015 12:30:00 12.3 C 9.88 g/m*3 12.3 C 4.8 km/h
1559 18-12-2015 12:35:00 12.3 C 9.77 g/m*3 12.3 C 8.1 km/h
1560 18-12-2015 12:40:00 12.4 C 9.83 g/m*3 12.4 C 8.1 km/h
1561 18-12-2015 12:45:00 12.4 C 9.83 g/m*3 12.4 C 4.8 km/h
1562 18-12-2015 12:50:00 12.4 C 9.83 g/m*3 12.4 C 6.4 km/h
1563 18-12-2015 12:55:00 12.4 C 9.94 g/m*3 12.4 C 1.6 km/h
1564 18-12-2015 13:00:00 12.3 C 9.77 g/m*3 12.3 C 8.1 km/h
1565 18-12-2015 13:05:00 12.2 C 9.6 g/m*3 12.2 C 6.4 km/h
1566 18-12-2015 13:10:00 12.3 C 9.66 g/m*3 12.3 C 9.7 km/h
1567 18-12-2015 13:15:00 12.4 C 9.62 g/m*3 12.4 C 8.1 km/h
1568 18-12-2015 13:20:00 12.6 C 9.62 g/m*3 12.6 C 8.1 km/h
1569 18-12-2015 13:25:00 12.7 C 9.8 g/m*3 12.7 C 6.4 km/h
1570 18-12-2015 13:30:00 12.8 C 9.63 g/m*3 12.8 C 14.5 km/h
1571 18-12-2015 13:35:00 12.9 C 9.69 g/m*3 12.9 C 14.5 km/h
1572 18-12-2015 13:40:00 12.9 C 9.58 g/m*3 12.9 C 6.4 km/h
1573 18-12-2015 13:45:00 12.9 C 9.47 g/m*3 12.9 C 6.4 km/h
1574 18-12-2015 13:50:00 13 C 9.64 g/m*3 13 C 4.8 km/h
1575 18-12-2015 13:55:00 13 C 9.64 g/m*3 13 C 3.2 km/h
Sensor: Nr:Datum:Temp:Abs-Feuchte:Windchill:Wind:
Aussen-T/F 1576 18-12-2015 14:00:00 13 C 9.53 g/m*3 13 C 4.8 km/h
1577 18-12-2015 14:05:00 13 C 9.64 g/m*3 13 C 6.4 km/h
1578 18-12-2015 14:10:00 12.9 C 9.58 g/m*3 12.9 C 4.8 km/h
1579 18-12-2015 14:15:00 12.9 C 9.58 g/m*3 12.9 C 4.8 km/h
1580 18-12-2015 14:20:00 12.9 C 9.58 g/m*3 12.9 C 3.2 km/h
1581 18-12-2015 14:25:00 12.9 C 9.69 g/m*3 12.9 C 6.4 km/h
1582 18-12-2015 14:30:00 13 C 9.75 g/m*3 13 C 8.1 km/h
1583 18-12-2015 14:35:00 13 C 9.75 g/m*3 13 C 1.6 km/h
1584 18-12-2015 14:40:00 13 C 9.87 g/m*3 13 C 4.8 km/h
1585 18-12-2015 14:45:00 13 C 9.87 g/m*3 13 C 3.2 km/h
1586 18-12-2015 14:50:00 13 C 9.87 g/m*3 13 C 3.2 km/h
1587 18-12-2015 14:55:00 12.9 C 9.81 g/m*3 12.9 C 1.6 km/h
1588 18-12-2015 15:00:00 12.9 C 9.81 g/m*3 12.9 C 3.2 km/h
1589 18-12-2015 15:05:00 12.9 C 9.81 g/m*3 12.9 C 4.8 km/h
1590 18-12-2015 15:10:00 12.9 C 9.81 g/m*3 12.9 C 6.4 km/h
1591 18-12-2015 15:15:00 12.9 C 9.81 g/m*3 12.9 C 4.8 km/h
1592 18-12-2015 15:20:00 13 C 9.87 g/m*3 13 C 3.2 km/h
1593 18-12-2015 15:25:00 13 C 9.87 g/m*3 13 C 3.2 km/h
1594 18-12-2015 15:30:00 13 C 9.87 g/m*3 13 C 9.7 km/h
1595 18-12-2015 15:35:00 12.9 C 9.81 g/m*3 12.9 C 6.4 km/h
1596 18-12-2015 15:40:00 12.9 C 9.92 g/m*3 12.9 C 3.2 km/h
1597 18-12-2015 15:45:00 12.9 C 9.92 g/m*3 12.9 C 6.4 km/h
1598 18-12-2015 15:50:00 12.8 C 9.86 g/m*3 12.8 C 4.8 km/h
1599 18-12-2015 15:55:00 12.8 C 9.86 g/m*3 12.8 C 0 km/h
1600 18-12-2015 16:00:00 12.6 C 9.74 g/m*3 12.6 C 0 km/h
Sensor: Nr:Datum:Temp:Abs-Feuchte:Windchill:Wind:
Aussen-T/F 1601 18-12-2015 16:05:00 12.6 C 9.85 g/m*3 12.6 C 0 km/h
1602 18-12-2015 16:10:00 12.4 C 9.83 g/m*3 12.4 C 0 km/h
1603 18-12-2015 16:15:00 12.3 C 9.77 g/m*3 12.3 C 1.6 km/h
1604 18-12-2015 16:20:00 12.3 C 9.77 g/m*3 12.3 C 0 km/h
1605 18-12-2015 16:25:00 12.2 C 9.71 g/m*3 12.2 C 0 km/h
1606 18-12-2015 16:30:00 12.1 C 9.76 g/m*3 12.1 C 0 km/h
1607 18-12-2015 16:35:00 12.1 C 9.76 g/m*3 12.1 C 1.6 km/h
1608 18-12-2015 16:40:00 12 C 9.7 g/m*3 12 C 0 km/h
1609 18-12-2015 16:45:00 11.9 C 9.64 g/m*3 11.9 C 0 km/h
1610 18-12-2015 16:50:00 11.9 C 9.64 g/m*3 11.9 C 0 km/h
1611 18-12-2015 16:55:00 11.8 C 9.68 g/m*3 11.8 C 1.6 km/h
1612 18-12-2015 17:00:00 11.8 C 9.68 g/m*3 11.8 C 1.6 km/h
1613 18-12-2015 17:05:00 11.8 C 9.68 g/m*3 11.8 C 0 km/h
1614 18-12-2015 17:10:00 11.8 C 9.68 g/m*3 11.8 C 1.6 km/h
1615 18-12-2015 17:15:00 11.7 C 9.62 g/m*3 11.7 C 0 km/h
1616 18-12-2015 17:20:00 11.7 C 9.62 g/m*3 11.7 C 1.6 km/h
1617 18-12-2015 17:25:00 11.7 C 9.62 g/m*3 11.7 C 0 km/h
1618 18-12-2015 17:30:00 11.7 C 9.62 g/m*3 11.7 C 0 km/h
1619 18-12-2015 17:35:00 11.6 C 9.56 g/m*3 11.6 C 0 km/h
1620 18-12-2015 17:40:00 11.6 C 9.67 g/m*3 11.6 C 0 km/h
1621 18-12-2015 17:45:00 11.6 C 9.67 g/m*3 11.6 C 1.6 km/h
1622 18-12-2015 17:50:00 11.6 C 9.67 g/m*3 11.6 C 0 km/h
1623 18-12-2015 17:55:00 11.5 C 9.61 g/m*3 11.5 C 1.6 km/h
1624 18-12-2015 18:00:00 11.5 C 9.61 g/m*3 11.5 C 0 km/h
1625 18-12-2015 18:05:00 11.4 C 9.55 g/m*3 11.4 C 1.6 km/h
Sensor: Nr:Datum:Temp:Abs-Feuchte:Windchill:Wind:
Aussen-T/F 1626 18-12-2015 18:10:00 11.4 C 9.55 g/m*3 11.4 C 0 km/h
1627 18-12-2015 18:15:00 11.4 C 9.55 g/m*3 11.4 C 0 km/h
1628 18-12-2015 18:20:00 11.4 C 9.55 g/m*3 11.4 C 0 km/h
1629 18-12-2015 18:25:00 11.3 C 9.59 g/m*3 11.3 C 0 km/h
1630 18-12-2015 18:30:00 11.3 C 9.59 g/m*3 11.3 C 0 km/h
1631 18-12-2015 18:35:00 11.3 C 9.59 g/m*3 11.3 C 0 km/h
1632 18-12-2015 18:40:00 11.3 C 9.59 g/m*3 11.3 C 0 km/h
1633 18-12-2015 18:45:00 11.3 C 9.59 g/m*3 11.3 C 0 km/h
1634 18-12-2015 18:50:00 11.3 C 9.59 g/m*3 11.3 C 0 km/h
1635 18-12-2015 18:55:00 11.2 C 9.53 g/m*3 11.2 C 0 km/h
1636 18-12-2015 19:00:00 11.2 C 9.53 g/m*3 11.2 C 0 km/h
1637 18-12-2015 19:05:00 11.2 C 9.53 g/m*3 11.2 C 0 km/h
1638 18-12-2015 19:10:00 11.2 C 9.53 g/m*3 11.2 C 0 km/h
1639 18-12-2015 19:15:00 11.2 C 9.53 g/m*3 11.2 C 0 km/h
1640 18-12-2015 19:20:00 11.2 C 9.53 g/m*3 11.2 C 0 km/h
1641 18-12-2015 19:25:00 11.2 C 9.53 g/m*3 11.2 C 0 km/h
1642 18-12-2015 19:30:00 11.2 C 9.53 g/m*3 11.2 C 0 km/h
1643 18-12-2015 19:35:00 11.2 C 9.53 g/m*3 11.2 C 0 km/h
1644 18-12-2015 19:40:00 11.1 C 9.47 g/m*3 11.1 C 0 km/h
1645 18-12-2015 19:45:00 11.2 C 9.53 g/m*3 11.2 C 0 km/h
1646 18-12-2015 19:50:00 11.2 C 9.63 g/m*3 11.2 C 0 km/h
1647 18-12-2015 19:55:00 11.2 C 9.63 g/m*3 11.2 C 0 km/h
1648 18-12-2015 20:00:00 11.1 C 9.47 g/m*3 11.1 C 1.6 km/h
1649 18-12-2015 20:05:00 11.1 C 9.57 g/m*3 11.1 C 0 km/h
1650 18-12-2015 20:10:00 11.1 C 9.57 g/m*3 11.1 C 0 km/h
Sensor: Nr:Datum:Temp:Abs-Feuchte:Windchill:Wind:
Aussen-T/F 1651 18-12-2015 20:15:00 11.1 C 9.57 g/m*3 11.1 C 0 km/h
1652 18-12-2015 20:20:00 11.1 C 9.57 g/m*3 11.1 C 0 km/h
1653 18-12-2015 20:25:00 11.1 C 9.57 g/m*3 11.1 C 0 km/h
1654 18-12-2015 20:30:00 11.1 C 9.57 g/m*3 11.1 C 0 km/h
1655 18-12-2015 20:35:00 11.1 C 9.57 g/m*3 11.1 C 0 km/h
1656 18-12-2015 20:40:00 11 C 9.51 g/m*3 11 C 0 km/h
1657 18-12-2015 20:45:00 11 C 9.51 g/m*3 11 C 1.6 km/h
1658 18-12-2015 20:50:00 10.9 C 9.45 g/m*3 10.9 C 1.6 km/h
1659 18-12-2015 20:55:00 10.9 C 9.45 g/m*3 10.9 C 1.6 km/h
1660 18-12-2015 21:00:00 10.9 C 9.45 g/m*3 10.9 C 0 km/h
1661 18-12-2015 21:05:00 10.9 C 9.35 g/m*3 10.9 C 4.8 km/h
1662 18-12-2015 21:10:00 11 C 9.41 g/m*3 11 C 1.6 km/h
1663 18-12-2015 21:15:00 11 C 9.41 g/m*3 11 C 0 km/h
1664 18-12-2015 21:20:00 11.1 C 9.47 g/m*3 11.1 C 0 km/h
1665 18-12-2015 21:25:00 11 C 9.41 g/m*3 11 C 1.6 km/h
1666 18-12-2015 21:30:00 10.9 C 9.35 g/m*3 10.9 C 3.2 km/h
1667 18-12-2015 21:35:00 10.9 C 9.35 g/m*3 10.9 C 0 km/h
1668 18-12-2015 21:40:00 10.9 C 9.35 g/m*3 10.9 C 0 km/h
1669 18-12-2015 21:45:00 10.9 C 9.35 g/m*3 10.9 C 0 km/h
1670 18-12-2015 21:50:00 10.9 C 9.35 g/m*3 10.9 C 3.2 km/h
1671 18-12-2015 21:55:00 10.9 C 9.35 g/m*3 10.9 C 0 km/h
1672 18-12-2015 22:00:00 10.9 C 9.35 g/m*3 10.9 C 0 km/h
1673 18-12-2015 22:05:00 10.9 C 9.35 g/m*3 10.9 C 3.2 km/h
1674 18-12-2015 22:10:00 10.8 C 9.29 g/m*3 10.8 C 3.2 km/h
1675 18-12-2015 22:15:00 10.8 C 9.29 g/m*3 10.8 C 0 km/h
Sensor: Nr:Datum:Temp:Abs-Feuchte:Windchill:Wind:
Aussen-T/F 1676 18-12-2015 22:20:00 10.8 C 9.29 g/m*3 10.8 C 0 km/h
1677 18-12-2015 22:25:00 10.8 C 9.29 g/m*3 10.8 C 0 km/h
1678 18-12-2015 22:30:00 10.7 C 9.23 g/m*3 10.7 C 1.6 km/h
1679 18-12-2015 22:35:00 10.7 C 9.23 g/m*3 10.7 C 1.6 km/h
1680 18-12-2015 22:40:00 10.6 C 9.17 g/m*3 10.6 C 3.2 km/h
1681 18-12-2015 22:45:00 10.6 C 9.17 g/m*3 10.6 C 0 km/h
1682 18-12-2015 22:50:00 10.5 C 9.12 g/m*3 10.5 C 0 km/h
1683 18-12-2015 22:55:00 10.5 C 9.12 g/m*3 10.5 C 1.6 km/h
1684 18-12-2015 23:00:00 10.6 C 9.17 g/m*3 10.6 C 0 km/h
1685 18-12-2015 23:05:00 10.6 C 9.17 g/m*3 10.6 C 1.6 km/h
1686 18-12-2015 23:10:00 10.6 C 9.27 g/m*3 10.6 C 0 km/h
1687 18-12-2015 23:15:00 10.6 C 9.27 g/m*3 10.6 C 0 km/h
1688 18-12-2015 23:20:00 10.6 C 9.27 g/m*3 10.6 C 1.6 km/h
1689 18-12-2015 23:25:00 10.7 C 9.33 g/m*3 10.7 C 0 km/h
1690 18-12-2015 23:30:00 10.7 C 9.33 g/m*3 10.7 C 0 km/h
1691 18-12-2015 23:35:00 10.6 C 9.27 g/m*3 10.6 C 1.6 km/h
1692 18-12-2015 23:40:00 10.6 C 9.27 g/m*3 10.6 C 0 km/h
1693 18-12-2015 23:45:00 10.7 C 9.33 g/m*3 10.7 C 0 km/h
1694 18-12-2015 23:50:00 10.7 C 9.33 g/m*3 10.7 C 0 km/h
1695 18-12-2015 23:55:00 10.7 C 9.33 g/m*3 10.7 C 0 km/h
1696 19-12-2015 00:00:00 10.8 C 9.39 g/m*3 10.8 C 0 km/h
1697 19-12-2015 00:05:00 10.8 C 9.29 g/m*3 10.8 C 0 km/h
1698 19-12-2015 00:10:00 10.8 C 9.29 g/m*3 10.8 C 0 km/h
1699 19-12-2015 00:15:00 10.9 C 9.35 g/m*3 10.9 C 0 km/h
1700 19-12-2015 00:20:00 10.9 C 9.35 g/m*3 10.9 C 0 km/h
Sensor: Nr:Datum:Temp:Abs-Feuchte:Windchill:Wind:
Aussen-T/F 1701 19-12-2015 00:25:00 10.9 C 9.35 g/m*3 10.9 C 1.6 km/h
1702 19-12-2015 00:30:00 10.9 C 9.35 g/m*3 10.9 C 4.8 km/h
1703 19-12-2015 00:35:00 11 C 9.41 g/m*3 10.52 C 6.4 km/h
1704 19-12-2015 00:40:00 11 C 9.41 g/m*3 11 C 4.8 km/h
1705 19-12-2015 00:45:00 11.1 C 9.47 g/m*3 11.1 C 3.2 km/h
1706 19-12-2015 00:50:00 11.1 C 9.47 g/m*3 11.1 C 0 km/h
1707 19-12-2015 00:55:00 11.2 C 9.53 g/m*3 11.2 C 0 km/h
1708 19-12-2015 01:00:00 11.2 C 9.43 g/m*3 11.2 C 0 km/h
1709 19-12-2015 01:05:00 11.2 C 9.43 g/m*3 11.2 C 0 km/h
1710 19-12-2015 01:10:00 11.1 C 9.37 g/m*3 11.1 C 1.6 km/h
1711 19-12-2015 01:15:00 11 C 9.31 g/m*3 11 C 0 km/h
1712 19-12-2015 01:20:00 10.9 C 9.25 g/m*3 10.9 C 0 km/h
1713 19-12-2015 01:25:00 10.9 C 9.25 g/m*3 10.9 C 0 km/h
1714 19-12-2015 01:30:00 10.9 C 9.35 g/m*3 10.9 C 0 km/h
1715 19-12-2015 01:35:00 10.9 C 9.35 g/m*3 10.9 C 0 km/h
1716 19-12-2015 01:40:00 10.9 C 9.35 g/m*3 10.9 C 0 km/h
1717 19-12-2015 01:45:00 10.8 C 9.29 g/m*3 10.8 C 0 km/h
1718 19-12-2015 01:50:00 10.8 C 9.29 g/m*3 10.8 C 0 km/h
1719 19-12-2015 01:55:00 10.9 C 9.35 g/m*3 10.9 C 0 km/h
1720 19-12-2015 02:00:00 10.9 C 9.35 g/m*3 10.9 C 0 km/h
1721 19-12-2015 02:05:00 10.9 C 9.35 g/m*3 10.9 C 0 km/h
1722 19-12-2015 02:10:00 10.9 C 9.35 g/m*3 10.9 C 3.2 km/h
1723 19-12-2015 02:15:00 10.9 C 9.45 g/m*3 10.9 C 0 km/h
1724 19-12-2015 02:20:00 10.9 C 9.45 g/m*3 10.9 C 0 km/h
1725 19-12-2015 02:25:00 11 C 9.51 g/m*3 11 C 0 km/h
Sensor: Nr:Datum:Temp:Abs-Feuchte:Windchill:Wind:
Aussen-T/F 1726 19-12-2015 02:30:00 11 C 9.51 g/m*3 11 C 1.6 km/h
1727 19-12-2015 02:35:00 11 C 9.51 g/m*3 11 C 0 km/h
1728 19-12-2015 02:40:00 11.1 C 9.57 g/m*3 11.1 C 0 km/h
1729 19-12-2015 02:45:00 11.1 C 9.57 g/m*3 11.1 C 0 km/h
1730 19-12-2015 02:50:00 11.1 C 9.57 g/m*3 11.1 C 0 km/h
1731 19-12-2015 02:55:00 11.1 C 9.57 g/m*3 11.1 C 1.6 km/h
1732 19-12-2015 03:00:00 11.2 C 9.63 g/m*3 11.2 C 6.4 km/h
1733 19-12-2015 03:05:00 11.3 C 9.69 g/m*3 11.3 C 6.4 km/h
1734 19-12-2015 03:10:00 11.5 C 9.71 g/m*3 11.5 C 3.2 km/h
1735 19-12-2015 03:15:00 11.6 C 9.77 g/m*3 11.6 C 4.8 km/h
1736 19-12-2015 03:20:00 11.7 C 9.73 g/m*3 11.7 C 4.8 km/h
1737 19-12-2015 03:25:00 11.7 C 9.73 g/m*3 11.7 C 3.2 km/h
1738 19-12-2015 03:30:00 11.8 C 9.79 g/m*3 11.8 C 4.8 km/h
1739 19-12-2015 03:35:00 11.8 C 9.68 g/m*3 11.8 C 9.7 km/h
1740 19-12-2015 03:40:00 11.9 C 9.74 g/m*3 11.9 C 9.7 km/h
1741 19-12-2015 03:45:00 12.1 C 9.76 g/m*3 12.1 C 4.8 km/h
1742 19-12-2015 03:50:00 12.1 C 9.76 g/m*3 12.1 C 8.1 km/h
1743 19-12-2015 03:55:00 12.1 C 9.76 g/m*3 12.1 C 6.4 km/h
1744 19-12-2015 04:00:00 12.1 C 9.65 g/m*3 12.1 C 9.7 km/h
1745 19-12-2015 04:05:00 12.2 C 9.71 g/m*3 12.2 C 6.4 km/h
1746 19-12-2015 04:10:00 12.2 C 9.71 g/m*3 12.2 C 9.7 km/h
1747 19-12-2015 04:15:00 12.2 C 9.71 g/m*3 12.2 C 12.9 km/h
1748 19-12-2015 04:20:00 12.2 C 9.71 g/m*3 12.2 C 8.1 km/h
1749 19-12-2015 04:25:00 12.2 C 9.6 g/m*3 12.2 C 12.9 km/h
1750 19-12-2015 04:30:00 12.2 C 9.71 g/m*3 12.2 C 4.8 km/h
Sensor: Nr:Datum:Temp:Abs-Feuchte:Windchill:Wind:
Aussen-T/F 1751 19-12-2015 04:35:00 12.2 C 9.6 g/m*3 12.2 C 8.1 km/h
1752 19-12-2015 04:40:00 12.2 C 9.6 g/m*3 12.2 C 4.8 km/h
1753 19-12-2015 04:45:00 12.2 C 9.6 g/m*3 12.2 C 4.8 km/h
1754 19-12-2015 04:50:00 12.2 C 9.6 g/m*3 12.2 C 8.1 km/h
1755 19-12-2015 04:55:00 12.2 C 9.6 g/m*3 12.2 C 11.3 km/h
1756 19-12-2015 05:00:00 12.3 C 9.66 g/m*3 12.3 C 11.3 km/h
1757 19-12-2015 05:05:00 12.3 C 9.66 g/m*3 12.3 C 11.3 km/h
1758 19-12-2015 05:10:00 12.3 C 9.66 g/m*3 12.3 C 4.8 km/h
1759 19-12-2015 05:15:00 12.3 C 9.66 g/m*3 12.3 C 9.7 km/h
1760 19-12-2015 05:20:00 12.3 C 9.66 g/m*3 12.3 C 8.1 km/h
1761 19-12-2015 05:25:00 12.3 C 9.66 g/m*3 12.3 C 8.1 km/h
1762 19-12-2015 05:30:00 12.3 C 9.66 g/m*3 12.3 C 4.8 km/h
1763 19-12-2015 05:35:00 12.3 C 9.66 g/m*3 12.3 C 4.8 km/h
1764 19-12-2015 05:40:00 12.3 C 9.66 g/m*3 12.3 C 8.1 km/h
1765 19-12-2015 05:45:00 12.3 C 9.66 g/m*3 12.3 C 8.1 km/h
1766 19-12-2015 05:50:00 12.2 C 9.6 g/m*3 12.2 C 8.1 km/h
1767 19-12-2015 05:55:00 12.2 C 9.6 g/m*3 12.2 C 9.7 km/h
1768 19-12-2015 06:00:00 12.2 C 9.6 g/m*3 12.2 C 11.3 km/h
1769 19-12-2015 06:05:00 12.3 C 9.66 g/m*3 12.3 C 12.9 km/h
1770 19-12-2015 06:10:00 12.2 C 9.6 g/m*3 12.2 C 9.7 km/h
1771 19-12-2015 06:15:00 12.3 C 9.66 g/m*3 12.3 C 6.4 km/h
1772 19-12-2015 06:20:00 12.3 C 9.66 g/m*3 12.3 C 6.4 km/h
1773 19-12-2015 06:25:00 12.2 C 9.6 g/m*3 12.2 C 9.7 km/h
1774 19-12-2015 06:30:00 12.2 C 9.6 g/m*3 12.2 C 8.1 km/h
1775 19-12-2015 06:35:00 12.2 C 9.6 g/m*3 12.2 C 12.9 km/h
Sensor: Nr:Datum:Temp:Abs-Feuchte:Windchill:Wind:
Aussen-T/F 1776 19-12-2015 06:40:00 12.2 C 9.6 g/m*3 12.2 C 4.8 km/h
1777 19-12-2015 06:45:00 12.1 C 9.54 g/m*3 12.1 C 3.2 km/h
1778 19-12-2015 06:50:00 11.9 C 9.43 g/m*3 11.9 C 1.6 km/h
1779 19-12-2015 06:55:00 11.8 C 9.47 g/m*3 11.8 C 4.8 km/h
1780 19-12-2015 07:00:00 11.7 C 9.41 g/m*3 11.7 C 0 km/h
1781 19-12-2015 07:05:00 11.7 C 9.52 g/m*3 11.7 C 6.4 km/h
1782 19-12-2015 07:10:00 11.7 C 9.52 g/m*3 11.7 C 4.8 km/h
1783 19-12-2015 07:15:00 11.8 C 9.58 g/m*3 11.8 C 4.8 km/h
1784 19-12-2015 07:20:00 11.8 C 9.58 g/m*3 11.8 C 6.4 km/h
1785 19-12-2015 07:25:00 11.8 C 9.58 g/m*3 11.8 C 3.2 km/h
1786 19-12-2015 07:30:00 11.8 C 9.58 g/m*3 11.8 C 3.2 km/h
1787 19-12-2015 07:35:00 11.8 C 9.58 g/m*3 11.8 C 3.2 km/h
1788 19-12-2015 07:40:00 11.8 C 9.58 g/m*3 11.8 C 3.2 km/h
1789 19-12-2015 07:45:00 11.9 C 9.64 g/m*3 11.9 C 1.6 km/h
1790 19-12-2015 07:50:00 11.9 C 9.64 g/m*3 11.9 C 3.2 km/h
1791 19-12-2015 07:55:00 12 C 9.7 g/m*3 12 C 3.2 km/h
1792 19-12-2015 08:00:00 12 C 9.7 g/m*3 12 C 1.6 km/h
1793 19-12-2015 08:05:00 12.1 C 9.76 g/m*3 12.1 C 6.4 km/h
1794 19-12-2015 08:10:00 12.1 C 9.76 g/m*3 12.1 C 3.2 km/h
1795 19-12-2015 08:15:00 12.2 C 9.82 g/m*3 12.2 C 3.2 km/h
1796 19-12-2015 08:20:00 12.2 C 9.71 g/m*3 12.2 C 4.8 km/h
1797 19-12-2015 08:25:00 12.2 C 9.71 g/m*3 12.2 C 1.6 km/h
1798 19-12-2015 08:30:00 12.2 C 9.71 g/m*3 12.2 C 0 km/h
1799 19-12-2015 08:35:00 12.1 C 9.76 g/m*3 12.1 C 0 km/h
1800 19-12-2015 08:40:00 12.1 C 9.76 g/m*3 12.1 C 4.8 km/h
Sensor: Nr:Datum:Temp:Abs-Feuchte:Windchill:Wind:
Aussen-T/F 1801 19-12-2015 08:45:00 12.1 C 9.76 g/m*3 12.1 C 0 km/h
1802 19-12-2015 08:50:00 12.1 C 9.76 g/m*3 12.1 C 4.8 km/h
1803 19-12-2015 08:55:00 12.1 C 9.76 g/m*3 12.1 C 1.6 km/h
1804 19-12-2015 09:00:00 12.2 C 9.82 g/m*3 12.2 C 3.2 km/h
1805 19-12-2015 09:05:00 12.2 C 9.82 g/m*3 12.2 C 1.6 km/h
1806 19-12-2015 09:10:00 12.2 C 9.82 g/m*3 12.2 C 1.6 km/h
1807 19-12-2015 09:15:00 12.2 C 9.82 g/m*3 12.2 C 0 km/h
1808 19-12-2015 09:20:00 12.2 C 9.82 g/m*3 12.2 C 6.4 km/h
1809 19-12-2015 09:25:00 12.3 C 9.77 g/m*3 12.3 C 3.2 km/h
1810 19-12-2015 09:30:00 12.3 C 9.77 g/m*3 12.3 C 9.7 km/h
1811 19-12-2015 09:35:00 12.3 C 9.77 g/m*3 12.3 C 0 km/h
1812 19-12-2015 09:40:00 12.4 C 9.83 g/m*3 12.4 C 0 km/h
1813 19-12-2015 09:45:00 12.4 C 9.83 g/m*3 12.4 C 3.2 km/h
1814 19-12-2015 09:50:00 12.4 C 9.83 g/m*3 12.4 C 8.1 km/h
1815 19-12-2015 09:55:00 12.5 C 9.78 g/m*3 12.5 C 6.4 km/h
1816 19-12-2015 10:00:00 12.5 C 9.78 g/m*3 12.5 C 3.2 km/h
1817 19-12-2015 10:05:00 12.5 C 9.78 g/m*3 12.5 C 1.6 km/h
1818 19-12-2015 10:10:00 12.4 C 9.72 g/m*3 12.4 C 0 km/h
1819 19-12-2015 10:15:00 12.3 C 9.66 g/m*3 12.3 C 0 km/h
1820 19-12-2015 10:20:00 12.1 C 9.54 g/m*3 12.1 C 1.6 km/h
1821 19-12-2015 10:25:00 11.9 C 9.53 g/m*3 11.9 C 3.2 km/h
1822 19-12-2015 10:30:00 11.8 C 9.58 g/m*3 11.8 C 3.2 km/h
1823 19-12-2015 10:35:00 11.7 C 9.52 g/m*3 11.7 C 1.6 km/h
1824 19-12-2015 10:40:00 11.7 C 9.62 g/m*3 11.7 C 4.8 km/h
1825 19-12-2015 10:45:00 11.9 C 9.74 g/m*3 11.9 C 6.4 km/h
Sensor: Nr:Datum:Temp:Abs-Feuchte:Windchill:Wind:
Aussen-T/F 1826 19-12-2015 10:50:00 12.2 C 9.93 g/m*3 12.2 C 4.8 km/h
1827 19-12-2015 10:55:00 12.4 C 9.94 g/m*3 12.4 C 8.1 km/h
1828 19-12-2015 11:00:00 12.7 C 10.02 g/m*3 12.7 C 16.1 km/h
1829 19-12-2015 11:05:00 12.9 C 10.03 g/m*3 12.9 C 17.7 km/h
1830 19-12-2015 11:10:00 13.1 C 10.04 g/m*3 13.1 C 12.9 km/h
1831 19-12-2015 11:15:00 13.2 C 10.1 g/m*3 13.2 C 12.9 km/h
1832 19-12-2015 11:20:00 13.3 C 10.17 g/m*3 13.3 C 12.9 km/h
1833 19-12-2015 11:25:00 13.3 C 10.05 g/m*3 13.3 C 9.7 km/h
1834 19-12-2015 11:30:00 13.3 C 10.05 g/m*3 13.3 C 11.3 km/h
1835 19-12-2015 11:35:00 13.3 C 10.05 g/m*3 13.3 C 14.5 km/h
1836 19-12-2015 11:40:00 13.3 C 10.05 g/m*3 13.3 C 6.4 km/h
1837 19-12-2015 11:45:00 13.3 C 10.05 g/m*3 13.3 C 9.7 km/h
1838 19-12-2015 11:50:00 13.4 C 10.11 g/m*3 13.4 C 9.7 km/h
1839 19-12-2015 11:55:00 13.4 C 10.11 g/m*3 13.4 C 6.4 km/h
1840 19-12-2015 12:00:00 13.5 C 10.06 g/m*3 13.5 C 9.7 km/h
1841 19-12-2015 12:05:00 13.6 C 10.12 g/m*3 13.6 C 3.2 km/h
1842 19-12-2015 12:10:00 13.6 C 10.12 g/m*3 13.6 C 6.4 km/h
1843 19-12-2015 12:15:00 13.5 C 10.06 g/m*3 13.5 C 6.4 km/h
1844 19-12-2015 12:20:00 13.5 C 10.06 g/m*3 13.5 C 0 km/h
1845 19-12-2015 12:25:00 13.4 C 10.11 g/m*3 13.4 C 0 km/h
1846 19-12-2015 12:30:00 13.4 C 10.11 g/m*3 13.4 C 1.6 km/h
1847 19-12-2015 12:35:00 13.4 C 10.11 g/m*3 13.4 C 1.6 km/h
1848 19-12-2015 12:40:00 13.6 C 10.24 g/m*3 13.6 C 9.7 km/h
1849 19-12-2015 12:45:00 13.7 C 10.18 g/m*3 13.7 C 8.1 km/h
1850 19-12-2015 12:50:00 13.8 C 10.25 g/m*3 13.8 C 9.7 km/h
Sensor: Nr:Datum:Temp:Abs-Feuchte:Windchill:Wind:
Aussen-T/F 1851 19-12-2015 12:55:00 13.8 C 10.25 g/m*3 13.8 C 9.7 km/h
1852 19-12-2015 13:00:00 13.8 C 10.25 g/m*3 13.8 C 8.1 km/h
1853 19-12-2015 13:05:00 13.8 C 10.25 g/m*3 13.8 C 4.8 km/h
1854 19-12-2015 13:10:00 13.8 C 10.25 g/m*3 13.8 C 3.2 km/h
1855 19-12-2015 13:15:00 13.8 C 10.25 g/m*3 13.8 C 8.1 km/h
1856 19-12-2015 13:20:00 13.8 C 10.25 g/m*3 13.8 C 9.7 km/h
1857 19-12-2015 13:25:00 13.8 C 10.25 g/m*3 13.8 C 11.3 km/h
1858 19-12-2015 13:30:00 13.8 C 10.25 g/m*3 13.8 C 8.1 km/h
1859 19-12-2015 13:35:00 13.8 C 10.25 g/m*3 13.8 C 8.1 km/h
1860 19-12-2015 13:40:00 13.8 C 10.25 g/m*3 13.8 C 6.4 km/h
1861 19-12-2015 13:45:00 13.8 C 10.25 g/m*3 13.8 C 4.8 km/h
1862 19-12-2015 13:50:00 13.8 C 10.25 g/m*3 13.8 C 8.1 km/h
1863 19-12-2015 13:55:00 13.9 C 10.31 g/m*3 13.9 C 9.7 km/h
1864 19-12-2015 14:00:00 13.9 C 10.31 g/m*3 13.9 C 6.4 km/h
1865 19-12-2015 14:05:00 13.9 C 10.31 g/m*3 13.9 C 4.8 km/h
1866 19-12-2015 14:10:00 13.9 C 10.31 g/m*3 13.9 C 6.4 km/h
1867 19-12-2015 14:15:00 13.9 C 10.31 g/m*3 13.9 C 6.4 km/h
1868 19-12-2015 14:20:00 13.8 C 10.25 g/m*3 13.8 C 6.4 km/h
1869 19-12-2015 14:25:00 13.8 C 10.25 g/m*3 13.8 C 4.8 km/h
1870 19-12-2015 14:30:00 13.8 C 10.25 g/m*3 13.8 C 4.8 km/h
1871 19-12-2015 14:35:00 13.8 C 10.25 g/m*3 13.8 C 3.2 km/h
1872 19-12-2015 14:40:00 13.7 C 10.3 g/m*3 13.7 C 1.6 km/h
1873 19-12-2015 14:45:00 13.6 C 10.24 g/m*3 13.6 C 0 km/h
1874 19-12-2015 14:50:00 13.5 C 10.18 g/m*3 13.5 C 0 km/h
1875 19-12-2015 14:55:00 13.3 C 10.17 g/m*3 13.3 C 0 km/h
Sensor: Nr:Datum:Temp:Abs-Feuchte:Windchill:Wind:
Aussen-T/F 1876 19-12-2015 15:00:00 13.2 C 10.22 g/m*3 13.2 C 0 km/h
1877 19-12-2015 15:05:00 13 C 10.21 g/m*3 13 C 0 km/h
1878 19-12-2015 15:10:00 12.9 C 10.14 g/m*3 12.9 C 1.6 km/h
1879 19-12-2015 15:15:00 12.9 C 10.26 g/m*3 12.9 C 1.6 km/h
1880 19-12-2015 15:20:00 12.9 C 10.26 g/m*3 12.9 C 0 km/h
1881 19-12-2015 15:25:00 12.8 C 10.19 g/m*3 12.8 C 0 km/h
1882 19-12-2015 15:30:00 12.8 C 10.19 g/m*3 12.8 C 0 km/h
1883 19-12-2015 15:35:00 12.8 C 10.3 g/m*3 12.8 C 1.6 km/h
1884 19-12-2015 15:40:00 12.8 C 10.19 g/m*3 12.8 C 1.6 km/h
1885 19-12-2015 15:45:00 12.7 C 10.13 g/m*3 12.7 C 3.2 km/h
1886 19-12-2015 15:50:00 12.6 C 10.07 g/m*3 12.6 C 3.2 km/h
1887 19-12-2015 15:55:00 12.5 C 10 g/m*3 12.5 C 3.2 km/h
1888 19-12-2015 16:00:00 12.4 C 9.94 g/m*3 12.4 C 3.2 km/h
1889 19-12-2015 16:05:00 12.3 C 9.99 g/m*3 12.3 C 3.2 km/h
1890 19-12-2015 16:10:00 12.1 C 9.76 g/m*3 12.1 C 3.2 km/h
1891 19-12-2015 16:15:00 12 C 9.8 g/m*3 12 C 3.2 km/h
1892 19-12-2015 16:20:00 11.8 C 9.68 g/m*3 11.8 C 3.2 km/h
1893 19-12-2015 16:25:00 11.7 C 9.62 g/m*3 11.7 C 3.2 km/h
1894 19-12-2015 16:30:00 11.7 C 9.73 g/m*3 11.7 C 3.2 km/h
1895 19-12-2015 16:35:00 11.7 C 9.73 g/m*3 11.7 C 3.2 km/h
1896 19-12-2015 16:40:00 11.7 C 9.73 g/m*3 11.7 C 3.2 km/h
1897 19-12-2015 16:45:00 11.7 C 9.73 g/m*3 11.7 C 1.6 km/h
1898 19-12-2015 16:50:00 11.7 C 9.73 g/m*3 11.7 C 1.6 km/h
1899 19-12-2015 16:55:00 11.6 C 9.67 g/m*3 11.6 C 3.2 km/h
1900 19-12-2015 17:00:00 11.4 C 9.55 g/m*3 11.4 C 3.2 km/h
Sensor: Nr:Datum:Temp:Abs-Feuchte:Windchill:Wind:
Aussen-T/F 1901 19-12-2015 17:05:00 11.3 C 9.49 g/m*3 11.3 C 3.2 km/h
1902 19-12-2015 17:10:00 11.2 C 9.43 g/m*3 11.2 C 3.2 km/h
1903 19-12-2015 17:15:00 11 C 9.31 g/m*3 11 C 3.2 km/h
1904 19-12-2015 17:20:00 10.9 C 9.25 g/m*3 10.9 C 3.2 km/h
1905 19-12-2015 17:25:00 10.8 C 9.19 g/m*3 10.8 C 3.2 km/h
1906 19-12-2015 17:30:00 10.7 C 9.13 g/m*3 10.7 C 4.8 km/h
1907 19-12-2015 17:35:00 10.6 C 9.17 g/m*3 10.6 C 4.8 km/h
1908 19-12-2015 17:40:00 10.6 C 9.17 g/m*3 10.6 C 3.2 km/h
1909 19-12-2015 17:45:00 10.4 C 9.06 g/m*3 10.4 C 4.8 km/h
1910 19-12-2015 17:50:00 10.3 C 9 g/m*3 10.3 C 3.2 km/h
1911 19-12-2015 17:55:00 10.2 C 8.95 g/m*3 10.2 C 3.2 km/h
1912 19-12-2015 18:00:00 10.2 C 8.95 g/m*3 10.2 C 3.2 km/h
1913 19-12-2015 18:05:00 10.1 C 8.89 g/m*3 10.1 C 3.2 km/h
1914 19-12-2015 18:10:00 10.1 C 8.89 g/m*3 10.1 C 4.8 km/h
1915 19-12-2015 18:15:00 10 C 8.93 g/m*3 10 C 3.2 km/h
1916 19-12-2015 18:20:00 9.9 C 8.87 g/m*3 9.9 C 4.8 km/h
1917 19-12-2015 18:25:00 9.9 C 8.87 g/m*3 9.9 C 3.2 km/h
1918 19-12-2015 18:30:00 9.8 C 8.81 g/m*3 9.8 C 3.2 km/h
1919 19-12-2015 18:35:00 9.8 C 8.81 g/m*3 9.8 C 3.2 km/h
1920 19-12-2015 18:40:00 9.7 C 8.76 g/m*3 9.7 C 1.6 km/h
1921 19-12-2015 18:45:00 9.7 C 8.76 g/m*3 9.7 C 0 km/h
1922 19-12-2015 18:50:00 9.6 C 8.7 g/m*3 9.6 C 4.8 km/h
1923 19-12-2015 18:55:00 9.6 C 8.7 g/m*3 9.6 C 3.2 km/h
1924 19-12-2015 19:00:00 9.5 C 8.65 g/m*3 9.5 C 3.2 km/h
1925 19-12-2015 19:05:00 9.4 C 8.59 g/m*3 9.4 C 3.2 km/h
Sensor: Nr:Datum:Temp:Abs-Feuchte:Windchill:Wind:
Aussen-T/F 1926 19-12-2015 19:10:00 9.4 C 8.59 g/m*3 9.4 C 3.2 km/h
1927 19-12-2015 19:15:00 9.4 C 8.68 g/m*3 9.4 C 3.2 km/h
1928 19-12-2015 19:20:00 9.4 C 8.59 g/m*3 9.4 C 3.2 km/h
1929 19-12-2015 19:25:00 9.4 C 8.59 g/m*3 9.4 C 3.2 km/h
1930 19-12-2015 19:30:00 9.3 C 8.54 g/m*3 9.3 C 1.6 km/h
1931 19-12-2015 19:35:00 9.3 C 8.54 g/m*3 9.3 C 1.6 km/h
1932 19-12-2015 19:40:00 9.2 C 8.48 g/m*3 9.2 C 3.2 km/h
1933 19-12-2015 19:45:00 9.1 C 8.52 g/m*3 9.1 C 3.2 km/h
1934 19-12-2015 19:50:00 9.1 C 8.52 g/m*3 9.1 C 3.2 km/h
1935 19-12-2015 19:55:00 9.2 C 8.57 g/m*3 9.2 C 3.2 km/h
1936 19-12-2015 20:00:00 9.1 C 8.52 g/m*3 9.1 C 0 km/h
1937 19-12-2015 20:05:00 9 C 8.38 g/m*3 9 C 0 km/h
1938 19-12-2015 20:10:00 8.9 C 8.41 g/m*3 8.9 C 1.6 km/h
1939 19-12-2015 20:15:00 8.9 C 8.41 g/m*3 8.9 C 3.2 km/h
1940 19-12-2015 20:20:00 8.8 C 8.36 g/m*3 8.8 C 1.6 km/h
1941 19-12-2015 20:25:00 8.8 C 8.36 g/m*3 8.8 C 0 km/h
1942 19-12-2015 20:30:00 8.8 C 8.36 g/m*3 8.8 C 3.2 km/h
1943 19-12-2015 20:35:00 8.8 C 8.36 g/m*3 8.8 C 1.6 km/h
1944 19-12-2015 20:40:00 8.8 C 8.36 g/m*3 8.8 C 0 km/h
1945 19-12-2015 20:45:00 8.7 C 8.3 g/m*3 8.7 C 0 km/h
1946 19-12-2015 20:50:00 8.6 C 8.25 g/m*3 8.6 C 3.2 km/h
1947 19-12-2015 20:55:00 8.7 C 8.3 g/m*3 8.7 C 3.2 km/h
1948 19-12-2015 21:00:00 8.7 C 8.3 g/m*3 8.7 C 0 km/h
1949 19-12-2015 21:05:00 8.7 C 8.3 g/m*3 8.7 C 3.2 km/h
1950 19-12-2015 21:10:00 8.7 C 8.3 g/m*3 8.7 C 1.6 km/h
Sensor: Nr:Datum:Temp:Abs-Feuchte:Windchill:Wind:
Aussen-T/F 1951 19-12-2015 21:15:00 8.6 C 8.25 g/m*3 8.6 C 0 km/h
1952 19-12-2015 21:20:00 8.4 C 8.14 g/m*3 8.4 C 0 km/h
1953 19-12-2015 21:25:00 8.4 C 8.14 g/m*3 8.4 C 1.6 km/h
1954 19-12-2015 21:30:00 8.4 C 8.14 g/m*3 8.4 C 0 km/h
1955 19-12-2015 21:35:00 8.3 C 8.09 g/m*3 8.3 C 0 km/h
1956 19-12-2015 21:40:00 8.1 C 7.99 g/m*3 8.1 C 0 km/h
1957 19-12-2015 21:45:00 8 C 7.94 g/m*3 8 C 1.6 km/h
1958 19-12-2015 21:50:00 8.1 C 7.99 g/m*3 8.1 C 1.6 km/h
1959 19-12-2015 21:55:00 8.2 C 8.04 g/m*3 8.2 C 1.6 km/h
1960 19-12-2015 22:00:00 8.2 C 8.04 g/m*3 8.2 C 0 km/h
1961 19-12-2015 22:05:00 8 C 7.94 g/m*3 8 C 0 km/h
1962 19-12-2015 22:10:00 7.8 C 7.83 g/m*3 7.8 C 0 km/h
1963 19-12-2015 22:15:00 7.7 C 7.78 g/m*3 7.7 C 0 km/h
1964 19-12-2015 22:20:00 7.6 C 7.73 g/m*3 7.6 C 0 km/h
1965 19-12-2015 22:25:00 7.6 C 7.73 g/m*3 7.6 C 0 km/h
1966 19-12-2015 22:30:00 7.6 C 7.73 g/m*3 7.6 C 0 km/h
1967 19-12-2015 22:35:00 7.4 C 7.63 g/m*3 7.4 C 0 km/h
1968 19-12-2015 22:40:00 7.4 C 7.63 g/m*3 7.4 C 0 km/h
1969 19-12-2015 22:45:00 7.4 C 7.63 g/m*3 7.4 C 0 km/h
1970 19-12-2015 22:50:00 7.3 C 7.58 g/m*3 7.3 C 0 km/h
1971 19-12-2015 22:55:00 7.2 C 7.54 g/m*3 7.2 C 0 km/h
1972 19-12-2015 23:00:00 7.2 C 7.54 g/m*3 7.2 C 0 km/h
1973 19-12-2015 23:05:00 7.2 C 7.54 g/m*3 7.2 C 0 km/h
1974 19-12-2015 23:10:00 7.2 C 7.61 g/m*3 7.2 C 0 km/h
1975 19-12-2015 23:15:00 7.1 C 7.49 g/m*3 7.1 C 0 km/h
Sensor: Nr:Datum:Temp:Abs-Feuchte:Windchill:Wind:
Aussen-T/F 1976 19-12-2015 23:20:00 6.9 C 7.39 g/m*3 6.9 C 0 km/h
1977 19-12-2015 23:25:00 6.9 C 7.39 g/m*3 6.9 C 0 km/h
1978 19-12-2015 23:30:00 6.9 C 7.39 g/m*3 6.9 C 0 km/h
1979 19-12-2015 23:35:00 6.9 C 7.47 g/m*3 6.9 C 0 km/h
1980 19-12-2015 23:40:00 6.9 C 7.47 g/m*3 6.9 C 0 km/h
1981 19-12-2015 23:45:00 7 C 7.52 g/m*3 7 C 0 km/h
1982 19-12-2015 23:50:00 6.9 C 7.47 g/m*3 6.9 C 0 km/h
1983 19-12-2015 23:55:00 6.9 C 7.47 g/m*3 6.9 C 1.6 km/h
1984 20-12-2015 00:00:00 7.2 C 7.61 g/m*3 7.2 C 0 km/h
1985 20-12-2015 00:05:00 7.2 C 7.61 g/m*3 7.2 C 0 km/h
1986 20-12-2015 00:10:00 7.1 C 7.57 g/m*3 7.1 C 0 km/h
1987 20-12-2015 00:15:00 7 C 7.52 g/m*3 7 C 3.2 km/h
1988 20-12-2015 00:20:00 7.2 C 7.61 g/m*3 7.2 C 3.2 km/h
1989 20-12-2015 00:25:00 7.2 C 7.61 g/m*3 7.2 C 1.6 km/h
1990 20-12-2015 00:30:00 7.1 C 7.57 g/m*3 7.1 C 0 km/h
1991 20-12-2015 00:35:00 6.8 C 7.42 g/m*3 6.8 C 0 km/h
1992 20-12-2015 00:40:00 6.7 C 7.37 g/m*3 6.7 C 0 km/h
1993 20-12-2015 00:45:00 6.7 C 7.37 g/m*3 6.7 C 0 km/h
1994 20-12-2015 00:50:00 6.7 C 7.37 g/m*3 6.7 C 0 km/h
1995 20-12-2015 00:55:00 6.7 C 7.37 g/m*3 6.7 C 1.6 km/h
1996 20-12-2015 01:00:00 6.7 C 7.37 g/m*3 6.7 C 0 km/h
1997 20-12-2015 01:05:00 6.8 C 7.42 g/m*3 6.8 C 0 km/h
1998 20-12-2015 01:10:00 6.7 C 7.37 g/m*3 6.7 C 0 km/h
1999 20-12-2015 01:15:00 6.6 C 7.32 g/m*3 6.6 C 0 km/h
2000 20-12-2015 01:20:00 6.5 C 7.27 g/m*3 6.5 C 0 km/h
Sensor: Nr:Datum:Temp:Abs-Feuchte:Windchill:Wind:
Aussen-T/F 2001 20-12-2015 01:25:00 6.4 C 7.23 g/m*3 6.4 C 0 km/h
2002 20-12-2015 01:30:00 6.3 C 7.18 g/m*3 6.3 C 0 km/h
2003 20-12-2015 01:35:00 6.2 C 7.13 g/m*3 6.2 C 0 km/h
2004 20-12-2015 01:40:00 6.2 C 7.13 g/m*3 6.2 C 0 km/h
2005 20-12-2015 01:45:00 6.2 C 7.13 g/m*3 6.2 C 1.6 km/h
2006 20-12-2015 01:50:00 6.3 C 7.18 g/m*3 6.3 C 3.2 km/h
2007 20-12-2015 01:55:00 6.4 C 7.23 g/m*3 6.4 C 0 km/h
2008 20-12-2015 02:00:00 6.3 C 7.18 g/m*3 6.3 C 1.6 km/h
2009 20-12-2015 02:05:00 6.2 C 7.13 g/m*3 6.2 C 0 km/h
2010 20-12-2015 02:10:00 6.2 C 7.13 g/m*3 6.2 C 0 km/h
2011 20-12-2015 02:15:00 6.3 C 7.18 g/m*3 6.3 C 0 km/h
2012 20-12-2015 02:20:00 6.3 C 7.18 g/m*3 6.3 C 0 km/h
2013 20-12-2015 02:25:00 6.6 C 7.32 g/m*3 6.6 C 4.8 km/h
2014 20-12-2015 02:30:00 6.7 C 7.37 g/m*3 6.7 C 0 km/h
2015 20-12-2015 02:35:00 6.7 C 7.37 g/m*3 6.7 C 0 km/h
2016 20-12-2015 02:40:00 6.9 C 7.54 g/m*3 5.79 C 6.4 km/h
2017 20-12-2015 02:45:00 7.1 C 7.57 g/m*3 7.1 C 4.8 km/h
2018 20-12-2015 02:50:00 7.2 C 7.69 g/m*3 7.2 C 3.2 km/h
2019 20-12-2015 02:55:00 7.3 C 7.74 g/m*3 7.3 C 3.2 km/h
2020 20-12-2015 03:00:00 7.3 C 7.74 g/m*3 7.3 C 1.6 km/h
2021 20-12-2015 03:05:00 7.3 C 7.74 g/m*3 7.3 C 3.2 km/h
2022 20-12-2015 03:10:00 7.3 C 7.66 g/m*3 7.3 C 4.8 km/h
2023 20-12-2015 03:15:00 7.2 C 7.61 g/m*3 7.2 C 3.2 km/h
2024 20-12-2015 03:20:00 7.1 C 7.57 g/m*3 7.1 C 3.2 km/h
2025 20-12-2015 03:25:00 7.1 C 7.57 g/m*3 7.1 C 3.2 km/h
Sensor: Nr:Datum:Temp:Abs-Feuchte:Windchill:Wind:
Aussen-T/F 2026 20-12-2015 03:30:00 7.1 C 7.57 g/m*3 7.1 C 3.2 km/h
2027 20-12-2015 03:35:00 7.1 C 7.57 g/m*3 7.1 C 3.2 km/h
2028 20-12-2015 03:40:00 6.9 C 7.47 g/m*3 6.9 C 1.6 km/h
2029 20-12-2015 03:45:00 6.7 C 7.37 g/m*3 6.7 C 0 km/h
2030 20-12-2015 03:50:00 6.7 C 7.37 g/m*3 6.7 C 1.6 km/h
2031 20-12-2015 03:55:00 6.7 C 7.37 g/m*3 6.7 C 1.6 km/h
2032 20-12-2015 04:00:00 6.6 C 7.32 g/m*3 6.6 C 1.6 km/h
2033 20-12-2015 04:05:00 6.6 C 7.32 g/m*3 6.6 C 1.6 km/h
2034 20-12-2015 04:10:00 6.4 C 7.23 g/m*3 6.4 C 0 km/h
2035 20-12-2015 04:15:00 6.3 C 7.18 g/m*3 6.3 C 4.8 km/h
2036 20-12-2015 04:20:00 6.4 C 7.23 g/m*3 6.4 C 3.2 km/h
2037 20-12-2015 04:25:00 6.4 C 7.23 g/m*3 6.4 C 0 km/h
2038 20-12-2015 04:30:00 6.3 C 7.18 g/m*3 6.3 C 0 km/h
2039 20-12-2015 04:35:00 6.3 C 7.18 g/m*3 6.3 C 0 km/h
2040 20-12-2015 04:40:00 6.2 C 7.13 g/m*3 6.2 C 0 km/h
2041 20-12-2015 04:45:00 6.3 C 7.18 g/m*3 6.3 C 1.6 km/h
2042 20-12-2015 04:50:00 6.3 C 7.18 g/m*3 6.3 C 0 km/h
2043 20-12-2015 04:55:00 6.3 C 7.18 g/m*3 6.3 C 0 km/h
2044 20-12-2015 05:00:00 6.3 C 7.18 g/m*3 6.3 C 1.6 km/h
2045 20-12-2015 05:05:00 6.2 C 7.13 g/m*3 6.2 C 0 km/h
2046 20-12-2015 05:10:00 6.1 C 7.09 g/m*3 6.1 C 1.6 km/h
2047 20-12-2015 05:15:00 6.1 C 7.09 g/m*3 6.1 C 0 km/h
2048 20-12-2015 05:20:00 5.9 C 6.99 g/m*3 5.9 C 1.6 km/h
2049 20-12-2015 05:25:00 5.8 C 6.95 g/m*3 5.8 C 0 km/h
2050 20-12-2015 05:30:00 5.9 C 6.99 g/m*3 5.9 C 0 km/h
Sensor: Nr:Datum:Temp:Abs-Feuchte:Windchill:Wind:
Aussen-T/F 2051 20-12-2015 05:35:00 5.9 C 6.99 g/m*3 5.9 C 0 km/h
2052 20-12-2015 05:40:00 6.1 C 7.09 g/m*3 6.1 C 0 km/h
2053 20-12-2015 05:45:00 6.1 C 7.09 g/m*3 6.1 C 1.6 km/h
2054 20-12-2015 05:50:00 6.1 C 7.09 g/m*3 6.1 C 0 km/h
2055 20-12-2015 05:55:00 5.9 C 6.99 g/m*3 5.9 C 1.6 km/h
2056 20-12-2015 06:00:00 5.8 C 6.95 g/m*3 5.8 C 1.6 km/h
2057 20-12-2015 06:05:00 5.7 C 6.9 g/m*3 5.7 C 0 km/h
2058 20-12-2015 06:10:00 5.7 C 6.9 g/m*3 5.7 C 0 km/h
2059 20-12-2015 06:15:00 5.6 C 6.86 g/m*3 5.6 C 0 km/h
2060 20-12-2015 06:20:00 5.4 C 6.77 g/m*3 5.4 C 1.6 km/h
2061 20-12-2015 06:25:00 5.3 C 6.72 g/m*3 5.3 C 1.6 km/h
2062 20-12-2015 06:30:00 5.3 C 6.72 g/m*3 5.3 C 3.2 km/h
2063 20-12-2015 06:35:00 5.3 C 6.72 g/m*3 5.3 C 0 km/h
2064 20-12-2015 06:40:00 5.3 C 6.72 g/m*3 5.3 C 0 km/h
2065 20-12-2015 06:45:00 5.3 C 6.72 g/m*3 5.3 C 0 km/h
2066 20-12-2015 06:50:00 5.3 C 6.72 g/m*3 5.3 C 0 km/h
2067 20-12-2015 06:55:00 5.3 C 6.72 g/m*3 5.3 C 0 km/h
2068 20-12-2015 07:00:00 5.3 C 6.72 g/m*3 5.3 C 0 km/h
2069 20-12-2015 07:05:00 5.3 C 6.72 g/m*3 5.3 C 1.6 km/h
2070 20-12-2015 07:10:00 5.3 C 6.72 g/m*3 5.3 C 0 km/h
2071 20-12-2015 07:15:00 5.3 C 6.72 g/m*3 5.3 C 0 km/h
2072 20-12-2015 07:20:00 5.3 C 6.72 g/m*3 5.3 C 0 km/h
2073 20-12-2015 07:25:00 5.4 C 6.77 g/m*3 5.4 C 0 km/h
2074 20-12-2015 07:30:00 5.4 C 6.84 g/m*3 5.4 C 0 km/h
2075 20-12-2015 07:35:00 5.4 C 6.77 g/m*3 5.4 C 0 km/h
Sensor: Nr:Datum:Temp:Abs-Feuchte:Windchill:Wind:
Aussen-T/F 2076 20-12-2015 07:40:00 5.5 C 6.81 g/m*3 5.5 C 0 km/h
2077 20-12-2015 07:45:00 5.6 C 6.86 g/m*3 5.6 C 3.2 km/h
2078 20-12-2015 07:50:00 5.7 C 6.97 g/m*3 5.7 C 1.6 km/h
2079 20-12-2015 07:55:00 5.7 C 6.97 g/m*3 5.7 C 0 km/h
2080 20-12-2015 08:00:00 5.7 C 6.97 g/m*3 5.7 C 0 km/h
2081 20-12-2015 08:05:00 5.7 C 6.97 g/m*3 5.7 C 0 km/h
2082 20-12-2015 08:10:00 5.7 C 6.97 g/m*3 5.7 C 1.6 km/h
2083 20-12-2015 08:15:00 5.7 C 6.97 g/m*3 5.7 C 0 km/h
2084 20-12-2015 08:20:00 5.7 C 6.97 g/m*3 5.7 C 0 km/h
2085 20-12-2015 08:25:00 5.7 C 6.97 g/m*3 5.7 C 0 km/h
2086 20-12-2015 08:30:00 5.7 C 6.97 g/m*3 5.7 C 0 km/h
2087 20-12-2015 08:35:00 5.7 C 6.97 g/m*3 5.7 C 0 km/h
2088 20-12-2015 08:40:00 5.7 C 6.97 g/m*3 5.7 C 0 km/h
2089 20-12-2015 08:45:00 5.8 C 7.02 g/m*3 5.8 C 0 km/h
2090 20-12-2015 08:50:00 6 C 7.11 g/m*3 6 C 4.8 km/h
2091 20-12-2015 08:55:00 6 C 7.11 g/m*3 6 C 3.2 km/h
2092 20-12-2015 09:00:00 6 C 7.11 g/m*3 6 C 0 km/h
2093 20-12-2015 09:05:00 6 C 7.11 g/m*3 6 C 0 km/h
2094 20-12-2015 09:10:00 6 C 7.11 g/m*3 6 C 0 km/h
2095 20-12-2015 09:15:00 6.1 C 7.16 g/m*3 6.1 C 0 km/h
2096 20-12-2015 09:20:00 6.2 C 7.21 g/m*3 6.2 C 0 km/h
2097 20-12-2015 09:25:00 6.2 C 7.21 g/m*3 6.2 C 0 km/h
2098 20-12-2015 09:30:00 6.3 C 7.25 g/m*3 6.3 C 1.6 km/h
2099 20-12-2015 09:35:00 6.4 C 7.3 g/m*3 6.4 C 1.6 km/h
2100 20-12-2015 09:40:00 6.4 C 7.3 g/m*3 6.4 C 0 km/h
Sensor: Nr:Datum:Temp:Abs-Feuchte:Windchill:Wind:
Aussen-T/F 2101 20-12-2015 09:45:00 6.5 C 7.35 g/m*3 6.5 C 3.2 km/h
2102 20-12-2015 09:50:00 6.6 C 7.4 g/m*3 6.6 C 0 km/h
2103 20-12-2015 09:55:00 6.6 C 7.4 g/m*3 6.6 C 0 km/h
2104 20-12-2015 10:00:00 6.7 C 7.45 g/m*3 6.7 C 0 km/h
2105 20-12-2015 10:05:00 6.8 C 7.5 g/m*3 6.8 C 0 km/h
2106 20-12-2015 10:10:00 6.8 C 7.5 g/m*3 6.8 C 0 km/h
2107 20-12-2015 10:15:00 6.9 C 7.54 g/m*3 6.9 C 0 km/h
2108 20-12-2015 10:20:00 6.9 C 7.54 g/m*3 6.9 C 0 km/h
2109 20-12-2015 10:25:00 7 C 7.59 g/m*3 7 C 0 km/h
2110 20-12-2015 10:30:00 7.1 C 7.64 g/m*3 7.1 C 0 km/h
2111 20-12-2015 10:35:00 7.3 C 7.74 g/m*3 7.3 C 0 km/h
2112 20-12-2015 10:40:00 7.3 C 7.74 g/m*3 7.3 C 0 km/h
2113 20-12-2015 10:45:00 7.4 C 7.79 g/m*3 7.4 C 1.6 km/h
2114 20-12-2015 10:50:00 7.4 C 7.79 g/m*3 7.4 C 0 km/h
2115 20-12-2015 10:55:00 7.5 C 7.84 g/m*3 7.5 C 0 km/h
2116 20-12-2015 11:00:00 7.5 C 7.84 g/m*3 7.5 C 0 km/h
2117 20-12-2015 11:05:00 7.5 C 7.84 g/m*3 7.5 C 0 km/h
2118 20-12-2015 11:10:00 7.5 C 7.84 g/m*3 7.5 C 0 km/h
2119 20-12-2015 11:15:00 7.6 C 7.9 g/m*3 7.6 C 0 km/h
2120 20-12-2015 11:20:00 7.7 C 7.95 g/m*3 7.7 C 0 km/h
2121 20-12-2015 11:25:00 7.7 C 7.95 g/m*3 7.7 C 1.6 km/h
2122 20-12-2015 11:30:00 7.7 C 7.95 g/m*3 7.7 C 0 km/h
2123 20-12-2015 11:35:00 7.8 C 8 g/m*3 7.8 C 3.2 km/h
2124 20-12-2015 11:40:00 7.8 C 8 g/m*3 7.8 C 0 km/h
2125 20-12-2015 11:45:00 7.9 C 8.05 g/m*3 7.9 C 0 km/h
Sensor: Nr:Datum:Temp:Abs-Feuchte:Windchill:Wind:
Aussen-T/F 2126 20-12-2015 11:50:00 8 C 8.1 g/m*3 8 C 4.8 km/h
2127 20-12-2015 11:55:00 7.9 C 8.05 g/m*3 7.9 C 1.6 km/h
2128 20-12-2015 12:00:00 7.9 C 8.05 g/m*3 7.9 C 0 km/h
2129 20-12-2015 12:05:00 8 C 8.1 g/m*3 8 C 0 km/h
2130 20-12-2015 12:10:00 8.1 C 8.15 g/m*3 8.1 C 1.6 km/h
2131 20-12-2015 12:15:00 8.2 C 8.21 g/m*3 8.2 C 0 km/h
2132 20-12-2015 12:20:00 8.2 C 8.21 g/m*3 8.2 C 0 km/h
2133 20-12-2015 12:25:00 8.3 C 8.26 g/m*3 8.3 C 0 km/h
2134 20-12-2015 12:30:00 8.3 C 8.26 g/m*3 8.3 C 0 km/h
2135 20-12-2015 12:35:00 8.4 C 8.31 g/m*3 8.4 C 0 km/h
2136 20-12-2015 12:40:00 8.5 C 8.37 g/m*3 8.5 C 0 km/h
2137 20-12-2015 12:45:00 8.6 C 8.42 g/m*3 8.6 C 0 km/h
2138 20-12-2015 12:50:00 8.6 C 8.42 g/m*3 8.6 C 0 km/h
2139 20-12-2015 12:55:00 8.6 C 8.42 g/m*3 8.6 C 0 km/h
2140 20-12-2015 13:00:00 8.7 C 8.48 g/m*3 8.7 C 0 km/h
2141 20-12-2015 13:05:00 8.7 C 8.48 g/m*3 8.7 C 0 km/h
2142 20-12-2015 13:10:00 8.7 C 8.48 g/m*3 8.7 C 0 km/h
2143 20-12-2015 13:15:00 8.7 C 8.48 g/m*3 8.7 C 0 km/h
2144 20-12-2015 13:20:00 8.7 C 8.48 g/m*3 8.7 C 0 km/h
2145 20-12-2015 13:25:00 8.7 C 8.48 g/m*3 8.7 C 0 km/h
2146 20-12-2015 13:30:00 8.7 C 8.48 g/m*3 8.7 C 1.6 km/h
2147 20-12-2015 13:35:00 8.7 C 8.48 g/m*3 8.7 C 0 km/h
2148 20-12-2015 13:40:00 8.6 C 8.42 g/m*3 8.6 C 0 km/h
2149 20-12-2015 13:45:00 8.7 C 8.48 g/m*3 8.7 C 0 km/h
2150 20-12-2015 13:50:00 8.7 C 8.48 g/m*3 8.7 C 0 km/h
Sensor: Nr:Datum:Temp:Abs-Feuchte:Windchill:Wind:
Aussen-T/F 2151 20-12-2015 13:55:00 8.8 C 8.53 g/m*3 8.8 C 0 km/h
2152 20-12-2015 14:00:00 8.8 C 8.53 g/m*3 8.8 C 0 km/h
2153 20-12-2015 14:05:00 8.9 C 8.58 g/m*3 8.9 C 0 km/h
2154 20-12-2015 14:10:00 8.9 C 8.58 g/m*3 8.9 C 1.6 km/h
2155 20-12-2015 14:15:00 9 C 8.64 g/m*3 9 C 3.2 km/h
2156 20-12-2015 14:20:00 9 C 8.64 g/m*3 8.21 C 6.4 km/h
2157 20-12-2015 14:25:00 8.9 C 8.58 g/m*3 8.9 C 3.2 km/h
2158 20-12-2015 14:30:00 8.9 C 8.58 g/m*3 8.9 C 4.8 km/h
2159 20-12-2015 14:35:00 9 C 8.64 g/m*3 7.49 C 9.7 km/h
2160 20-12-2015 14:40:00 9 C 8.64 g/m*3 7.49 C 9.7 km/h
2161 20-12-2015 14:45:00 9 C 8.64 g/m*3 8.21 C 6.4 km/h
2162 20-12-2015 14:50:00 9 C 8.64 g/m*3 7.49 C 9.7 km/h
2163 20-12-2015 14:55:00 9.1 C 8.7 g/m*3 8.33 C 6.4 km/h
2164 20-12-2015 15:00:00 9.2 C 8.75 g/m*3 8.05 C 8.1 km/h
2165 20-12-2015 15:05:00 9.3 C 8.81 g/m*3 8.56 C 6.4 km/h
2166 20-12-2015 15:10:00 9.3 C 8.81 g/m*3 9.3 C 4.8 km/h
2167 20-12-2015 15:15:00 9.3 C 8.72 g/m*3 9.3 C 4.8 km/h
2168 20-12-2015 15:20:00 9.4 C 8.77 g/m*3 9.4 C 3.2 km/h
2169 20-12-2015 15:25:00 9.4 C 8.77 g/m*3 9.4 C 0 km/h
2170 20-12-2015 15:30:00 9.5 C 8.83 g/m*3 9.5 C 1.6 km/h
2171 20-12-2015 15:35:00 9.5 C 8.83 g/m*3 9.5 C 1.6 km/h
2172 20-12-2015 15:40:00 9.6 C 8.89 g/m*3 9.6 C 0 km/h
2173 20-12-2015 15:45:00 9.5 C 8.83 g/m*3 9.5 C 0 km/h
2174 20-12-2015 15:50:00 9.5 C 8.83 g/m*3 9.5 C 0 km/h
2175 20-12-2015 15:55:00 9.4 C 8.77 g/m*3 9.4 C 0 km/h
Sensor: Nr:Datum:Temp:Abs-Feuchte:Windchill:Wind:
Aussen-T/F 2176 20-12-2015 16:00:00 9.4 C 8.77 g/m*3 9.4 C 4.8 km/h
2177 20-12-2015 16:05:00 9.4 C 8.68 g/m*3 9.4 C 1.6 km/h
2178 20-12-2015 16:10:00 9.3 C 8.63 g/m*3 9.3 C 0 km/h
2179 20-12-2015 16:15:00 9.3 C 8.63 g/m*3 9.3 C 0 km/h
2180 20-12-2015 16:20:00 9.3 C 8.63 g/m*3 9.3 C 3.2 km/h
2181 20-12-2015 16:25:00 9.3 C 8.63 g/m*3 9.3 C 1.6 km/h
2182 20-12-2015 16:30:00 9.3 C 8.63 g/m*3 9.3 C 0 km/h
2183 20-12-2015 16:35:00 9.2 C 8.57 g/m*3 9.2 C 0 km/h
2184 20-12-2015 16:40:00 9.2 C 8.57 g/m*3 9.2 C 0 km/h
2185 20-12-2015 16:45:00 9.2 C 8.57 g/m*3 9.2 C 1.6 km/h
2186 20-12-2015 16:50:00 9.2 C 8.57 g/m*3 9.2 C 0 km/h
2187 20-12-2015 16:55:00 9.3 C 8.63 g/m*3 9.3 C 0 km/h
2188 20-12-2015 17:00:00 9.3 C 8.63 g/m*3 9.3 C 0 km/h
2189 20-12-2015 17:05:00 9.3 C 8.63 g/m*3 9.3 C 1.6 km/h
2190 20-12-2015 17:10:00 9.3 C 8.63 g/m*3 9.3 C 3.2 km/h
2191 20-12-2015 17:15:00 9.4 C 8.59 g/m*3 9.4 C 1.6 km/h
2192 20-12-2015 17:20:00 9.4 C 8.59 g/m*3 9.4 C 3.2 km/h
2193 20-12-2015 17:25:00 9.4 C 8.59 g/m*3 9.4 C 0 km/h
2194 20-12-2015 17:30:00 9.4 C 8.59 g/m*3 9.4 C 1.6 km/h
2195 20-12-2015 17:35:00 9.4 C 8.59 g/m*3 9.4 C 1.6 km/h
2196 20-12-2015 17:40:00 9.3 C 8.54 g/m*3 9.3 C 0 km/h
2197 20-12-2015 17:45:00 9.3 C 8.54 g/m*3 9.3 C 0 km/h
2198 20-12-2015 17:50:00 9.3 C 8.54 g/m*3 9.3 C 0 km/h
2199 20-12-2015 17:55:00 9.3 C 8.54 g/m*3 9.3 C 0 km/h
2200 20-12-2015 18:00:00 9.3 C 8.54 g/m*3 9.3 C 1.6 km/h
Sensor: Nr:Datum:Temp:Abs-Feuchte:Windchill:Wind:
Aussen-T/F 2201 20-12-2015 18:05:00 9.4 C 8.59 g/m*3 9.4 C 0 km/h
2202 20-12-2015 18:10:00 9.4 C 8.59 g/m*3 9.4 C 0 km/h
2203 20-12-2015 18:15:00 9.4 C 8.59 g/m*3 9.4 C 0 km/h
2204 20-12-2015 18:20:00 9.5 C 8.65 g/m*3 9.5 C 0 km/h
2205 20-12-2015 18:25:00 9.6 C 8.7 g/m*3 9.6 C 0 km/h
2206 20-12-2015 18:30:00 9.6 C 8.7 g/m*3 9.6 C 1.6 km/h
2207 20-12-2015 18:35:00 9.7 C 8.76 g/m*3 9.7 C 0 km/h
2208 20-12-2015 18:40:00 9.7 C 8.76 g/m*3 9.7 C 3.2 km/h
2209 20-12-2015 18:45:00 9.7 C 8.76 g/m*3 9.7 C 3.2 km/h
2210 20-12-2015 18:50:00 9.8 C 8.81 g/m*3 9.8 C 3.2 km/h
2211 20-12-2015 18:55:00 9.8 C 8.72 g/m*3 9.8 C 1.6 km/h
2212 20-12-2015 19:00:00 9.9 C 8.78 g/m*3 9.9 C 0 km/h
2213 20-12-2015 19:05:00 9.9 C 8.78 g/m*3 9.9 C 1.6 km/h
2214 20-12-2015 19:10:00 9.9 C 8.68 g/m*3 9.9 C 3.2 km/h
2215 20-12-2015 19:15:00 10 C 8.74 g/m*3 9.37 C 6.4 km/h
2216 20-12-2015 19:20:00 10 C 8.74 g/m*3 10 C 1.6 km/h
2217 20-12-2015 19:25:00 10 C 8.74 g/m*3 10 C 3.2 km/h
2218 20-12-2015 19:30:00 10 C 8.74 g/m*3 10 C 3.2 km/h
2219 20-12-2015 19:35:00 10.1 C 8.89 g/m*3 10.1 C 0 km/h
2220 20-12-2015 19:40:00 10.1 C 8.89 g/m*3 10.1 C 0 km/h
2221 20-12-2015 19:45:00 10 C 8.83 g/m*3 10 C 3.2 km/h
2222 20-12-2015 19:50:00 10 C 8.74 g/m*3 10 C 1.6 km/h
2223 20-12-2015 19:55:00 10 C 8.74 g/m*3 10 C 0 km/h
2224 20-12-2015 20:00:00 10.1 C 8.79 g/m*3 10.1 C 0 km/h
2225 20-12-2015 20:05:00 10.1 C 8.79 g/m*3 10.1 C 1.6 km/h
Sensor: Nr:Datum:Temp:Abs-Feuchte:Windchill:Wind:
Aussen-T/F 2226 20-12-2015 20:10:00 10.1 C 8.79 g/m*3 10.1 C 1.6 km/h
2227 20-12-2015 20:15:00 10.1 C 8.79 g/m*3 10.1 C 0 km/h
2228 20-12-2015 20:20:00 10.1 C 8.79 g/m*3 10.1 C 1.6 km/h
2229 20-12-2015 20:25:00 10 C 8.74 g/m*3 10 C 1.6 km/h
2230 20-12-2015 20:30:00 9.9 C 8.68 g/m*3 9.9 C 0 km/h
2231 20-12-2015 20:35:00 9.8 C 8.63 g/m*3 9.8 C 0 km/h
2232 20-12-2015 20:40:00 9.8 C 8.63 g/m*3 9.8 C 1.6 km/h
2233 20-12-2015 20:45:00 9.8 C 8.63 g/m*3 9.8 C 0 km/h
2234 20-12-2015 20:50:00 9.7 C 8.57 g/m*3 9.7 C 0 km/h
2235 20-12-2015 20:55:00 9.7 C 8.57 g/m*3 9.7 C 0 km/h
2236 20-12-2015 21:00:00 9.6 C 8.61 g/m*3 9.6 C 0 km/h
2237 20-12-2015 21:05:00 9.6 C 8.61 g/m*3 9.6 C 1.6 km/h
2238 20-12-2015 21:10:00 9.5 C 8.56 g/m*3 9.5 C 0 km/h
2239 20-12-2015 21:15:00 9.4 C 8.5 g/m*3 9.4 C 0 km/h
2240 20-12-2015 21:20:00 9.4 C 8.5 g/m*3 9.4 C 0 km/h
2241 20-12-2015 21:25:00 9.4 C 8.5 g/m*3 9.4 C 3.2 km/h
2242 20-12-2015 21:30:00 9.4 C 8.5 g/m*3 9.4 C 0 km/h
2243 20-12-2015 21:35:00 9.4 C 8.5 g/m*3 9.4 C 0 km/h
2244 20-12-2015 21:40:00 9.4 C 8.5 g/m*3 9.4 C 1.6 km/h
2245 20-12-2015 21:45:00 9.3 C 8.45 g/m*3 9.3 C 0 km/h
2246 20-12-2015 21:50:00 9.3 C 8.45 g/m*3 9.3 C 0 km/h
2247 20-12-2015 21:55:00 9.3 C 8.45 g/m*3 9.3 C 0 km/h
2248 20-12-2015 22:00:00 9.3 C 8.45 g/m*3 9.3 C 0 km/h
2249 20-12-2015 22:05:00 9.3 C 8.54 g/m*3 9.3 C 3.2 km/h
2250 20-12-2015 22:10:00 9.3 C 8.54 g/m*3 9.3 C 1.6 km/h
Sensor: Nr:Datum:Temp:Abs-Feuchte:Windchill:Wind:
Aussen-T/F 2251 20-12-2015 22:15:00 9.3 C 8.54 g/m*3 9.3 C 1.6 km/h
2252 20-12-2015 22:20:00 9.3 C 8.54 g/m*3 9.3 C 0 km/h
2253 20-12-2015 22:25:00 9.3 C 8.54 g/m*3 9.3 C 0 km/h
2254 20-12-2015 22:30:00 9.2 C 8.48 g/m*3 9.2 C 0 km/h
2255 20-12-2015 22:35:00 9.2 C 8.48 g/m*3 9.2 C 0 km/h
2256 20-12-2015 22:40:00 9.2 C 8.48 g/m*3 9.2 C 0 km/h
2257 20-12-2015 22:45:00 9.2 C 8.48 g/m*3 9.2 C 0 km/h
2258 20-12-2015 22:50:00 9.1 C 8.43 g/m*3 9.1 C 0 km/h
2259 20-12-2015 22:55:00 9.1 C 8.43 g/m*3 9.1 C 0 km/h
2260 20-12-2015 23:00:00 9.1 C 8.43 g/m*3 9.1 C 0 km/h
2261 20-12-2015 23:05:00 9.1 C 8.43 g/m*3 9.1 C 0 km/h
2262 20-12-2015 23:10:00 9.1 C 8.43 g/m*3 9.1 C 0 km/h
2263 20-12-2015 23:15:00 9 C 8.38 g/m*3 9 C 0 km/h
2264 20-12-2015 23:20:00 8.9 C 8.32 g/m*3 8.9 C 0 km/h
2265 20-12-2015 23:25:00 8.9 C 8.32 g/m*3 8.9 C 0 km/h
2266 20-12-2015 23:30:00 8.9 C 8.32 g/m*3 8.9 C 1.6 km/h
2267 20-12-2015 23:35:00 8.9 C 8.32 g/m*3 8.9 C 0 km/h
2268 20-12-2015 23:40:00 8.9 C 8.32 g/m*3 8.9 C 0 km/h
2269 20-12-2015 23:45:00 8.9 C 8.32 g/m*3 8.9 C 0 km/h
2270 20-12-2015 23:50:00 8.9 C 8.41 g/m*3 8.9 C 0 km/h
2271 20-12-2015 23:55:00 8.9 C 8.41 g/m*3 8.9 C 0 km/h
2272 21-12-2015 00:00:00 8.9 C 8.32 g/m*3 8.9 C 0 km/h
2273 21-12-2015 00:05:00 8.9 C 8.32 g/m*3 8.9 C 0 km/h
2274 21-12-2015 00:10:00 8.8 C 8.36 g/m*3 8.8 C 0 km/h
2275 21-12-2015 00:15:00 8.8 C 8.36 g/m*3 8.8 C 0 km/h
Sensor: Nr:Datum:Temp:Abs-Feuchte:Windchill:Wind:
Aussen-T/F 2276 21-12-2015 00:20:00 8.8 C 8.36 g/m*3 8.8 C 0 km/h
2277 21-12-2015 00:25:00 8.7 C 8.22 g/m*3 8.7 C 0 km/h
2278 21-12-2015 00:30:00 8.7 C 8.22 g/m*3 8.7 C 0 km/h
2279 21-12-2015 00:35:00 8.7 C 8.22 g/m*3 8.7 C 0 km/h
2280 21-12-2015 00:40:00 8.7 C 8.3 g/m*3 8.7 C 0 km/h
2281 21-12-2015 00:45:00 8.7 C 8.3 g/m*3 8.7 C 0 km/h
2282 21-12-2015 00:50:00 8.7 C 8.3 g/m*3 8.7 C 0 km/h
2283 21-12-2015 00:55:00 8.8 C 8.36 g/m*3 8.8 C 0 km/h
2284 21-12-2015 01:00:00 8.8 C 8.36 g/m*3 8.8 C 0 km/h
2285 21-12-2015 01:05:00 8.8 C 8.36 g/m*3 8.8 C 0 km/h
2286 21-12-2015 01:10:00 8.8 C 8.36 g/m*3 8.8 C 0 km/h
2287 21-12-2015 01:15:00 8.8 C 8.36 g/m*3 8.8 C 0 km/h
2288 21-12-2015 01:20:00 8.8 C 8.36 g/m*3 8.8 C 0 km/h
2289 21-12-2015 01:25:00 8.8 C 8.36 g/m*3 8.8 C 1.6 km/h
2290 21-12-2015 01:30:00 8.8 C 8.36 g/m*3 8.8 C 1.6 km/h
2291 21-12-2015 01:35:00 8.7 C 8.3 g/m*3 8.7 C 0 km/h
2292 21-12-2015 01:40:00 8.7 C 8.3 g/m*3 8.7 C 0 km/h
2293 21-12-2015 01:45:00 8.7 C 8.3 g/m*3 8.7 C 0 km/h
2294 21-12-2015 01:50:00 8.8 C 8.36 g/m*3 8.8 C 0 km/h
2295 21-12-2015 01:55:00 8.8 C 8.36 g/m*3 8.8 C 1.6 km/h
2296 21-12-2015 02:00:00 8.7 C 8.3 g/m*3 8.7 C 0 km/h
2297 21-12-2015 02:05:00 8.7 C 8.3 g/m*3 8.7 C 0 km/h
2298 21-12-2015 02:10:00 8.7 C 8.3 g/m*3 8.7 C 0 km/h
2299 21-12-2015 02:15:00 8.7 C 8.3 g/m*3 8.7 C 0 km/h
2300 21-12-2015 02:20:00 8.7 C 8.3 g/m*3 8.7 C 0 km/h
Sensor: Nr:Datum:Temp:Abs-Feuchte:Windchill:Wind:
Aussen-T/F 2301 21-12-2015 02:25:00 8.7 C 8.3 g/m*3 8.7 C 0 km/h
2302 21-12-2015 02:30:00 8.7 C 8.3 g/m*3 8.7 C 1.6 km/h
2303 21-12-2015 02:35:00 8.7 C 8.3 g/m*3 8.7 C 3.2 km/h
2304 21-12-2015 02:40:00 8.7 C 8.3 g/m*3 8.7 C 0 km/h
2305 21-12-2015 02:45:00 8.7 C 8.3 g/m*3 8.7 C 3.2 km/h
2306 21-12-2015 02:50:00 8.7 C 8.3 g/m*3 8.7 C 0 km/h
2307 21-12-2015 02:55:00 8.7 C 8.3 g/m*3 8.7 C 0 km/h
2308 21-12-2015 03:00:00 8.8 C 8.36 g/m*3 8.8 C 0 km/h
2309 21-12-2015 03:05:00 8.9 C 8.41 g/m*3 8.9 C 0 km/h
2310 21-12-2015 03:10:00 8.9 C 8.41 g/m*3 8.9 C 0 km/h
2311 21-12-2015 03:15:00 9 C 8.55 g/m*3 9 C 0 km/h
2312 21-12-2015 03:20:00 9.1 C 8.61 g/m*3 9.1 C 0 km/h
2313 21-12-2015 03:25:00 9.1 C 8.61 g/m*3 9.1 C 0 km/h
2314 21-12-2015 03:30:00 9.2 C 8.57 g/m*3 9.2 C 0 km/h
2315 21-12-2015 03:35:00 9.2 C 8.57 g/m*3 9.2 C 3.2 km/h
2316 21-12-2015 03:40:00 9.3 C 8.72 g/m*3 9.3 C 4.8 km/h
2317 21-12-2015 03:45:00 9.4 C 8.77 g/m*3 9.4 C 3.2 km/h
2318 21-12-2015 03:50:00 9.6 C 8.89 g/m*3 9.6 C 3.2 km/h
2319 21-12-2015 03:55:00 9.7 C 8.94 g/m*3 9.7 C 4.8 km/h
2320 21-12-2015 04:00:00 9.8 C 9 g/m*3 9.8 C 3.2 km/h
2321 21-12-2015 04:05:00 9.9 C 8.96 g/m*3 9.25 C 6.4 km/h
2322 21-12-2015 04:10:00 9.9 C 8.96 g/m*3 9.25 C 6.4 km/h
2323 21-12-2015 04:15:00 9.9 C 8.96 g/m*3 9.9 C 3.2 km/h
2324 21-12-2015 04:20:00 9.9 C 8.96 g/m*3 9.9 C 3.2 km/h
2325 21-12-2015 04:25:00 10 C 9.02 g/m*3 9.37 C 6.4 km/h
Sensor: Nr:Datum:Temp:Abs-Feuchte:Windchill:Wind:
Aussen-T/F 2326 21-12-2015 04:30:00 10 C 9.02 g/m*3 10 C 4.8 km/h
2327 21-12-2015 04:35:00 9.9 C 8.96 g/m*3 8.87 C 8.1 km/h
2328 21-12-2015 04:40:00 9.8 C 8.91 g/m*3 9.14 C 6.4 km/h
2329 21-12-2015 04:45:00 9.8 C 8.91 g/m*3 8.75 C 8.1 km/h
2330 21-12-2015 04:50:00 9.7 C 8.85 g/m*3 9.7 C 3.2 km/h
2331 21-12-2015 04:55:00 9.7 C 8.85 g/m*3 9.7 C 4.8 km/h
2332 21-12-2015 05:00:00 9.6 C 8.79 g/m*3 8.21 C 9.7 km/h
2333 21-12-2015 05:05:00 9.6 C 8.7 g/m*3 8.91 C 6.4 km/h
2334 21-12-2015 05:10:00 9.5 C 8.65 g/m*3 9.5 C 4.8 km/h
2335 21-12-2015 05:15:00 9.4 C 8.59 g/m*3 8.28 C 8.1 km/h
2336 21-12-2015 05:20:00 9.3 C 8.54 g/m*3 9.3 C 4.8 km/h
2337 21-12-2015 05:25:00 9.3 C 8.54 g/m*3 8.16 C 8.1 km/h
2338 21-12-2015 05:30:00 9.2 C 8.48 g/m*3 8.05 C 8.1 km/h
2339 21-12-2015 05:35:00 9.2 C 8.39 g/m*3 8.45 C 6.4 km/h
2340 21-12-2015 05:40:00 9.2 C 8.39 g/m*3 9.2 C 4.8 km/h
2341 21-12-2015 05:45:00 9.1 C 8.34 g/m*3 9.1 C 4.8 km/h
2342 21-12-2015 05:50:00 9.1 C 8.34 g/m*3 8.33 C 6.4 km/h
2343 21-12-2015 05:55:00 9.1 C 8.34 g/m*3 9.1 C 4.8 km/h
2344 21-12-2015 06:00:00 9.1 C 8.34 g/m*3 9.1 C 3.2 km/h
2345 21-12-2015 06:05:00 9.1 C 8.34 g/m*3 9.1 C 0 km/h
2346 21-12-2015 06:10:00 9 C 8.29 g/m*3 9 C 1.6 km/h
2347 21-12-2015 06:15:00 8.9 C 8.23 g/m*3 8.9 C 4.8 km/h
2348 21-12-2015 06:20:00 8.9 C 8.32 g/m*3 8.9 C 3.2 km/h
2349 21-12-2015 06:25:00 8.9 C 8.32 g/m*3 8.9 C 1.6 km/h
2350 21-12-2015 06:30:00 8.8 C 8.27 g/m*3 8.8 C 1.6 km/h
Sensor: Nr:Datum:Temp:Abs-Feuchte:Windchill:Wind:
Aussen-T/F 2351 21-12-2015 06:35:00 8.8 C 8.27 g/m*3 8.8 C 3.2 km/h
2352 21-12-2015 06:40:00 8.8 C 8.27 g/m*3 8.8 C 0 km/h
2353 21-12-2015 06:45:00 8.7 C 8.22 g/m*3 8.7 C 1.6 km/h
2354 21-12-2015 06:50:00 8.6 C 8.16 g/m*3 8.6 C 1.6 km/h
2355 21-12-2015 06:55:00 8.6 C 8.16 g/m*3 8.6 C 3.2 km/h
2356 21-12-2015 07:00:00 8.6 C 8.16 g/m*3 8.6 C 1.6 km/h
2357 21-12-2015 07:05:00 8.6 C 8.25 g/m*3 8.6 C 0 km/h
2358 21-12-2015 07:10:00 8.5 C 8.2 g/m*3 8.5 C 1.6 km/h
2359 21-12-2015 07:15:00 8.5 C 8.2 g/m*3 8.5 C 3.2 km/h
2360 21-12-2015 07:20:00 8.5 C 8.2 g/m*3 8.5 C 1.6 km/h
2361 21-12-2015 07:25:00 8.4 C 8.14 g/m*3 8.4 C 1.6 km/h
2362 21-12-2015 07:30:00 8.4 C 8.14 g/m*3 7.11 C 8.1 km/h
2363 21-12-2015 07:35:00 8.4 C 8.14 g/m*3 8.4 C 3.2 km/h
2364 21-12-2015 07:40:00 8.5 C 8.2 g/m*3 8.5 C 4.8 km/h
2365 21-12-2015 07:45:00 8.5 C 8.11 g/m*3 8.5 C 3.2 km/h
2366 21-12-2015 07:50:00 8.6 C 8.16 g/m*3 7.75 C 6.4 km/h
2367 21-12-2015 07:55:00 8.6 C 8.16 g/m*3 6.48 C 12.9 km/h
2368 21-12-2015 08:00:00 8.8 C 8.27 g/m*3 6.72 C 12.9 km/h
2369 21-12-2015 08:05:00 8.8 C 8.18 g/m*3 7.25 C 9.7 km/h
2370 21-12-2015 08:10:00 8.9 C 8.15 g/m*3 7.69 C 8.1 km/h
2371 21-12-2015 08:15:00 9.1 C 8.25 g/m*3 7.09 C 12.9 km/h
2372 21-12-2015 08:20:00 9.1 C 8.16 g/m*3 6.87 C 14.5 km/h
2373 21-12-2015 08:25:00 9.1 C 8.16 g/m*3 7.09 C 12.9 km/h
2374 21-12-2015 08:30:00 9.1 C 8.16 g/m*3 7.33 C 11.3 km/h
2375 21-12-2015 08:35:00 9.1 C 8.16 g/m*3 6.67 C 16.1 km/h
Sensor: Nr:Datum:Temp:Abs-Feuchte:Windchill:Wind:
Aussen-T/F 2376 21-12-2015 08:40:00 9.2 C 8.22 g/m*3 7.73 C 9.7 km/h
2377 21-12-2015 08:45:00 9.2 C 8.22 g/m*3 7.73 C 9.7 km/h
2378 21-12-2015 08:50:00 9.2 C 8.22 g/m*3 7.46 C 11.3 km/h
2379 21-12-2015 08:55:00 9.2 C 8.22 g/m*3 7.21 C 12.9 km/h
2380 21-12-2015 09:00:00 9.3 C 8.18 g/m*3 7.33 C 12.9 km/h
2381 21-12-2015 09:05:00 9.3 C 8.18 g/m*3 7.12 C 14.5 km/h
2382 21-12-2015 09:10:00 9.3 C 8.18 g/m*3 7.58 C 11.3 km/h
2383 21-12-2015 09:15:00 9.3 C 8.18 g/m*3 7.58 C 11.3 km/h
2384 21-12-2015 09:20:00 9.2 C 8.13 g/m*3 7.73 C 9.7 km/h
2385 21-12-2015 09:25:00 9.1 C 8.07 g/m*3 6.67 C 16.1 km/h
2386 21-12-2015 09:30:00 9.2 C 8.13 g/m*3 7.21 C 12.9 km/h
2387 21-12-2015 09:35:00 9.3 C 8.18 g/m*3 6.73 C 17.7 km/h
2388 21-12-2015 09:40:00 9.3 C 8.18 g/m*3 6.73 C 17.7 km/h
2389 21-12-2015 09:45:00 9.3 C 8.18 g/m*3 7.58 C 11.3 km/h
2390 21-12-2015 09:50:00 9.3 C 8.18 g/m*3 9.3 C 3.2 km/h
2391 21-12-2015 09:55:00 9.3 C 8.18 g/m*3 8.16 C 8.1 km/h
2392 21-12-2015 10:00:00 9.3 C 8.18 g/m*3 7.58 C 11.3 km/h
2393 21-12-2015 10:05:00 9.4 C 8.23 g/m*3 7.7 C 11.3 km/h
2394 21-12-2015 10:10:00 9.6 C 8.34 g/m*3 8.21 C 9.7 km/h
2395 21-12-2015 10:15:00 9.7 C 8.3 g/m*3 8.63 C 8.1 km/h
2396 21-12-2015 10:20:00 9.8 C 8.26 g/m*3 7.73 C 14.5 km/h
2397 21-12-2015 10:25:00 9.9 C 8.31 g/m*3 8.06 C 12.9 km/h
2398 21-12-2015 10:30:00 10.1 C 8.42 g/m*3 8.54 C 11.3 km/h
2399 21-12-2015 10:35:00 10.1 C 8.32 g/m*3 7.91 C 16.1 km/h
2400 21-12-2015 10:40:00 10.2 C 8.37 g/m*3 8.43 C 12.9 km/h
Sensor: Nr:Datum:Temp:Abs-Feuchte:Windchill:Wind:
Aussen-T/F 2401 21-12-2015 10:45:00 10.2 C 8.37 g/m*3 8.66 C 11.3 km/h
2402 21-12-2015 10:50:00 10.3 C 8.43 g/m*3 8.55 C 12.9 km/h
2403 21-12-2015 10:55:00 10.4 C 8.38 g/m*3 8.67 C 12.9 km/h
2404 21-12-2015 11:00:00 10.5 C 8.44 g/m*3 9.02 C 11.3 km/h
2405 21-12-2015 11:05:00 10.6 C 8.49 g/m*3 8.53 C 16.1 km/h
2406 21-12-2015 11:10:00 10.6 C 8.49 g/m*3 9.14 C 11.3 km/h
2407 21-12-2015 11:15:00 10.7 C 8.45 g/m*3 9.04 C 12.9 km/h
2408 21-12-2015 11:20:00 10.8 C 8.5 g/m*3 8.45 C 19.3 km/h
2409 21-12-2015 11:25:00 10.9 C 8.45 g/m*3 8.58 C 19.3 km/h
2410 21-12-2015 11:30:00 11 C 8.41 g/m*3 8.86 C 17.7 km/h
2411 21-12-2015 11:35:00 11 C 8.41 g/m*3 9.02 C 16.1 km/h
2412 21-12-2015 11:40:00 11.1 C 8.56 g/m*3 11.1 C 12.9 km/h
2413 21-12-2015 11:45:00 11.1 C 8.56 g/m*3 11.1 C 16.1 km/h
2414 21-12-2015 11:50:00 11.1 C 8.46 g/m*3 11.1 C 17.7 km/h
2415 21-12-2015 11:55:00 11.1 C 8.46 g/m*3 11.1 C 16.1 km/h
2416 21-12-2015 12:00:00 11.1 C 8.46 g/m*3 11.1 C 16.1 km/h
2417 21-12-2015 12:05:00 11 C 8.41 g/m*3 8.86 C 17.7 km/h
2418 21-12-2015 12:10:00 10.9 C 8.45 g/m*3 9.28 C 12.9 km/h
2419 21-12-2015 12:15:00 10.8 C 8.5 g/m*3 8.96 C 14.5 km/h
2420 21-12-2015 12:20:00 10.7 C 8.45 g/m*3 9.52 C 9.7 km/h
2421 21-12-2015 12:25:00 10.7 C 8.55 g/m*3 9.26 C 11.3 km/h
2422 21-12-2015 12:30:00 10.6 C 8.49 g/m*3 9.14 C 11.3 km/h
2423 21-12-2015 12:35:00 10.6 C 8.49 g/m*3 8.71 C 14.5 km/h
2424 21-12-2015 12:40:00 10.6 C 8.3 g/m*3 9.69 C 8.1 km/h
2425 21-12-2015 12:45:00 10.6 C 8.3 g/m*3 8.92 C 12.9 km/h
Sensor: Nr:Datum:Temp:Abs-Feuchte:Windchill:Wind:
Aussen-T/F 2426 21-12-2015 12:50:00 10.7 C 8.35 g/m*3 9.26 C 11.3 km/h
2427 21-12-2015 12:55:00 10.8 C 8.3 g/m*3 8.45 C 19.3 km/h
2428 21-12-2015 13:00:00 10.8 C 8.5 g/m*3 8.3 C 20.9 km/h
2429 21-12-2015 13:05:00 10.7 C 8.55 g/m*3 9.26 C 11.3 km/h
2430 21-12-2015 13:10:00 10.5 C 8.53 g/m*3 10.5 C 4.8 km/h
2431 21-12-2015 13:15:00 10.4 C 8.58 g/m*3 10.4 C 3.2 km/h
2432 21-12-2015 13:20:00 10.3 C 8.52 g/m*3 8.78 C 11.3 km/h
2433 21-12-2015 13:25:00 10.2 C 8.66 g/m*3 9.6 C 6.4 km/h
2434 21-12-2015 13:30:00 10.1 C 8.61 g/m*3 9.48 C 6.4 km/h
2435 21-12-2015 13:35:00 10.1 C 8.42 g/m*3 8.1 C 14.5 km/h
2436 21-12-2015 13:40:00 10 C 8.27 g/m*3 7.78 C 16.1 km/h
2437 21-12-2015 13:45:00 10 C 8.27 g/m*3 8.99 C 8.1 km/h
2438 21-12-2015 13:50:00 10 C 8.36 g/m*3 8.68 C 9.7 km/h
2439 21-12-2015 13:55:00 10.1 C 8.42 g/m*3 8.1 C 14.5 km/h
2440 21-12-2015 14:00:00 10.1 C 8.32 g/m*3 8.54 C 11.3 km/h
2441 21-12-2015 14:05:00 10.2 C 8.37 g/m*3 8.66 C 11.3 km/h
2442 21-12-2015 14:10:00 10.2 C 8.37 g/m*3 8.66 C 11.3 km/h
2443 21-12-2015 14:15:00 10.3 C 8.33 g/m*3 7.4 C 24.1 km/h
2444 21-12-2015 14:20:00 10.4 C 8.38 g/m*3 8.11 C 17.7 km/h
2445 21-12-2015 14:25:00 10.5 C 8.34 g/m*3 9.02 C 11.3 km/h
2446 21-12-2015 14:30:00 10.6 C 8.3 g/m*3 8.36 C 17.7 km/h
2447 21-12-2015 14:35:00 10.6 C 8.2 g/m*3 8.53 C 16.1 km/h
2448 21-12-2015 14:40:00 10.6 C 8.1 g/m*3 7.78 C 24.1 km/h
2449 21-12-2015 14:45:00 10.6 C 8.1 g/m*3 9.4 C 9.7 km/h
2450 21-12-2015 14:50:00 10.6 C 8.1 g/m*3 9.4 C 9.7 km/h
Sensor: Nr:Datum:Temp:Abs-Feuchte:Windchill:Wind:
Aussen-T/F 2451 21-12-2015 14:55:00 10.6 C 8.1 g/m*3 8.36 C 17.7 km/h
2452 21-12-2015 15:00:00 10.6 C 8.1 g/m*3 9.14 C 11.3 km/h
2453 21-12-2015 15:05:00 10.5 C 8.05 g/m*3 9.02 C 11.3 km/h
2454 21-12-2015 15:10:00 10.6 C 8.1 g/m*3 8.2 C 19.3 km/h
2455 21-12-2015 15:15:00 10.7 C 8.05 g/m*3 8.32 C 19.3 km/h
2456 21-12-2015 15:20:00 10.8 C 8.11 g/m*3 8.78 C 16.1 km/h
2457 21-12-2015 15:25:00 10.7 C 8.05 g/m*3 8.84 C 14.5 km/h
2458 21-12-2015 15:30:00 10.8 C 8.11 g/m*3 9.16 C 12.9 km/h
2459 21-12-2015 15:35:00 10.7 C 8.05 g/m*3 9.81 C 8.1 km/h
2460 21-12-2015 15:40:00 10.7 C 8.05 g/m*3 9.04 C 12.9 km/h
2461 21-12-2015 15:45:00 10.7 C 8.05 g/m*3 9.04 C 12.9 km/h
2462 21-12-2015 15:50:00 10.7 C 7.96 g/m*3 8.65 C 16.1 km/h
2463 21-12-2015 15:55:00 10.8 C 8.01 g/m*3 8.78 C 16.1 km/h
2464 21-12-2015 16:00:00 10.8 C 8.01 g/m*3 9.16 C 12.9 km/h
2465 21-12-2015 16:05:00 10.8 C 8.01 g/m*3 9.93 C 8.1 km/h
2466 21-12-2015 16:10:00 10.7 C 7.96 g/m*3 8.84 C 14.5 km/h
2467 21-12-2015 16:15:00 10.7 C 7.96 g/m*3 8.65 C 16.1 km/h
2468 21-12-2015 16:20:00 10.7 C 7.96 g/m*3 8.84 C 14.5 km/h
2469 21-12-2015 16:25:00 10.7 C 7.96 g/m*3 9.26 C 11.3 km/h
2470 21-12-2015 16:30:00 10.7 C 7.96 g/m*3 8.65 C 16.1 km/h
2471 21-12-2015 16:35:00 10.7 C 7.96 g/m*3 8.65 C 16.1 km/h
2472 21-12-2015 16:40:00 10.7 C 7.96 g/m*3 9.04 C 12.9 km/h
2473 21-12-2015 16:45:00 10.7 C 8.05 g/m*3 9.26 C 11.3 km/h
2474 21-12-2015 16:50:00 10.7 C 7.96 g/m*3 8.65 C 16.1 km/h
2475 21-12-2015 16:55:00 10.7 C 7.96 g/m*3 9.04 C 12.9 km/h
Sensor: Nr:Datum:Temp:Abs-Feuchte:Windchill:Wind:
Aussen-T/F 2476 21-12-2015 17:00:00 10.7 C 8.05 g/m*3 8.48 C 17.7 km/h
2477 21-12-2015 17:05:00 10.6 C 8 g/m*3 9.69 C 8.1 km/h
2478 21-12-2015 17:10:00 10.6 C 8 g/m*3 9.4 C 9.7 km/h
2479 21-12-2015 17:15:00 10.6 C 8 g/m*3 10.6 C 4.8 km/h
2480 21-12-2015 17:20:00 10.6 C 8 g/m*3 10.6 C 4.8 km/h
2481 21-12-2015 17:25:00 10.6 C 8 g/m*3 8.92 C 12.9 km/h
2482 21-12-2015 17:30:00 10.6 C 8 g/m*3 9.69 C 8.1 km/h
2483 21-12-2015 17:35:00 10.6 C 8 g/m*3 9.69 C 8.1 km/h
2484 21-12-2015 17:40:00 10.6 C 7.91 g/m*3 8.71 C 14.5 km/h
2485 21-12-2015 17:45:00 10.7 C 7.96 g/m*3 8.65 C 16.1 km/h
2486 21-12-2015 17:50:00 10.7 C 7.86 g/m*3 9.26 C 11.3 km/h
2487 21-12-2015 17:55:00 10.7 C 7.86 g/m*3 8.48 C 17.7 km/h
2488 21-12-2015 18:00:00 10.8 C 7.91 g/m*3 8.45 C 19.3 km/h
2489 21-12-2015 18:05:00 10.9 C 7.86 g/m*3 9.28 C 12.9 km/h
2490 21-12-2015 18:10:00 10.9 C 7.76 g/m*3 7.92 C 27.4 km/h
2491 21-12-2015 18:15:00 11.1 C 7.86 g/m*3 11.1 C 12.9 km/h
2492 21-12-2015 18:20:00 11.1 C 7.86 g/m*3 11.1 C 20.9 km/h
2493 21-12-2015 18:25:00 11.2 C 7.91 g/m*3 11.2 C 24.1 km/h
2494 21-12-2015 18:30:00 11.2 C 7.91 g/m*3 11.2 C 16.1 km/h
2495 21-12-2015 18:35:00 11.2 C 7.91 g/m*3 11.2 C 17.7 km/h
2496 21-12-2015 18:40:00 11.2 C 7.91 g/m*3 11.2 C 24.1 km/h
2497 21-12-2015 18:45:00 11.2 C 7.91 g/m*3 11.2 C 19.3 km/h
2498 21-12-2015 18:50:00 11.2 C 7.91 g/m*3 11.2 C 12.9 km/h
2499 21-12-2015 18:55:00 11.2 C 7.91 g/m*3 11.2 C 24.1 km/h
2500 21-12-2015 19:00:00 11.3 C 7.96 g/m*3 11.3 C 16.1 km/h
Sensor: Nr:Datum:Temp:Abs-Feuchte:Windchill:Wind:
Aussen-T/F 2501 21-12-2015 19:05:00 11.3 C 7.96 g/m*3 11.3 C 12.9 km/h
2502 21-12-2015 19:10:00 11.3 C 7.96 g/m*3 11.3 C 16.1 km/h
2503 21-12-2015 19:15:00 11.3 C 7.85 g/m*3 11.3 C 12.9 km/h
2504 21-12-2015 19:20:00 11.3 C 7.85 g/m*3 11.3 C 16.1 km/h
2505 21-12-2015 19:25:00 11.3 C 7.96 g/m*3 11.3 C 16.1 km/h
2506 21-12-2015 19:30:00 11.3 C 7.96 g/m*3 11.3 C 16.1 km/h
2507 21-12-2015 19:35:00 11.3 C 7.85 g/m*3 11.3 C 19.3 km/h
2508 21-12-2015 19:40:00 11.4 C 8.01 g/m*3 11.4 C 16.1 km/h
2509 21-12-2015 19:45:00 11.4 C 8.01 g/m*3 11.4 C 14.5 km/h
2510 21-12-2015 19:50:00 11.4 C 8.01 g/m*3 11.4 C 19.3 km/h
2511 21-12-2015 19:55:00 11.4 C 8.01 g/m*3 11.4 C 22.5 km/h
2512 21-12-2015 20:00:00 11.4 C 8.01 g/m*3 11.4 C 17.7 km/h
2513 21-12-2015 20:05:00 11.4 C 8.01 g/m*3 11.4 C 16.1 km/h
2514 21-12-2015 20:10:00 11.4 C 8.01 g/m*3 11.4 C 24.1 km/h
2515 21-12-2015 20:15:00 11.4 C 8.01 g/m*3 11.4 C 19.3 km/h
2516 21-12-2015 20:20:00 11.4 C 8.01 g/m*3 11.4 C 14.5 km/h
2517 21-12-2015 20:25:00 11.4 C 8.01 g/m*3 11.4 C 16.1 km/h
2518 21-12-2015 20:30:00 11.4 C 8.01 g/m*3 11.4 C 14.5 km/h
2519 21-12-2015 20:35:00 11.4 C 8.11 g/m*3 11.4 C 19.3 km/h
2520 21-12-2015 20:40:00 11.3 C 8.06 g/m*3 11.3 C 17.7 km/h
2521 21-12-2015 20:45:00 11.3 C 8.16 g/m*3 11.3 C 17.7 km/h
2522 21-12-2015 20:50:00 11.3 C 8.16 g/m*3 11.3 C 16.1 km/h
2523 21-12-2015 20:55:00 11.3 C 8.16 g/m*3 11.3 C 27.4 km/h
2524 21-12-2015 21:00:00 11.3 C 8.16 g/m*3 11.3 C 22.5 km/h
2525 21-12-2015 21:05:00 11.2 C 8.21 g/m*3 11.2 C 29 km/h
Sensor: Nr:Datum:Temp:Abs-Feuchte:Windchill:Wind:
Aussen-T/F 2526 21-12-2015 21:10:00 11.2 C 8.21 g/m*3 11.2 C 24.1 km/h
2527 21-12-2015 21:15:00 11.2 C 8.21 g/m*3 11.2 C 24.1 km/h
2528 21-12-2015 21:20:00 11.2 C 8.31 g/m*3 11.2 C 24.1 km/h
2529 21-12-2015 21:25:00 11.2 C 8.31 g/m*3 11.2 C 22.5 km/h
2530 21-12-2015 21:30:00 11.2 C 8.31 g/m*3 11.2 C 25.7 km/h
2531 21-12-2015 21:35:00 11.2 C 8.41 g/m*3 11.2 C 29 km/h
2532 21-12-2015 21:40:00 11.2 C 8.41 g/m*3 11.2 C 17.7 km/h
2533 21-12-2015 21:45:00 11.1 C 8.36 g/m*3 11.1 C 16.1 km/h
2534 21-12-2015 21:50:00 11.1 C 8.36 g/m*3 11.1 C 19.3 km/h
2535 21-12-2015 21:55:00 11.1 C 8.36 g/m*3 11.1 C 33.8 km/h
2536 21-12-2015 22:00:00 11.1 C 8.36 g/m*3 11.1 C 33.8 km/h
2537 21-12-2015 22:05:00 11.2 C 8.41 g/m*3 11.2 C 29 km/h
2538 21-12-2015 22:10:00 11.2 C 8.41 g/m*3 11.2 C 25.7 km/h
2539 21-12-2015 22:15:00 11.2 C 8.51 g/m*3 11.2 C 29 km/h
2540 21-12-2015 22:20:00 11.2 C 8.51 g/m*3 11.2 C 25.7 km/h
2541 21-12-2015 22:25:00 11.2 C 8.51 g/m*3 11.2 C 25.7 km/h
2542 21-12-2015 22:30:00 11.2 C 8.51 g/m*3 11.2 C 29 km/h
2543 21-12-2015 22:35:00 11.2 C 8.51 g/m*3 11.2 C 20.9 km/h
2544 21-12-2015 22:40:00 11.2 C 8.51 g/m*3 11.2 C 29 km/h
2545 21-12-2015 22:45:00 11.1 C 8.46 g/m*3 11.1 C 14.5 km/h
2546 21-12-2015 22:50:00 11.1 C 8.56 g/m*3 11.1 C 27.4 km/h
2547 21-12-2015 22:55:00 11.1 C 8.56 g/m*3 11.1 C 30.6 km/h
2548 21-12-2015 23:00:00 11.1 C 8.56 g/m*3 11.1 C 37 km/h
2549 21-12-2015 23:05:00 11.1 C 8.56 g/m*3 11.1 C 37 km/h
2550 21-12-2015 23:10:00 11.1 C 8.66 g/m*3 11.1 C 24.1 km/h
Sensor: Nr:Datum:Temp:Abs-Feuchte:Windchill:Wind:
Aussen-T/F 2551 21-12-2015 23:15:00 11 C 8.61 g/m*3 8.56 C 20.9 km/h
2552 21-12-2015 23:20:00 10.9 C 8.55 g/m*3 9.28 C 12.9 km/h
2553 21-12-2015 23:25:00 10.9 C 8.55 g/m*3 9.51 C 11.3 km/h
2554 21-12-2015 23:30:00 10.9 C 8.55 g/m*3 8.73 C 17.7 km/h
2555 21-12-2015 23:35:00 10.9 C 8.65 g/m*3 8.58 C 19.3 km/h
2556 21-12-2015 23:40:00 10.9 C 8.65 g/m*3 8.58 C 19.3 km/h
2557 21-12-2015 23:45:00 10.9 C 8.65 g/m*3 8.73 C 17.7 km/h
2558 21-12-2015 23:50:00 10.9 C 8.65 g/m*3 7.92 C 27.4 km/h
2559 21-12-2015 23:55:00 10.9 C 8.65 g/m*3 8.3 C 22.5 km/h
2560 22-12-2015 00:00:00 10.9 C 8.65 g/m*3 8.73 C 17.7 km/h
2561 22-12-2015 00:05:00 10.9 C 8.65 g/m*3 9.51 C 11.3 km/h
2562 22-12-2015 00:10:00 10.9 C 8.65 g/m*3 9.51 C 11.3 km/h
2563 22-12-2015 00:15:00 10.9 C 8.65 g/m*3 8.3 C 22.5 km/h
2564 22-12-2015 00:20:00 10.9 C 8.75 g/m*3 8.58 C 19.3 km/h
2565 22-12-2015 00:25:00 10.9 C 8.75 g/m*3 8.73 C 17.7 km/h
2566 22-12-2015 00:30:00 10.9 C 8.65 g/m*3 8.73 C 17.7 km/h
2567 22-12-2015 00:35:00 10.9 C 8.65 g/m*3 8.58 C 19.3 km/h
2568 22-12-2015 00:40:00 10.9 C 8.65 g/m*3 8.9 C 16.1 km/h
2569 22-12-2015 00:45:00 10.9 C 8.65 g/m*3 9.76 C 9.7 km/h
2570 22-12-2015 00:50:00 10.9 C 8.65 g/m*3 10.04 C 8.1 km/h
2571 22-12-2015 00:55:00 10.9 C 8.65 g/m*3 9.76 C 9.7 km/h
2572 22-12-2015 01:00:00 10.9 C 8.65 g/m*3 9.28 C 12.9 km/h
2573 22-12-2015 01:05:00 10.9 C 8.65 g/m*3 9.76 C 9.7 km/h
2574 22-12-2015 01:10:00 10.9 C 8.65 g/m*3 9.76 C 9.7 km/h
2575 22-12-2015 01:15:00 10.9 C 8.65 g/m*3 9.08 C 14.5 km/h
Sensor: Nr:Datum:Temp:Abs-Feuchte:Windchill:Wind:
Aussen-T/F 2576 22-12-2015 01:20:00 11 C 8.71 g/m*3 9.21 C 14.5 km/h
2577 22-12-2015 01:25:00 11 C 8.71 g/m*3 10.52 C 6.4 km/h
2578 22-12-2015 01:30:00 10.9 C 8.75 g/m*3 9.51 C 11.3 km/h
2579 22-12-2015 01:35:00 11 C 8.81 g/m*3 9.88 C 9.7 km/h
2580 22-12-2015 01:40:00 11 C 8.81 g/m*3 9.63 C 11.3 km/h
2581 22-12-2015 01:45:00 11.1 C 8.76 g/m*3 11.1 C 16.1 km/h
2582 22-12-2015 01:50:00 11.1 C 8.86 g/m*3 11.1 C 14.5 km/h
2583 22-12-2015 01:55:00 11.1 C 8.86 g/m*3 11.1 C 14.5 km/h
2584 22-12-2015 02:00:00 11.1 C 8.76 g/m*3 11.1 C 19.3 km/h
2585 22-12-2015 02:05:00 11.1 C 8.86 g/m*3 11.1 C 12.9 km/h
2586 22-12-2015 02:10:00 11.1 C 8.86 g/m*3 11.1 C 11.3 km/h
2587 22-12-2015 02:15:00 11.1 C 8.86 g/m*3 11.1 C 17.7 km/h
2588 22-12-2015 02:20:00 11 C 8.81 g/m*3 9.88 C 9.7 km/h
2589 22-12-2015 02:25:00 11 C 8.81 g/m*3 9.88 C 9.7 km/h
2590 22-12-2015 02:30:00 11 C 8.81 g/m*3 9.4 C 12.9 km/h
2591 22-12-2015 02:35:00 11 C 8.81 g/m*3 9.63 C 11.3 km/h
2592 22-12-2015 02:40:00 10.9 C 8.75 g/m*3 8.9 C 16.1 km/h
2593 22-12-2015 02:45:00 10.9 C 8.75 g/m*3 9.28 C 12.9 km/h
2594 22-12-2015 02:50:00 10.9 C 8.75 g/m*3 8.58 C 19.3 km/h
2595 22-12-2015 02:55:00 11 C 8.81 g/m*3 8.7 C 19.3 km/h
2596 22-12-2015 03:00:00 11 C 8.81 g/m*3 8.86 C 17.7 km/h
2597 22-12-2015 03:05:00 11 C 8.81 g/m*3 9.02 C 16.1 km/h
2598 22-12-2015 03:10:00 11 C 8.71 g/m*3 9.63 C 11.3 km/h
2599 22-12-2015 03:15:00 11.1 C 8.76 g/m*3 11.1 C 12.9 km/h
2600 22-12-2015 03:20:00 11.1 C 8.76 g/m*3 11.1 C 9.7 km/h
Sensor: Nr:Datum:Temp:Abs-Feuchte:Windchill:Wind:
Aussen-T/F 2601 22-12-2015 03:25:00 11.1 C 8.76 g/m*3 11.1 C 12.9 km/h
2602 22-12-2015 03:30:00 11 C 8.71 g/m*3 8.7 C 19.3 km/h
2603 22-12-2015 03:35:00 11.1 C 8.76 g/m*3 11.1 C 17.7 km/h
2604 22-12-2015 03:40:00 11.1 C 8.76 g/m*3 11.1 C 12.9 km/h
2605 22-12-2015 03:45:00 11.1 C 8.76 g/m*3 11.1 C 16.1 km/h
2606 22-12-2015 03:50:00 11.1 C 8.76 g/m*3 11.1 C 22.5 km/h
2607 22-12-2015 03:55:00 11.1 C 8.76 g/m*3 11.1 C 17.7 km/h
2608 22-12-2015 04:00:00 11.1 C 8.76 g/m*3 11.1 C 17.7 km/h
2609 22-12-2015 04:05:00 11.1 C 8.76 g/m*3 11.1 C 16.1 km/h
2610 22-12-2015 04:10:00 11.1 C 8.76 g/m*3 11.1 C 19.3 km/h
2611 22-12-2015 04:15:00 11.1 C 8.76 g/m*3 11.1 C 19.3 km/h
2612 22-12-2015 04:20:00 11.1 C 8.76 g/m*3 11.1 C 24.1 km/h
2613 22-12-2015 04:25:00 11.1 C 8.76 g/m*3 11.1 C 22.5 km/h
2614 22-12-2015 04:30:00 11.1 C 8.76 g/m*3 11.1 C 17.7 km/h
2615 22-12-2015 04:35:00 11.1 C 8.76 g/m*3 11.1 C 16.1 km/h
2616 22-12-2015 04:40:00 11.1 C 8.76 g/m*3 11.1 C 19.3 km/h
2617 22-12-2015 04:45:00 11.1 C 8.86 g/m*3 11.1 C 11.3 km/h
2618 22-12-2015 04:50:00 11 C 8.81 g/m*3 8.7 C 19.3 km/h
2619 22-12-2015 04:55:00 11 C 8.71 g/m*3 9.4 C 12.9 km/h
2620 22-12-2015 05:00:00 11.1 C 8.76 g/m*3 11.1 C 14.5 km/h
2621 22-12-2015 05:05:00 11.1 C 8.76 g/m*3 11.1 C 12.9 km/h
2622 22-12-2015 05:10:00 11.1 C 8.76 g/m*3 11.1 C 19.3 km/h
2623 22-12-2015 05:15:00 11.1 C 8.76 g/m*3 11.1 C 16.1 km/h
2624 22-12-2015 05:20:00 11.1 C 8.86 g/m*3 11.1 C 11.3 km/h
2625 22-12-2015 05:25:00 11.1 C 8.86 g/m*3 11.1 C 14.5 km/h
Sensor: Nr:Datum:Temp:Abs-Feuchte:Windchill:Wind:
Aussen-T/F 2626 22-12-2015 05:30:00 11 C 8.81 g/m*3 9.02 C 16.1 km/h
2627 22-12-2015 05:35:00 11 C 8.81 g/m*3 9.4 C 12.9 km/h
2628 22-12-2015 05:40:00 10.9 C 8.75 g/m*3 9.51 C 11.3 km/h
2629 22-12-2015 05:45:00 11 C 8.81 g/m*3 8.86 C 17.7 km/h
2630 22-12-2015 05:50:00 11 C 8.81 g/m*3 9.4 C 12.9 km/h
2631 22-12-2015 05:55:00 11.1 C 8.86 g/m*3 11.1 C 14.5 km/h
2632 22-12-2015 06:00:00 11.1 C 8.86 g/m*3 11.1 C 12.9 km/h
2633 22-12-2015 06:05:00 11.1 C 8.86 g/m*3 11.1 C 16.1 km/h
2634 22-12-2015 06:10:00 11.1 C 8.96 g/m*3 11.1 C 16.1 km/h
2635 22-12-2015 06:15:00 11 C 8.91 g/m*3 8.86 C 17.7 km/h
2636 22-12-2015 06:20:00 10.9 C 8.85 g/m*3 8.58 C 19.3 km/h
2637 22-12-2015 06:25:00 10.9 C 8.85 g/m*3 8.73 C 17.7 km/h
2638 22-12-2015 06:30:00 10.9 C 8.85 g/m*3 9.08 C 14.5 km/h
2639 22-12-2015 06:35:00 10.9 C 8.85 g/m*3 8.43 C 20.9 km/h
2640 22-12-2015 06:40:00 10.9 C 8.85 g/m*3 8.9 C 16.1 km/h
2641 22-12-2015 06:45:00 10.9 C 8.95 g/m*3 8.9 C 16.1 km/h
2642 22-12-2015 06:50:00 10.9 C 8.95 g/m*3 9.08 C 14.5 km/h
2643 22-12-2015 06:55:00 10.8 C 8.9 g/m*3 8.61 C 17.7 km/h
2644 22-12-2015 07:00:00 10.8 C 8.99 g/m*3 8.45 C 19.3 km/h
2645 22-12-2015 07:05:00 10.7 C 8.94 g/m*3 9.52 C 9.7 km/h
2646 22-12-2015 07:10:00 10.7 C 8.94 g/m*3 8.84 C 14.5 km/h
2647 22-12-2015 07:15:00 10.8 C 8.9 g/m*3 8.96 C 14.5 km/h
2648 22-12-2015 07:20:00 10.8 C 8.9 g/m*3 8.78 C 16.1 km/h
2649 22-12-2015 07:25:00 10.8 C 8.9 g/m*3 9.64 C 9.7 km/h
2650 22-12-2015 07:30:00 10.9 C 8.95 g/m*3 9.76 C 9.7 km/h
Sensor: Nr:Datum:Temp:Abs-Feuchte:Windchill:Wind:
Aussen-T/F 2651 22-12-2015 07:35:00 10.9 C 8.85 g/m*3 8.58 C 19.3 km/h
2652 22-12-2015 07:40:00 11.1 C 8.96 g/m*3 11.1 C 14.5 km/h
2653 22-12-2015 07:45:00 11.1 C 8.96 g/m*3 11.1 C 24.1 km/h
2654 22-12-2015 07:50:00 11.1 C 8.96 g/m*3 11.1 C 9.7 km/h
2655 22-12-2015 07:55:00 11.2 C 8.92 g/m*3 11.2 C 16.1 km/h
2656 22-12-2015 08:00:00 11.2 C 8.92 g/m*3 11.2 C 20.9 km/h
2657 22-12-2015 08:05:00 11.2 C 8.92 g/m*3 11.2 C 11.3 km/h
2658 22-12-2015 08:10:00 11.2 C 8.92 g/m*3 11.2 C 12.9 km/h
2659 22-12-2015 08:15:00 11.2 C 8.92 g/m*3 11.2 C 19.3 km/h
2660 22-12-2015 08:20:00 11.2 C 8.92 g/m*3 11.2 C 19.3 km/h
2661 22-12-2015 08:25:00 11.2 C 8.92 g/m*3 11.2 C 14.5 km/h
2662 22-12-2015 08:30:00 11.2 C 8.92 g/m*3 11.2 C 16.1 km/h
2663 22-12-2015 08:35:00 11.2 C 8.92 g/m*3 11.2 C 16.1 km/h
2664 22-12-2015 08:40:00 11.2 C 9.02 g/m*3 11.2 C 14.5 km/h
2665 22-12-2015 08:45:00 11.2 C 9.02 g/m*3 11.2 C 9.7 km/h
2666 22-12-2015 08:50:00 11.2 C 9.02 g/m*3 11.2 C 12.9 km/h
2667 22-12-2015 08:55:00 11.2 C 9.02 g/m*3 11.2 C 20.9 km/h
2668 22-12-2015 09:00:00 11.2 C 9.02 g/m*3 11.2 C 14.5 km/h
2669 22-12-2015 09:05:00 11.2 C 9.02 g/m*3 11.2 C 25.7 km/h
2670 22-12-2015 09:10:00 11.2 C 8.92 g/m*3 11.2 C 22.5 km/h
2671 22-12-2015 09:15:00 11.3 C 8.98 g/m*3 11.3 C 22.5 km/h
2672 22-12-2015 09:20:00 11.3 C 8.98 g/m*3 11.3 C 17.7 km/h
2673 22-12-2015 09:25:00 11.3 C 8.87 g/m*3 11.3 C 20.9 km/h
2674 22-12-2015 09:30:00 11.4 C 8.93 g/m*3 11.4 C 14.5 km/h
2675 22-12-2015 09:35:00 11.4 C 8.93 g/m*3 11.4 C 17.7 km/h
Sensor: Nr:Datum:Temp:Abs-Feuchte:Windchill:Wind:
Aussen-T/F 2676 22-12-2015 09:40:00 11.5 C 8.88 g/m*3 11.5 C 25.7 km/h
2677 22-12-2015 09:45:00 11.6 C 8.94 g/m*3 11.6 C 17.7 km/h
2678 22-12-2015 09:50:00 11.6 C 8.94 g/m*3 11.6 C 16.1 km/h
2679 22-12-2015 09:55:00 11.6 C 8.83 g/m*3 11.6 C 16.1 km/h
2680 22-12-2015 10:00:00 11.7 C 8.89 g/m*3 11.7 C 27.4 km/h
2681 22-12-2015 10:05:00 11.7 C 8.79 g/m*3 11.7 C 20.9 km/h
2682 22-12-2015 10:10:00 11.8 C 8.84 g/m*3 11.8 C 17.7 km/h
2683 22-12-2015 10:15:00 11.8 C 8.84 g/m*3 11.8 C 20.9 km/h
2684 22-12-2015 10:20:00 11.9 C 8.9 g/m*3 11.9 C 25.7 km/h
2685 22-12-2015 10:25:00 12 C 8.85 g/m*3 12 C 24.1 km/h
2686 22-12-2015 10:30:00 12.1 C 8.9 g/m*3 12.1 C 20.9 km/h
2687 22-12-2015 10:35:00 12.2 C 8.96 g/m*3 12.2 C 24.1 km/h
2688 22-12-2015 10:40:00 12.2 C 8.96 g/m*3 12.2 C 16.1 km/h
2689 22-12-2015 10:45:00 12.2 C 8.96 g/m*3 12.2 C 19.3 km/h
2690 22-12-2015 10:50:00 12.2 C 8.96 g/m*3 12.2 C 22.5 km/h
2691 22-12-2015 10:55:00 12.2 C 8.96 g/m*3 12.2 C 12.9 km/h
2692 22-12-2015 11:00:00 12.1 C 8.9 g/m*3 12.1 C 9.7 km/h
2693 22-12-2015 11:05:00 12.2 C 8.96 g/m*3 12.2 C 9.7 km/h
2694 22-12-2015 11:10:00 12.2 C 8.96 g/m*3 12.2 C 14.5 km/h
2695 22-12-2015 11:15:00 12.2 C 8.96 g/m*3 12.2 C 9.7 km/h
2696 22-12-2015 11:20:00 12.3 C 9.01 g/m*3 12.3 C 12.9 km/h
2697 22-12-2015 11:25:00 12.3 C 9.01 g/m*3 12.3 C 8.1 km/h
2698 22-12-2015 11:30:00 12.3 C 8.9 g/m*3 12.3 C 9.7 km/h
2699 22-12-2015 11:35:00 12.3 C 9.01 g/m*3 12.3 C 12.9 km/h
2700 22-12-2015 11:40:00 12.3 C 8.9 g/m*3 12.3 C 11.3 km/h
Sensor: Nr:Datum:Temp:Abs-Feuchte:Windchill:Wind:
Aussen-T/F 2701 22-12-2015 11:45:00 12.4 C 8.96 g/m*3 12.4 C 16.1 km/h
2702 22-12-2015 11:50:00 12.4 C 8.96 g/m*3 12.4 C 12.9 km/h
2703 22-12-2015 11:55:00 12.4 C 8.96 g/m*3 12.4 C 12.9 km/h
2704 22-12-2015 12:00:00 12.5 C 9.02 g/m*3 12.5 C 17.7 km/h
2705 22-12-2015 12:05:00 12.5 C 9.02 g/m*3 12.5 C 12.9 km/h
2706 22-12-2015 12:10:00 12.6 C 8.96 g/m*3 12.6 C 14.5 km/h
2707 22-12-2015 12:15:00 12.5 C 8.91 g/m*3 12.5 C 11.3 km/h
2708 22-12-2015 12:20:00 12.5 C 9.02 g/m*3 12.5 C 16.1 km/h
2709 22-12-2015 12:25:00 12.6 C 8.96 g/m*3 12.6 C 19.3 km/h
2710 22-12-2015 12:30:00 12.6 C 8.96 g/m*3 12.6 C 11.3 km/h
2711 22-12-2015 12:35:00 12.6 C 8.96 g/m*3 12.6 C 11.3 km/h
2712 22-12-2015 12:40:00 12.6 C 8.96 g/m*3 12.6 C 14.5 km/h
2713 22-12-2015 14:40:00 13.2 C 8.61 g/m*3 13.2 C 17.7 km/h
2714 22-12-2015 14:45:00 13.1 C 8.56 g/m*3 13.1 C 9.7 km/h
2715 22-12-2015 14:50:00 13.1 C 8.44 g/m*3 13.1 C 11.3 km/h
2716 22-12-2015 14:55:00 13.1 C 8.44 g/m*3 13.1 C 17.7 km/h
2717 22-12-2015 15:00:00 13.1 C 8.44 g/m*3 13.1 C 19.3 km/h
2718 22-12-2015 15:05:00 13.1 C 8.44 g/m*3 13.1 C 11.3 km/h
2719 22-12-2015 15:10:00 13.1 C 8.44 g/m*3 13.1 C 11.3 km/h
2720 22-12-2015 15:15:00 13.1 C 8.44 g/m*3 13.1 C 6.4 km/h
2721 22-12-2015 15:20:00 13.1 C 8.33 g/m*3 13.1 C 8.1 km/h
2722 22-12-2015 15:25:00 13 C 8.39 g/m*3 13 C 6.4 km/h
2723 22-12-2015 15:30:00 12.9 C 8.34 g/m*3 12.9 C 11.3 km/h
2724 22-12-2015 15:35:00 12.9 C 8.34 g/m*3 12.9 C 9.7 km/h
2725 22-12-2015 15:40:00 12.9 C 8.34 g/m*3 12.9 C 14.5 km/h
Sensor: Nr:Datum:Temp:Abs-Feuchte:Windchill:Wind:
Aussen-T/F 2726 22-12-2015 15:45:00 12.9 C 8.34 g/m*3 12.9 C 9.7 km/h
2727 22-12-2015 15:50:00 12.8 C 8.29 g/m*3 12.8 C 8.1 km/h
2728 22-12-2015 15:55:00 12.8 C 8.29 g/m*3 12.8 C 8.1 km/h
2729 22-12-2015 16:00:00 12.8 C 8.4 g/m*3 12.8 C 6.4 km/h
2730 22-12-2015 16:05:00 12.7 C 8.35 g/m*3 12.7 C 14.5 km/h
2731 22-12-2015 16:10:00 12.7 C 8.35 g/m*3 12.7 C 11.3 km/h
2732 22-12-2015 16:15:00 12.7 C 8.35 g/m*3 12.7 C 14.5 km/h
2733 22-12-2015 16:20:00 12.7 C 8.46 g/m*3 12.7 C 4.8 km/h
2734 22-12-2015 16:25:00 12.6 C 8.41 g/m*3 12.6 C 4.8 km/h
2735 22-12-2015 16:30:00 12.6 C 8.41 g/m*3 12.6 C 3.2 km/h
2736 22-12-2015 16:35:00 12.6 C 8.52 g/m*3 12.6 C 6.4 km/h
2737 22-12-2015 16:40:00 12.6 C 8.41 g/m*3 12.6 C 9.7 km/h
2738 22-12-2015 16:45:00 12.6 C 8.41 g/m*3 12.6 C 6.4 km/h
2739 22-12-2015 16:50:00 12.6 C 8.41 g/m*3 12.6 C 4.8 km/h
2740 22-12-2015 16:55:00 12.6 C 8.52 g/m*3 12.6 C 11.3 km/h
2741 22-12-2015 17:00:00 12.6 C 8.41 g/m*3 12.6 C 12.9 km/h
2742 22-12-2015 17:05:00 12.6 C 8.41 g/m*3 12.6 C 6.4 km/h
2743 22-12-2015 17:10:00 12.6 C 8.41 g/m*3 12.6 C 8.1 km/h
2744 22-12-2015 17:15:00 12.6 C 8.41 g/m*3 12.6 C 9.7 km/h
2745 22-12-2015 17:20:00 12.6 C 8.41 g/m*3 12.6 C 8.1 km/h
2746 22-12-2015 17:25:00 12.6 C 8.41 g/m*3 12.6 C 8.1 km/h
2747 22-12-2015 17:30:00 12.6 C 8.3 g/m*3 12.6 C 8.1 km/h
2748 22-12-2015 17:35:00 12.5 C 8.36 g/m*3 12.5 C 11.3 km/h
2749 22-12-2015 17:40:00 12.4 C 8.3 g/m*3 12.4 C 4.8 km/h
2750 22-12-2015 17:45:00 12.3 C 8.25 g/m*3 12.3 C 6.4 km/h
Sensor: Nr:Datum:Temp:Abs-Feuchte:Windchill:Wind:
Aussen-T/F 2751 22-12-2015 17:50:00 12.2 C 8.31 g/m*3 12.2 C 3.2 km/h
2752 22-12-2015 17:55:00 12.2 C 8.42 g/m*3 12.2 C 3.2 km/h
2753 22-12-2015 18:00:00 12.1 C 8.36 g/m*3 12.1 C 4.8 km/h
2754 22-12-2015 18:05:00 11.9 C 8.37 g/m*3 11.9 C 3.2 km/h
2755 22-12-2015 18:10:00 11.9 C 8.37 g/m*3 11.9 C 4.8 km/h
2756 22-12-2015 18:15:00 11.9 C 8.37 g/m*3 11.9 C 4.8 km/h
2757 22-12-2015 21:05:00 11 C 7.51 g/m*3 10.52 C 6.4 km/h
2758 22-12-2015 21:10:00 11.1 C 7.76 g/m*3 11.1 C 3.2 km/h
2759 22-12-2015 21:15:00 11.2 C 7.7 g/m*3 11.2 C 4.8 km/h
2760 22-12-2015 21:20:00 11.1 C 7.55 g/m*3 11.1 C 3.2 km/h
2761 22-12-2015 21:25:00 11.2 C 7.4 g/m*3 11.2 C 8.1 km/h
2762 22-12-2015 21:30:00 11.3 C 7.34 g/m*3 11.3 C 11.3 km/h
2763 22-12-2015 21:35:00 11.6 C 7.38 g/m*3 11.6 C 8.1 km/h
2764 22-12-2015 21:40:00 11.8 C 7.37 g/m*3 11.8 C 14.5 km/h
2765 22-12-2015 21:45:00 11.8 C 7.37 g/m*3 11.8 C 4.8 km/h
2766 22-12-2015 21:50:00 11.9 C 7.41 g/m*3 11.9 C 9.7 km/h
2767 22-12-2015 21:55:00 11.9 C 7.41 g/m*3 11.9 C 3.2 km/h
2768 22-12-2015 22:00:00 11.9 C 7.41 g/m*3 11.9 C 12.9 km/h
2769 22-12-2015 22:05:00 11.9 C 7.41 g/m*3 11.9 C 6.4 km/h
2770 22-12-2015 22:10:00 11.9 C 7.41 g/m*3 11.9 C 11.3 km/h
2771 22-12-2015 22:15:00 11.9 C 7.52 g/m*3 11.9 C 11.3 km/h
2772 22-12-2015 22:20:00 11.9 C 7.41 g/m*3 11.9 C 11.3 km/h
2773 22-12-2015 22:25:00 11.9 C 7.41 g/m*3 11.9 C 4.8 km/h
2774 22-12-2015 22:30:00 11.8 C 7.47 g/m*3 11.8 C 11.3 km/h
2775 22-12-2015 22:35:00 11.7 C 7.43 g/m*3 11.7 C 6.4 km/h
Sensor: Nr:Datum:Temp:Abs-Feuchte:Windchill:Wind:
Aussen-T/F 2776 22-12-2015 22:40:00 11.7 C 7.53 g/m*3 11.7 C 8.1 km/h
2777 22-12-2015 22:45:00 11.7 C 7.43 g/m*3 11.7 C 14.5 km/h
2778 22-12-2015 22:50:00 11.8 C 7.47 g/m*3 11.8 C 9.7 km/h
2779 22-12-2015 22:55:00 11.8 C 7.47 g/m*3 11.8 C 8.1 km/h
2780 22-12-2015 23:00:00 11.8 C 7.47 g/m*3 11.8 C 12.9 km/h
2781 22-12-2015 23:05:00 11.7 C 7.43 g/m*3 11.7 C 12.9 km/h
2782 22-12-2015 23:10:00 11.7 C 7.43 g/m*3 11.7 C 11.3 km/h
2783 22-12-2015 23:15:00 11.8 C 7.47 g/m*3 11.8 C 11.3 km/h
2784 22-12-2015 23:20:00 11.7 C 7.53 g/m*3 11.7 C 11.3 km/h
2785 22-12-2015 23:25:00 11.7 C 7.53 g/m*3 11.7 C 8.1 km/h
2786 22-12-2015 23:30:00 11.7 C 7.53 g/m*3 11.7 C 16.1 km/h
2787 22-12-2015 23:35:00 11.7 C 7.53 g/m*3 11.7 C 19.3 km/h
2788 23-12-2015 02:45:00 10.9 C 7.56 g/m*3 10.41 C 6.4 km/h
2789 23-12-2015 02:50:00 10.9 C 7.56 g/m*3 10.9 C 4.8 km/h
2790 23-12-2015 02:55:00 10.9 C 7.56 g/m*3 9.76 C 9.7 km/h
2791 23-12-2015 03:00:00 10.9 C 7.46 g/m*3 9.51 C 11.3 km/h
2792 23-12-2015 03:05:00 10.9 C 7.46 g/m*3 9.08 C 14.5 km/h
2793 23-12-2015 03:10:00 10.8 C 7.51 g/m*3 10.8 C 4.8 km/h
2794 23-12-2015 03:15:00 10.7 C 7.46 g/m*3 9.81 C 8.1 km/h
2795 23-12-2015 03:20:00 10.6 C 7.52 g/m*3 10.6 C 3.2 km/h
2796 23-12-2015 03:25:00 10.6 C 7.52 g/m*3 9.4 C 9.7 km/h
2797 23-12-2015 03:30:00 10.8 C 7.61 g/m*3 9.93 C 8.1 km/h
2798 23-12-2015 03:35:00 10.8 C 7.61 g/m*3 10.8 C 4.8 km/h
2799 23-12-2015 03:40:00 10.9 C 7.56 g/m*3 9.51 C 11.3 km/h
2800 23-12-2015 03:45:00 11.1 C 7.55 g/m*3 11.1 C 8.1 km/h
Sensor: Nr:Datum:Temp:Abs-Feuchte:Windchill:Wind:
Aussen-T/F 2801 23-12-2015 03:50:00 11.1 C 7.55 g/m*3 11.1 C 3.2 km/h
2802 23-12-2015 03:55:00 11.1 C 7.45 g/m*3 11.1 C 9.7 km/h
2803 23-12-2015 04:00:00 11.2 C 7.6 g/m*3 11.2 C 11.3 km/h
2804 23-12-2015 04:05:00 11.2 C 7.5 g/m*3 11.2 C 12.9 km/h
2805 23-12-2015 04:10:00 11.3 C 7.55 g/m*3 11.3 C 6.4 km/h
2806 23-12-2015 04:15:00 11.2 C 7.5 g/m*3 11.2 C 4.8 km/h
2807 23-12-2015 04:20:00 11.2 C 7.5 g/m*3 11.2 C 8.1 km/h
2808 23-12-2015 04:25:00 11.1 C 7.45 g/m*3 11.1 C 11.3 km/h
2809 23-12-2015 04:30:00 11.2 C 7.5 g/m*3 11.2 C 14.5 km/h
2810 23-12-2015 04:35:00 11.1 C 7.55 g/m*3 11.1 C 11.3 km/h
2811 23-12-2015 04:40:00 11.1 C 7.55 g/m*3 11.1 C 16.1 km/h
2812 23-12-2015 04:45:00 11.1 C 7.55 g/m*3 11.1 C 6.4 km/h
2813 23-12-2015 04:50:00 11.1 C 7.55 g/m*3 11.1 C 11.3 km/h
2814 23-12-2015 08:05:00 10.9 C 8.45 g/m*3 8.9 C 16.1 km/h
2815 23-12-2015 08:10:00 11 C 8.51 g/m*3 8.56 C 20.9 km/h
2816 23-12-2015 08:15:00 11 C 8.61 g/m*3 7.94 C 29 km/h
2817 23-12-2015 08:20:00 11 C 8.61 g/m*3 8.7 C 19.3 km/h
2818 23-12-2015 08:25:00 10.9 C 8.55 g/m*3 8.58 C 19.3 km/h
2819 23-12-2015 08:30:00 10.9 C 8.55 g/m*3 8.9 C 16.1 km/h
2820 23-12-2015 08:35:00 10.9 C 8.55 g/m*3 8.73 C 17.7 km/h
2821 23-12-2015 08:40:00 10.9 C 8.65 g/m*3 8.9 C 16.1 km/h
2822 23-12-2015 08:45:00 10.8 C 8.6 g/m*3 9.16 C 12.9 km/h
2823 23-12-2015 08:50:00 10.8 C 8.6 g/m*3 9.16 C 12.9 km/h
2824 23-12-2015 08:55:00 10.8 C 8.6 g/m*3 9.16 C 12.9 km/h
2825 23-12-2015 09:00:00 10.8 C 8.7 g/m*3 8.78 C 16.1 km/h
Sensor: Nr:Datum:Temp:Abs-Feuchte:Windchill:Wind:
Aussen-T/F 2826 23-12-2015 09:05:00 10.9 C 8.75 g/m*3 9.28 C 12.9 km/h
2827 23-12-2015 09:10:00 10.9 C 8.65 g/m*3 8.9 C 16.1 km/h
2828 23-12-2015 09:15:00 10.9 C 8.65 g/m*3 8.9 C 16.1 km/h
2829 23-12-2015 09:20:00 10.9 C 8.75 g/m*3 8.73 C 17.7 km/h
2830 23-12-2015 09:25:00 11 C 8.81 g/m*3 8.86 C 17.7 km/h
2831 23-12-2015 09:30:00 11 C 8.81 g/m*3 9.4 C 12.9 km/h
2832 23-12-2015 09:35:00 11 C 8.81 g/m*3 8.56 C 20.9 km/h
2833 23-12-2015 09:40:00 11.1 C 8.86 g/m*3 11.1 C 12.9 km/h
2834 23-12-2015 09:45:00 11 C 8.81 g/m*3 9.02 C 16.1 km/h
2835 23-12-2015 09:50:00 11 C 8.91 g/m*3 9.88 C 9.7 km/h
2836 23-12-2015 09:55:00 11 C 8.91 g/m*3 9.88 C 9.7 km/h
2837 23-12-2015 10:00:00 11 C 8.91 g/m*3 9.4 C 12.9 km/h
2838 24-12-2015 10:10:00 8.3 C 8.26 g/m*3 8.3 C 0 km/h
2839 24-12-2015 10:15:00 8.5 C 8.37 g/m*3 8.5 C 0 km/h
2840 24-12-2015 10:20:00 8.6 C 8.42 g/m*3 8.6 C 0 km/h
2841 24-12-2015 10:25:00 8.5 C 8.37 g/m*3 8.5 C 0 km/h
2842 24-12-2015 10:30:00 8.5 C 8.28 g/m*3 8.5 C 0 km/h
2843 24-12-2015 10:35:00 8.7 C 8.39 g/m*3 8.7 C 1.6 km/h
2844 24-12-2015 10:40:00 8.6 C 8.34 g/m*3 8.6 C 1.6 km/h
2845 24-12-2015 10:45:00 8.4 C 8.23 g/m*3 8.4 C 3.2 km/h
2846 24-12-2015 10:50:00 8.4 C 8.23 g/m*3 8.4 C 1.6 km/h
2847 24-12-2015 10:55:00 8.5 C 8.28 g/m*3 8.5 C 0 km/h
2848 24-12-2015 11:00:00 8.7 C 8.39 g/m*3 8.7 C 0 km/h
2849 24-12-2015 11:05:00 8.8 C 8.44 g/m*3 8.8 C 0 km/h
2850 24-12-2015 11:10:00 9.1 C 8.61 g/m*3 9.1 C 0 km/h
Sensor: Nr:Datum:Temp:Abs-Feuchte:Windchill:Wind:
Aussen-T/F 2851 24-12-2015 11:15:00 9.3 C 8.72 g/m*3 9.3 C 3.2 km/h
2852 24-12-2015 11:20:00 9.4 C 8.77 g/m*3 9.4 C 1.6 km/h
2853 24-12-2015 11:25:00 9.5 C 8.83 g/m*3 9.5 C 0 km/h
2854 24-12-2015 11:30:00 9.7 C 9.03 g/m*3 9.7 C 0 km/h
2855 24-12-2015 11:35:00 9.9 C 9.15 g/m*3 9.9 C 0 km/h
2856 24-12-2015 11:40:00 10.1 C 9.27 g/m*3 10.1 C 1.6 km/h
2857 24-12-2015 11:45:00 10.3 C 9.39 g/m*3 10.3 C 1.6 km/h
2858 24-12-2015 11:50:00 10.3 C 9.39 g/m*3 10.3 C 0 km/h
2859 24-12-2015 11:55:00 10.4 C 9.35 g/m*3 10.4 C 0 km/h
2860 24-12-2015 12:00:00 10.6 C 9.57 g/m*3 10.6 C 4.8 km/h
2861 24-12-2015 12:05:00 10.7 C 9.53 g/m*3 10.7 C 1.6 km/h
2862 24-12-2015 12:10:00 10.8 C 9.59 g/m*3 10.8 C 0 km/h
2863 24-12-2015 12:15:00 10.9 C 9.65 g/m*3 10.9 C 4.8 km/h
2864 24-12-2015 12:20:00 11.1 C 9.67 g/m*3 11.1 C 3.2 km/h
2865 24-12-2015 12:25:00 11.2 C 9.73 g/m*3 11.2 C 3.2 km/h
2866 24-12-2015 12:30:00 11.4 C 9.65 g/m*3 11.4 C 3.2 km/h
2867 24-12-2015 12:35:00 11.8 C 9.79 g/m*3 11.8 C 6.4 km/h
2868 24-12-2015 12:40:00 12.1 C 9.76 g/m*3 12.1 C 4.8 km/h
2869 24-12-2015 12:45:00 12.4 C 9.62 g/m*3 12.4 C 4.8 km/h
2870 24-12-2015 12:50:00 12.6 C 9.62 g/m*3 12.6 C 4.8 km/h
2871 24-12-2015 12:55:00 12.8 C 9.63 g/m*3 12.8 C 1.6 km/h
2872 24-12-2015 13:00:00 12.9 C 9.58 g/m*3 12.9 C 14.5 km/h
2873 24-12-2015 13:05:00 12.9 C 9.47 g/m*3 12.9 C 9.7 km/h
2874 24-12-2015 13:10:00 12.9 C 9.47 g/m*3 12.9 C 8.1 km/h
2875 24-12-2015 13:15:00 12.9 C 9.47 g/m*3 12.9 C 0 km/h
Sensor: Nr:Datum:Temp:Abs-Feuchte:Windchill:Wind:
Aussen-T/F 2876 24-12-2015 13:20:00 12.8 C 9.41 g/m*3 12.8 C 1.6 km/h
2877 24-12-2015 13:25:00 12.8 C 9.52 g/m*3 12.8 C 0 km/h
2878 24-12-2015 13:30:00 12.7 C 9.35 g/m*3 12.7 C 1.6 km/h
2879 24-12-2015 13:35:00 12.6 C 9.4 g/m*3 12.6 C 3.2 km/h
2880 24-12-2015 13:40:00 12.6 C 9.51 g/m*3 12.6 C 1.6 km/h
2881 24-12-2015 13:45:00 12.6 C 9.51 g/m*3 12.6 C 1.6 km/h
2882 24-12-2015 13:50:00 12.6 C 9.51 g/m*3 12.6 C 0 km/h
2883 24-12-2015 13:55:00 12.5 C 9.46 g/m*3 12.5 C 0 km/h
2884 24-12-2015 14:00:00 12.4 C 9.4 g/m*3 12.4 C 4.8 km/h
2885 24-12-2015 14:05:00 12.3 C 9.34 g/m*3 12.3 C 3.2 km/h
2886 24-12-2015 14:10:00 12.2 C 9.39 g/m*3 12.2 C 0 km/h
2887 24-12-2015 14:15:00 12.2 C 9.28 g/m*3 12.2 C 4.8 km/h
2888 24-12-2015 14:20:00 12.1 C 9.44 g/m*3 12.1 C 0 km/h
2889 24-12-2015 14:25:00 12.1 C 9.44 g/m*3 12.1 C 1.6 km/h
2890 24-12-2015 14:30:00 12.1 C 9.44 g/m*3 12.1 C 0 km/h
2891 24-12-2015 14:35:00 12.1 C 9.44 g/m*3 12.1 C 0 km/h
2892 24-12-2015 14:40:00 12.2 C 9.39 g/m*3 12.2 C 6.4 km/h
2893 24-12-2015 14:45:00 12.4 C 9.4 g/m*3 12.4 C 3.2 km/h
2894 24-12-2015 14:50:00 12.6 C 9.62 g/m*3 12.6 C 1.6 km/h
2895 24-12-2015 14:55:00 12.7 C 9.46 g/m*3 12.7 C 3.2 km/h
2896 24-12-2015 15:00:00 12.8 C 9.41 g/m*3 12.8 C 3.2 km/h
2897 24-12-2015 15:05:00 12.9 C 9.47 g/m*3 12.9 C 1.6 km/h
2898 24-12-2015 15:10:00 13 C 9.41 g/m*3 13 C 3.2 km/h
2899 24-12-2015 15:15:00 13.1 C 9.47 g/m*3 13.1 C 3.2 km/h
2900 24-12-2015 15:20:00 13.1 C 9.47 g/m*3 13.1 C 3.2 km/h
Sensor: Nr:Datum:Temp:Abs-Feuchte:Windchill:Wind:
Aussen-T/F 2901 24-12-2015 15:25:00 13.2 C 9.42 g/m*3 13.2 C 1.6 km/h
2902 24-12-2015 15:30:00 13.2 C 9.53 g/m*3 13.2 C 8.1 km/h
2903 24-12-2015 15:35:00 13.2 C 9.42 g/m*3 13.2 C 4.8 km/h
2904 24-12-2015 15:40:00 13.3 C 9.36 g/m*3 13.3 C 12.9 km/h
2905 24-12-2015 15:45:00 13.3 C 9.47 g/m*3 13.3 C 3.2 km/h
2906 24-12-2015 15:50:00 13.3 C 9.36 g/m*3 13.3 C 12.9 km/h
2907 24-12-2015 15:55:00 13.2 C 9.3 g/m*3 13.2 C 1.6 km/h
2908 24-12-2015 16:00:00 13.1 C 9.36 g/m*3 13.1 C 3.2 km/h
2909 24-12-2015 16:05:00 12.9 C 9.24 g/m*3 12.9 C 3.2 km/h
2910 24-12-2015 16:10:00 12.8 C 9.3 g/m*3 12.8 C 3.2 km/h
2911 24-12-2015 16:15:00 12.6 C 9.18 g/m*3 12.6 C 1.6 km/h
2912 24-12-2015 16:20:00 12.3 C 9.12 g/m*3 12.3 C 1.6 km/h
2913 24-12-2015 16:25:00 12.1 C 9.01 g/m*3 12.1 C 3.2 km/h
2914 24-12-2015 16:30:00 11.9 C 9 g/m*3 11.9 C 3.2 km/h
2915 24-12-2015 16:35:00 11.7 C 8.99 g/m*3 11.7 C 3.2 km/h
2916 24-12-2015 16:40:00 11.4 C 8.83 g/m*3 11.4 C 1.6 km/h
2917 24-12-2015 16:45:00 11.3 C 8.77 g/m*3 11.3 C 1.6 km/h
2918 24-12-2015 16:50:00 11.1 C 8.76 g/m*3 11.1 C 1.6 km/h
2919 24-12-2015 16:55:00 10.9 C 8.65 g/m*3 10.9 C 1.6 km/h
2920 24-12-2015 17:00:00 10.7 C 8.55 g/m*3 10.7 C 1.6 km/h
2921 24-12-2015 17:05:00 10.6 C 8.59 g/m*3 10.6 C 0 km/h
2922 24-12-2015 17:10:00 10.5 C 8.53 g/m*3 10.5 C 3.2 km/h
2923 24-12-2015 17:15:00 10.4 C 8.58 g/m*3 10.4 C 0 km/h
2924 24-12-2015 17:20:00 10.4 C 8.58 g/m*3 10.4 C 3.2 km/h
2925 24-12-2015 17:25:00 10.4 C 8.58 g/m*3 10.4 C 3.2 km/h
Sensor: Nr:Datum:Temp:Abs-Feuchte:Windchill:Wind:
Aussen-T/F 2926 24-12-2015 17:30:00 10.4 C 8.58 g/m*3 10.4 C 1.6 km/h
2927 24-12-2015 17:35:00 10.6 C 8.69 g/m*3 10.6 C 0 km/h
2928 24-12-2015 17:40:00 10.7 C 8.64 g/m*3 10.7 C 3.2 km/h
2929 24-12-2015 17:45:00 10.9 C 8.65 g/m*3 10.9 C 4.8 km/h
2930 24-12-2015 17:50:00 11.1 C 8.76 g/m*3 11.1 C 3.2 km/h
2931 24-12-2015 17:55:00 11.2 C 8.72 g/m*3 11.2 C 1.6 km/h
2932 24-12-2015 18:00:00 11.2 C 8.72 g/m*3 11.2 C 1.6 km/h
2933 24-12-2015 18:05:00 11.3 C 8.77 g/m*3 11.3 C 1.6 km/h
2934 24-12-2015 18:10:00 11.3 C 8.77 g/m*3 11.3 C 0 km/h
2935 24-12-2015 18:15:00 11.4 C 8.72 g/m*3 11.4 C 4.8 km/h
2936 24-12-2015 18:20:00 11.6 C 8.83 g/m*3 11.6 C 1.6 km/h
2937 24-12-2015 18:25:00 11.6 C 8.73 g/m*3 11.6 C 1.6 km/h
2938 24-12-2015 18:30:00 11.8 C 8.84 g/m*3 11.8 C 1.6 km/h
2939 24-12-2015 18:35:00 11.8 C 8.74 g/m*3 11.8 C 3.2 km/h
2940 24-12-2015 18:40:00 11.7 C 8.68 g/m*3 11.7 C 0 km/h
2941 24-12-2015 18:45:00 11.5 C 8.68 g/m*3 11.5 C 3.2 km/h
2942 24-12-2015 18:50:00 11.3 C 8.67 g/m*3 11.3 C 1.6 km/h
2943 24-12-2015 18:55:00 11.2 C 8.51 g/m*3 11.2 C 1.6 km/h
2944 24-12-2015 19:00:00 11.1 C 8.56 g/m*3 11.1 C 1.6 km/h
2945 24-12-2015 19:05:00 11 C 8.51 g/m*3 11 C 0 km/h
2946 24-12-2015 19:10:00 10.8 C 8.4 g/m*3 10.8 C 3.2 km/h
2947 24-12-2015 19:15:00 10.7 C 8.45 g/m*3 10.7 C 0 km/h
2948 24-12-2015 19:20:00 10.7 C 8.45 g/m*3 10.7 C 0 km/h
2949 24-12-2015 19:25:00 10.7 C 8.55 g/m*3 10.7 C 1.6 km/h
2950 24-12-2015 19:30:00 10.9 C 8.55 g/m*3 10.41 C 6.4 km/h
Sensor: Nr:Datum:Temp:Abs-Feuchte:Windchill:Wind:
Aussen-T/F 2951 24-12-2015 19:35:00 11.1 C 8.56 g/m*3 11.1 C 4.8 km/h
2952 24-12-2015 19:40:00 11.3 C 8.57 g/m*3 11.3 C 3.2 km/h
2953 24-12-2015 19:45:00 11.4 C 8.62 g/m*3 11.4 C 1.6 km/h
2954 24-12-2015 19:50:00 11.4 C 8.62 g/m*3 11.4 C 6.4 km/h
2955 24-12-2015 19:55:00 11.6 C 8.63 g/m*3 11.6 C 0 km/h
2956 24-12-2015 20:00:00 11.7 C 8.79 g/m*3 11.7 C 0 km/h
2957 24-12-2015 20:05:00 11.8 C 8.74 g/m*3 11.8 C 3.2 km/h
2958 24-12-2015 20:10:00 11.9 C 8.68 g/m*3 11.9 C 1.6 km/h
2959 24-12-2015 20:15:00 11.9 C 8.68 g/m*3 11.9 C 3.2 km/h
2960 24-12-2015 20:20:00 11.9 C 8.58 g/m*3 11.9 C 1.6 km/h
2961 24-12-2015 20:25:00 12 C 8.63 g/m*3 12 C 9.7 km/h
2962 24-12-2015 20:30:00 12.1 C 8.69 g/m*3 12.1 C 3.2 km/h
2963 24-12-2015 20:35:00 12.2 C 8.63 g/m*3 12.2 C 3.2 km/h
2964 24-12-2015 20:40:00 12.3 C 8.69 g/m*3 12.3 C 3.2 km/h
2965 24-12-2015 20:45:00 12.4 C 8.63 g/m*3 12.4 C 8.1 km/h
2966 24-12-2015 20:50:00 12.6 C 8.74 g/m*3 12.6 C 3.2 km/h
2967 24-12-2015 20:55:00 12.6 C 8.74 g/m*3 12.6 C 1.6 km/h
2968 24-12-2015 21:00:00 12.5 C 8.69 g/m*3 12.5 C 4.8 km/h
2969 24-12-2015 21:05:00 12.6 C 8.74 g/m*3 12.6 C 12.9 km/h
2970 24-12-2015 21:10:00 12.6 C 8.74 g/m*3 12.6 C 8.1 km/h
2971 24-12-2015 21:15:00 12.7 C 8.68 g/m*3 12.7 C 6.4 km/h
2972 24-12-2015 21:20:00 12.7 C 8.68 g/m*3 12.7 C 8.1 km/h
2973 24-12-2015 21:25:00 12.8 C 8.62 g/m*3 12.8 C 9.7 km/h
2974 24-12-2015 21:30:00 12.9 C 8.68 g/m*3 12.9 C 6.4 km/h
2975 24-12-2015 21:35:00 12.9 C 8.68 g/m*3 12.9 C 9.7 km/h
Sensor: Nr:Datum:Temp:Abs-Feuchte:Windchill:Wind:
Aussen-T/F 2976 24-12-2015 21:40:00 12.9 C 8.68 g/m*3 12.9 C 6.4 km/h
2977 24-12-2015 21:45:00 12.9 C 8.57 g/m*3 12.9 C 11.3 km/h
2978 24-12-2015 21:50:00 13 C 8.62 g/m*3 13 C 9.7 km/h
2979 24-12-2015 21:55:00 13.1 C 8.67 g/m*3 13.1 C 11.3 km/h
2980 24-12-2015 22:00:00 13.1 C 8.67 g/m*3 13.1 C 11.3 km/h
2981 24-12-2015 22:05:00 13.1 C 8.67 g/m*3 13.1 C 11.3 km/h
2982 24-12-2015 22:10:00 13.1 C 8.67 g/m*3 13.1 C 9.7 km/h
2983 24-12-2015 22:15:00 13.1 C 8.67 g/m*3 13.1 C 8.1 km/h
2984 24-12-2015 22:20:00 13.1 C 8.56 g/m*3 13.1 C 8.1 km/h
2985 24-12-2015 22:25:00 13.2 C 8.61 g/m*3 13.2 C 4.8 km/h
2986 24-12-2015 22:30:00 13.2 C 8.61 g/m*3 13.2 C 11.3 km/h
2987 24-12-2015 22:35:00 13.2 C 8.61 g/m*3 13.2 C 11.3 km/h
2988 24-12-2015 22:40:00 13.2 C 8.61 g/m*3 13.2 C 4.8 km/h
2989 24-12-2015 22:45:00 13.1 C 8.67 g/m*3 13.1 C 3.2 km/h
2990 24-12-2015 22:50:00 13.1 C 8.56 g/m*3 13.1 C 9.7 km/h
2991 24-12-2015 22:55:00 13.1 C 8.67 g/m*3 13.1 C 11.3 km/h
2992 24-12-2015 23:00:00 13.2 C 8.61 g/m*3 13.2 C 19.3 km/h
2993 24-12-2015 23:05:00 13.2 C 8.61 g/m*3 13.2 C 12.9 km/h
2994 24-12-2015 23:10:00 13.2 C 8.61 g/m*3 13.2 C 14.5 km/h
2995 24-12-2015 23:15:00 13.2 C 8.73 g/m*3 13.2 C 6.4 km/h
2996 24-12-2015 23:20:00 13.2 C 8.61 g/m*3 13.2 C 17.7 km/h
2997 24-12-2015 23:25:00 13.1 C 8.67 g/m*3 13.1 C 9.7 km/h
2998 24-12-2015 23:30:00 13.2 C 8.73 g/m*3 13.2 C 16.1 km/h
2999 24-12-2015 23:35:00 13.2 C 8.73 g/m*3 13.2 C 14.5 km/h
3000 24-12-2015 23:40:00 13.1 C 8.67 g/m*3 13.1 C 16.1 km/h
Sensor: Nr:Datum:Temp:Abs-Feuchte:Windchill:Wind:
Aussen-T/F 3001 24-12-2015 23:45:00 13.1 C 8.79 g/m*3 13.1 C 16.1 km/h
3002 24-12-2015 23:50:00 13.1 C 8.67 g/m*3 13.1 C 22.5 km/h
3003 24-12-2015 23:55:00 13.1 C 8.79 g/m*3 13.1 C 22.5 km/h
3004 25-12-2015 00:00:00 13.1 C 8.79 g/m*3 13.1 C 17.7 km/h
3005 25-12-2015 00:05:00 13.1 C 8.79 g/m*3 13.1 C 22.5 km/h
3006 25-12-2015 00:10:00 13.1 C 8.9 g/m*3 13.1 C 20.9 km/h
3007 25-12-2015 00:15:00 13 C 8.85 g/m*3 13 C 12.9 km/h
3008 25-12-2015 00:20:00 12.9 C 8.79 g/m*3 12.9 C 16.1 km/h
3009 25-12-2015 00:25:00 12.9 C 8.9 g/m*3 12.9 C 16.1 km/h
3010 25-12-2015 00:30:00 12.8 C 8.96 g/m*3 12.8 C 17.7 km/h
3011 25-12-2015 00:35:00 12.7 C 8.91 g/m*3 12.7 C 12.9 km/h
3012 25-12-2015 00:40:00 12.6 C 8.96 g/m*3 12.6 C 14.5 km/h
3013 25-12-2015 00:45:00 12.6 C 8.96 g/m*3 12.6 C 16.1 km/h
3014 25-12-2015 00:50:00 12.6 C 8.96 g/m*3 12.6 C 17.7 km/h
3015 25-12-2015 00:55:00 12.6 C 8.96 g/m*3 12.6 C 17.7 km/h
3016 25-12-2015 01:00:00 12.6 C 8.96 g/m*3 12.6 C 16.1 km/h
3017 25-12-2015 01:05:00 12.6 C 8.96 g/m*3 12.6 C 12.9 km/h
3018 25-12-2015 01:10:00 12.6 C 8.96 g/m*3 12.6 C 27.4 km/h
3019 25-12-2015 01:15:00 12.6 C 8.96 g/m*3 12.6 C 27.4 km/h
3020 25-12-2015 01:20:00 12.5 C 8.91 g/m*3 12.5 C 17.7 km/h
3021 25-12-2015 01:25:00 12.5 C 8.91 g/m*3 12.5 C 20.9 km/h
3022 25-12-2015 01:30:00 12.4 C 8.85 g/m*3 12.4 C 19.3 km/h
3023 25-12-2015 01:35:00 12.5 C 8.91 g/m*3 12.5 C 17.7 km/h
3024 25-12-2015 01:40:00 12.5 C 8.91 g/m*3 12.5 C 14.5 km/h
3025 25-12-2015 01:45:00 12.5 C 8.91 g/m*3 12.5 C 14.5 km/h
Sensor: Nr:Datum:Temp:Abs-Feuchte:Windchill:Wind:
Aussen-T/F 3026 25-12-2015 01:50:00 12.4 C 8.85 g/m*3 12.4 C 14.5 km/h
3027 25-12-2015 01:55:00 12.3 C 8.9 g/m*3 12.3 C 16.1 km/h
3028 25-12-2015 02:00:00 12.3 C 8.9 g/m*3 12.3 C 12.9 km/h
3029 25-12-2015 02:05:00 12.2 C 8.96 g/m*3 12.2 C 8.1 km/h
3030 25-12-2015 02:10:00 12.2 C 8.96 g/m*3 12.2 C 8.1 km/h
3031 25-12-2015 02:15:00 12.1 C 9.01 g/m*3 12.1 C 9.7 km/h
3032 25-12-2015 02:20:00 11.9 C 9 g/m*3 11.9 C 4.8 km/h
3033 25-12-2015 02:25:00 11.8 C 9.05 g/m*3 11.8 C 3.2 km/h
3034 25-12-2015 02:30:00 11.6 C 8.94 g/m*3 11.6 C 3.2 km/h
3035 25-12-2015 02:35:00 11.4 C 8.93 g/m*3 11.4 C 3.2 km/h
3036 25-12-2015 02:40:00 11.3 C 9.08 g/m*3 11.3 C 3.2 km/h
3037 25-12-2015 02:45:00 11.1 C 9.07 g/m*3 11.1 C 3.2 km/h
3038 25-12-2015 02:50:00 10.9 C 8.95 g/m*3 10.9 C 4.8 km/h
3039 25-12-2015 02:55:00 10.8 C 8.99 g/m*3 10.8 C 1.6 km/h
3040 25-12-2015 03:00:00 10.7 C 8.94 g/m*3 10.7 C 3.2 km/h
3041 25-12-2015 03:05:00 10.5 C 8.92 g/m*3 10.5 C 3.2 km/h
3042 25-12-2015 03:10:00 10.4 C 8.87 g/m*3 10.4 C 3.2 km/h
3043 25-12-2015 03:15:00 10.3 C 8.91 g/m*3 10.3 C 1.6 km/h
3044 25-12-2015 03:20:00 10.2 C 8.85 g/m*3 10.2 C 1.6 km/h
3045 25-12-2015 03:25:00 10.1 C 8.79 g/m*3 10.1 C 4.8 km/h
3046 25-12-2015 03:30:00 10 C 8.74 g/m*3 10 C 3.2 km/h
3047 25-12-2015 03:35:00 9.9 C 8.68 g/m*3 9.9 C 3.2 km/h
3048 25-12-2015 03:40:00 9.8 C 8.72 g/m*3 9.8 C 3.2 km/h
3049 25-12-2015 03:45:00 9.8 C 8.72 g/m*3 9.8 C 3.2 km/h
3050 25-12-2015 03:50:00 9.8 C 8.72 g/m*3 9.8 C 3.2 km/h
Sensor: Nr:Datum:Temp:Abs-Feuchte:Windchill:Wind:
Aussen-T/F 3051 25-12-2015 03:55:00 9.7 C 8.67 g/m*3 9.7 C 4.8 km/h
3052 25-12-2015 04:00:00 9.7 C 8.67 g/m*3 9.7 C 1.6 km/h
3053 25-12-2015 04:05:00 9.6 C 8.61 g/m*3 9.6 C 1.6 km/h
3054 25-12-2015 04:10:00 9.5 C 8.56 g/m*3 9.5 C 1.6 km/h
3055 25-12-2015 04:15:00 9.5 C 8.56 g/m*3 9.5 C 1.6 km/h
3056 25-12-2015 04:20:00 9.4 C 8.5 g/m*3 9.4 C 3.2 km/h
3057 25-12-2015 04:25:00 9.4 C 8.5 g/m*3 9.4 C 3.2 km/h
3058 25-12-2015 04:30:00 9.3 C 8.36 g/m*3 8.16 C 8.1 km/h
3059 25-12-2015 04:35:00 9.4 C 8.41 g/m*3 8.68 C 6.4 km/h
3060 25-12-2015 04:40:00 9.4 C 8.41 g/m*3 8.68 C 6.4 km/h
3061 25-12-2015 04:45:00 9.3 C 8.27 g/m*3 7.85 C 9.7 km/h
3062 25-12-2015 04:50:00 9.2 C 8.13 g/m*3 8.05 C 8.1 km/h
3063 25-12-2015 04:55:00 9.2 C 8.13 g/m*3 9.2 C 4.8 km/h
3064 25-12-2015 05:00:00 9.2 C 8.22 g/m*3 7.46 C 11.3 km/h
3065 25-12-2015 05:05:00 9.1 C 8.16 g/m*3 9.1 C 4.8 km/h
3066 25-12-2015 05:10:00 9.1 C 8.16 g/m*3 9.1 C 4.8 km/h
3067 25-12-2015 05:15:00 9 C 8.11 g/m*3 9 C 4.8 km/h
3068 25-12-2015 05:20:00 8.9 C 8.06 g/m*3 8.1 C 6.4 km/h
3069 25-12-2015 05:25:00 8.8 C 8.01 g/m*3 7.25 C 9.7 km/h
3070 25-12-2015 05:30:00 8.8 C 8.01 g/m*3 8.8 C 4.8 km/h
3071 25-12-2015 05:35:00 8.7 C 7.96 g/m*3 8.7 C 4.8 km/h
3072 25-12-2015 05:40:00 8.7 C 7.96 g/m*3 7.87 C 6.4 km/h
3073 25-12-2015 05:45:00 8.7 C 7.96 g/m*3 8.7 C 4.8 km/h
3074 25-12-2015 05:50:00 8.6 C 7.99 g/m*3 7.75 C 6.4 km/h
3075 25-12-2015 05:55:00 8.6 C 7.99 g/m*3 8.6 C 1.6 km/h
Sensor: Nr:Datum:Temp:Abs-Feuchte:Windchill:Wind:
Aussen-T/F 3076 25-12-2015 06:00:00 8.6 C 7.99 g/m*3 8.6 C 0 km/h
3077 25-12-2015 06:05:00 8.5 C 7.85 g/m*3 8.5 C 0 km/h
3078 25-12-2015 06:10:00 8.4 C 7.8 g/m*3 8.4 C 1.6 km/h
3079 25-12-2015 06:15:00 8.3 C 7.84 g/m*3 8.3 C 3.2 km/h
3080 25-12-2015 06:20:00 8.3 C 7.84 g/m*3 8.3 C 3.2 km/h
3081 25-12-2015 06:25:00 8.2 C 7.79 g/m*3 8.2 C 1.6 km/h
3082 25-12-2015 06:30:00 8.2 C 7.79 g/m*3 8.2 C 3.2 km/h
3083 25-12-2015 06:35:00 8.2 C 7.87 g/m*3 8.2 C 1.6 km/h
3084 25-12-2015 06:40:00 8.1 C 7.82 g/m*3 8.1 C 0 km/h
3085 25-12-2015 06:45:00 8.1 C 7.82 g/m*3 8.1 C 3.2 km/h
3086 25-12-2015 06:50:00 8.1 C 7.82 g/m*3 8.1 C 0 km/h
3087 25-12-2015 06:55:00 8.1 C 7.82 g/m*3 8.1 C 0 km/h
3088 25-12-2015 07:00:00 8.2 C 7.87 g/m*3 8.2 C 0 km/h
3089 25-12-2015 07:05:00 8.1 C 7.82 g/m*3 8.1 C 0 km/h
3090 25-12-2015 07:10:00 8.2 C 7.96 g/m*3 8.2 C 0 km/h
3091 25-12-2015 07:15:00 8.2 C 7.96 g/m*3 8.2 C 0 km/h
3092 25-12-2015 07:20:00 8.2 C 7.96 g/m*3 8.2 C 0 km/h
3093 25-12-2015 07:25:00 8.2 C 7.96 g/m*3 8.2 C 1.6 km/h
3094 25-12-2015 07:30:00 8.2 C 7.96 g/m*3 8.2 C 0 km/h
3095 25-12-2015 07:35:00 8.2 C 7.96 g/m*3 8.2 C 0 km/h
3096 25-12-2015 07:40:00 8.2 C 7.96 g/m*3 8.2 C 1.6 km/h
3097 25-12-2015 07:45:00 8.2 C 7.96 g/m*3 8.2 C 0 km/h
3098 25-12-2015 07:50:00 8.2 C 7.96 g/m*3 8.2 C 0 km/h
3099 25-12-2015 07:55:00 8.2 C 7.96 g/m*3 8.2 C 0 km/h
3100 25-12-2015 08:00:00 8.2 C 7.96 g/m*3 8.2 C 3.2 km/h
Sensor: Nr:Datum:Temp:Abs-Feuchte:Windchill:Wind:
Aussen-T/F 3101 25-12-2015 08:05:00 8.2 C 7.96 g/m*3 8.2 C 1.6 km/h
3102 25-12-2015 08:10:00 8.2 C 7.96 g/m*3 8.2 C 1.6 km/h
3103 25-12-2015 08:15:00 8.2 C 7.96 g/m*3 8.2 C 0 km/h
3104 25-12-2015 08:20:00 8.2 C 7.96 g/m*3 8.2 C 0 km/h
3105 25-12-2015 08:25:00 8.3 C 8.01 g/m*3 8.3 C 1.6 km/h
3106 25-12-2015 08:30:00 8.3 C 8.01 g/m*3 8.3 C 3.2 km/h
3107 25-12-2015 08:35:00 8.3 C 8.01 g/m*3 8.3 C 4.8 km/h
3108 25-12-2015 08:40:00 8.3 C 8.01 g/m*3 8.3 C 0 km/h
3109 25-12-2015 08:45:00 8.3 C 8.01 g/m*3 8.3 C 0 km/h
3110 25-12-2015 08:50:00 8.3 C 8.01 g/m*3 8.3 C 0 km/h
3111 25-12-2015 08:55:00 8.4 C 8.06 g/m*3 8.4 C 0 km/h
3112 25-12-2015 09:00:00 8.4 C 8.06 g/m*3 8.4 C 0 km/h
3113 25-12-2015 09:05:00 8.4 C 8.06 g/m*3 8.4 C 0 km/h
3114 25-12-2015 09:10:00 8.5 C 8.11 g/m*3 8.5 C 1.6 km/h
3115 25-12-2015 09:15:00 8.6 C 8.16 g/m*3 8.6 C 0 km/h
3116 25-12-2015 09:20:00 8.6 C 8.16 g/m*3 8.6 C 0 km/h
3117 25-12-2015 09:25:00 8.7 C 8.22 g/m*3 8.7 C 0 km/h
3118 25-12-2015 09:30:00 8.8 C 8.27 g/m*3 8.8 C 0 km/h
3119 25-12-2015 09:35:00 8.8 C 8.27 g/m*3 8.8 C 0 km/h
3120 25-12-2015 09:40:00 8.8 C 8.27 g/m*3 8.8 C 1.6 km/h
3121 25-12-2015 09:45:00 8.9 C 8.32 g/m*3 8.9 C 1.6 km/h
3122 25-12-2015 09:50:00 9 C 8.38 g/m*3 9 C 1.6 km/h
3123 25-12-2015 09:55:00 9.1 C 8.34 g/m*3 9.1 C 1.6 km/h
3124 25-12-2015 10:00:00 9.2 C 8.39 g/m*3 8.05 C 8.1 km/h
3125 25-12-2015 10:05:00 9.3 C 8.36 g/m*3 9.3 C 3.2 km/h
Sensor: Nr:Datum:Temp:Abs-Feuchte:Windchill:Wind:
Aussen-T/F 3126 25-12-2015 10:10:00 9.4 C 8.41 g/m*3 9.4 C 4.8 km/h
3127 25-12-2015 10:15:00 9.5 C 8.37 g/m*3 8.79 C 6.4 km/h
3128 25-12-2015 10:20:00 9.7 C 8.48 g/m*3 9.02 C 6.4 km/h
3129 25-12-2015 10:25:00 9.8 C 8.54 g/m*3 9.14 C 6.4 km/h
3130 25-12-2015 10:30:00 9.9 C 8.59 g/m*3 9.9 C 3.2 km/h
3131 25-12-2015 10:35:00 10 C 8.55 g/m*3 9.37 C 6.4 km/h
3132 25-12-2015 10:40:00 10.1 C 8.51 g/m*3 10.1 C 4.8 km/h
3133 25-12-2015 10:45:00 10.2 C 8.56 g/m*3 8.92 C 9.7 km/h
3134 25-12-2015 10:50:00 10.3 C 8.62 g/m*3 9.04 C 9.7 km/h
3135 25-12-2015 10:55:00 10.4 C 8.67 g/m*3 9.46 C 8.1 km/h
3136 25-12-2015 11:00:00 10.5 C 8.63 g/m*3 9.28 C 9.7 km/h
3137 25-12-2015 11:05:00 10.5 C 8.73 g/m*3 9.95 C 6.4 km/h
3138 25-12-2015 11:10:00 10.5 C 8.63 g/m*3 10.5 C 3.2 km/h
3139 25-12-2015 11:15:00 10.6 C 8.78 g/m*3 10.6 C 3.2 km/h
3140 25-12-2015 11:20:00 10.6 C 8.78 g/m*3 10.6 C 1.6 km/h
3141 25-12-2015 11:25:00 10.6 C 8.78 g/m*3 10.6 C 1.6 km/h
3142 25-12-2015 11:30:00 10.6 C 8.78 g/m*3 10.6 C 1.6 km/h
3143 25-12-2015 11:35:00 10.6 C 8.88 g/m*3 10.6 C 3.2 km/h
3144 25-12-2015 11:40:00 10.7 C 8.94 g/m*3 10.7 C 3.2 km/h
3145 25-12-2015 11:45:00 10.7 C 8.94 g/m*3 10.7 C 1.6 km/h
3146 25-12-2015 11:50:00 10.7 C 8.94 g/m*3 10.7 C 3.2 km/h
3147 25-12-2015 11:55:00 10.7 C 8.94 g/m*3 10.7 C 1.6 km/h
3148 25-12-2015 12:00:00 10.7 C 8.94 g/m*3 10.7 C 1.6 km/h
3149 25-12-2015 12:05:00 10.7 C 9.04 g/m*3 10.7 C 1.6 km/h
3150 25-12-2015 12:10:00 10.7 C 9.04 g/m*3 10.7 C 4.8 km/h
Sensor: Nr:Datum:Temp:Abs-Feuchte:Windchill:Wind:
Aussen-T/F 3151 25-12-2015 12:15:00 10.7 C 9.04 g/m*3 10.7 C 4.8 km/h
3152 25-12-2015 12:20:00 10.8 C 9.09 g/m*3 9.93 C 8.1 km/h
3153 25-12-2015 12:25:00 10.8 C 9.09 g/m*3 9.64 C 9.7 km/h
3154 25-12-2015 12:30:00 10.8 C 9.09 g/m*3 9.93 C 8.1 km/h
3155 25-12-2015 12:35:00 10.8 C 9.19 g/m*3 9.64 C 9.7 km/h
3156 25-12-2015 12:40:00 10.9 C 9.25 g/m*3 9.28 C 12.9 km/h
3157 25-12-2015 12:45:00 10.9 C 9.25 g/m*3 9.51 C 11.3 km/h
3158 25-12-2015 12:50:00 11 C 9.31 g/m*3 9.88 C 9.7 km/h
3159 25-12-2015 12:55:00 11.2 C 9.43 g/m*3 11.2 C 12.9 km/h
3160 25-12-2015 13:00:00 11.3 C 9.38 g/m*3 11.3 C 12.9 km/h
3161 25-12-2015 13:05:00 11.4 C 9.34 g/m*3 11.4 C 9.7 km/h
3162 25-12-2015 13:10:00 11.5 C 9.3 g/m*3 11.5 C 8.1 km/h
3163 25-12-2015 13:15:00 11.6 C 9.35 g/m*3 11.6 C 19.3 km/h
3164 25-12-2015 13:20:00 11.7 C 9.31 g/m*3 11.7 C 9.7 km/h
3165 25-12-2015 13:25:00 11.7 C 9.31 g/m*3 11.7 C 14.5 km/h
3166 25-12-2015 13:30:00 11.7 C 9.31 g/m*3 11.7 C 12.9 km/h
3167 25-12-2015 13:35:00 11.7 C 9.31 g/m*3 11.7 C 6.4 km/h
3168 25-12-2015 13:40:00 11.7 C 9.31 g/m*3 11.7 C 6.4 km/h
3169 25-12-2015 13:45:00 11.7 C 9.31 g/m*3 11.7 C 9.7 km/h
3170 25-12-2015 13:50:00 11.7 C 9.31 g/m*3 11.7 C 6.4 km/h
3171 25-12-2015 13:55:00 11.7 C 9.2 g/m*3 11.7 C 8.1 km/h
3172 25-12-2015 14:00:00 11.7 C 9.2 g/m*3 11.7 C 11.3 km/h
3173 25-12-2015 14:05:00 11.8 C 9.26 g/m*3 11.8 C 11.3 km/h
3174 25-12-2015 14:10:00 11.8 C 9.26 g/m*3 11.8 C 12.9 km/h
3175 25-12-2015 14:15:00 11.8 C 9.16 g/m*3 11.8 C 14.5 km/h
Sensor: Nr:Datum:Temp:Abs-Feuchte:Windchill:Wind:
Aussen-T/F 3176 25-12-2015 14:20:00 11.8 C 9.16 g/m*3 11.8 C 16.1 km/h
3177 25-12-2015 14:25:00 11.9 C 9.21 g/m*3 11.9 C 16.1 km/h
3178 25-12-2015 14:30:00 11.9 C 9.21 g/m*3 11.9 C 11.3 km/h
3179 25-12-2015 14:35:00 12 C 9.27 g/m*3 12 C 12.9 km/h
3180 25-12-2015 14:40:00 12 C 9.27 g/m*3 12 C 12.9 km/h
3181 25-12-2015 14:45:00 12.1 C 9.22 g/m*3 12.1 C 11.3 km/h
3182 25-12-2015 14:50:00 12.1 C 9.22 g/m*3 12.1 C 12.9 km/h
3183 25-12-2015 14:55:00 12.2 C 9.28 g/m*3 12.2 C 17.7 km/h
3184 25-12-2015 15:00:00 12.3 C 9.34 g/m*3 12.3 C 14.5 km/h
3185 25-12-2015 15:05:00 12.4 C 9.4 g/m*3 12.4 C 16.1 km/h
3186 25-12-2015 15:10:00 12.4 C 9.29 g/m*3 12.4 C 14.5 km/h
3187 25-12-2015 15:15:00 12.4 C 9.29 g/m*3 12.4 C 14.5 km/h
3188 25-12-2015 15:20:00 12.5 C 9.35 g/m*3 12.5 C 17.7 km/h
3189 25-12-2015 15:25:00 12.6 C 9.29 g/m*3 12.6 C 16.1 km/h
3190 25-12-2015 15:30:00 12.6 C 9.29 g/m*3 12.6 C 16.1 km/h
3191 25-12-2015 15:35:00 12.6 C 9.29 g/m*3 12.6 C 17.7 km/h
3192 25-12-2015 15:40:00 12.6 C 9.29 g/m*3 12.6 C 14.5 km/h
3193 25-12-2015 15:45:00 12.6 C 9.29 g/m*3 12.6 C 14.5 km/h
3194 25-12-2015 15:50:00 12.6 C 9.29 g/m*3 12.6 C 17.7 km/h
3195 25-12-2015 15:55:00 12.6 C 9.29 g/m*3 12.6 C 16.1 km/h
3196 25-12-2015 16:00:00 12.6 C 9.18 g/m*3 12.6 C 17.7 km/h
3197 25-12-2015 16:05:00 12.6 C 9.18 g/m*3 12.6 C 16.1 km/h
3198 25-12-2015 16:10:00 12.6 C 9.18 g/m*3 12.6 C 16.1 km/h
3199 25-12-2015 16:15:00 12.7 C 9.24 g/m*3 12.7 C 19.3 km/h
3200 25-12-2015 16:20:00 12.7 C 9.24 g/m*3 12.7 C 20.9 km/h
Sensor: Nr:Datum:Temp:Abs-Feuchte:Windchill:Wind:
Aussen-T/F 3201 25-12-2015 16:25:00 12.7 C 9.24 g/m*3 12.7 C 16.1 km/h
3202 25-12-2015 16:30:00 12.7 C 9.24 g/m*3 12.7 C 16.1 km/h
3203 25-12-2015 16:35:00 12.6 C 9.18 g/m*3 12.6 C 16.1 km/h
3204 25-12-2015 16:40:00 12.6 C 9.18 g/m*3 12.6 C 19.3 km/h
3205 25-12-2015 16:45:00 12.5 C 9.13 g/m*3 12.5 C 16.1 km/h
3206 25-12-2015 16:50:00 12.6 C 9.18 g/m*3 12.6 C 17.7 km/h
3207 25-12-2015 16:55:00 12.6 C 9.18 g/m*3 12.6 C 20.9 km/h
3208 25-12-2015 17:00:00 12.6 C 9.18 g/m*3 12.6 C 14.5 km/h
3209 25-12-2015 17:05:00 12.6 C 9.18 g/m*3 12.6 C 16.1 km/h
3210 25-12-2015 17:10:00 12.6 C 9.18 g/m*3 12.6 C 25.7 km/h
3211 25-12-2015 17:15:00 12.6 C 9.18 g/m*3 12.6 C 19.3 km/h
3212 25-12-2015 17:20:00 12.6 C 9.18 g/m*3 12.6 C 17.7 km/h
3213 25-12-2015 17:25:00 12.6 C 9.18 g/m*3 12.6 C 17.7 km/h
3214 25-12-2015 17:30:00 12.6 C 9.18 g/m*3 12.6 C 24.1 km/h
3215 25-12-2015 17:35:00 12.6 C 9.18 g/m*3 12.6 C 16.1 km/h
3216 25-12-2015 17:40:00 12.6 C 9.07 g/m*3 12.6 C 17.7 km/h
3217 25-12-2015 17:45:00 12.6 C 9.18 g/m*3 12.6 C 14.5 km/h